<?xml version="1.0" encoding="UTF-8" standalone="no" ?>
<gpx xmlns="http://www.topografix.com/GPX/1/1" xmlns:xsi="http://www.w3.org/2001/XMLSchema-instance" xsi:schemaLocation="http://www.topografix.com/GPX/1/1 http://www.topografix.com/GPX/1/1/gpx.xsd" version="1.1" creator="VisuGPX - https://www.visugpx.com">
  <metadata>
    <name>28 CCC Flémalle - Val Meer - Flémalle</name>
    <desc><![CDATA[Randonnée au départ de l'Auto5 de Flémalle.
Flémalle - Jemeppe - Grâce - Berleur - Rocourt - Liers - Milmort - Houtain St Siméon - Bassenge - Val-Meer - Millen - Sluizen - Mal - Tongres - Othée - Villers l'Evêque - Fooz - Voroux-Goreux - Velroux - Hozémont - Awirs - Chokier - Flémalle.]]></desc>
  </metadata>
  <trk>
    <name><![CDATA[28 CCC]]></name>
    <extensions>
      <line xmlns="http://www.topografix.com/GPX/gpx_style/0/2">
        <color>0000FF</color>
        <width>4</width>
      </line>
    </extensions>
    <trkseg>
      <trkpt lat="50.60418" lon="5.4842">
        <ele>65</ele>
        <time>2018-11-18T21:29:09Z</time>
      </trkpt>
      <trkpt lat="50.6035" lon="5.48517">
        <ele>64</ele>
        <time>2018-11-18T21:30:09Z</time>
      </trkpt>
      <trkpt lat="50.60363" lon="5.4855">
        <ele>63</ele>
        <time>2018-11-18T21:31:09Z</time>
      </trkpt>
      <trkpt lat="50.60372" lon="5.48534">
        <ele>64</ele>
        <time>2018-11-18T21:32:09Z</time>
      </trkpt>
      <trkpt lat="50.60416" lon="5.48482">
        <ele>64</ele>
        <time>2018-11-18T21:33:09Z</time>
      </trkpt>
      <trkpt lat="50.60469" lon="5.48417">
        <ele>66</ele>
        <time>2018-11-18T21:34:09Z</time>
      </trkpt>
      <trkpt lat="50.60488" lon="5.48396">
        <ele>67</ele>
        <time>2018-11-18T21:35:09Z</time>
      </trkpt>
      <trkpt lat="50.60505" lon="5.48401">
        <ele>67</ele>
        <time>2018-11-18T21:36:09Z</time>
      </trkpt>
      <trkpt lat="50.60517" lon="5.48426">
        <ele>67</ele>
        <time>2018-11-18T21:37:09Z</time>
      </trkpt>
      <trkpt lat="50.60569" lon="5.48546">
        <ele>65</ele>
        <time>2018-11-18T21:38:09Z</time>
      </trkpt>
      <trkpt lat="50.6066" lon="5.48756">
        <ele>64</ele>
        <time>2018-11-18T21:39:09Z</time>
      </trkpt>
      <trkpt lat="50.60756" lon="5.48941">
        <ele>64</ele>
        <time>2018-11-18T21:40:09Z</time>
      </trkpt>
      <trkpt lat="50.60823" lon="5.49068">
        <ele>65</ele>
        <time>2018-11-18T21:41:09Z</time>
      </trkpt>
      <trkpt lat="50.60877" lon="5.49155">
        <ele>65</ele>
        <time>2018-11-18T21:42:09Z</time>
      </trkpt>
      <trkpt lat="50.60922" lon="5.49226">
        <ele>64</ele>
        <time>2018-11-18T21:43:09Z</time>
      </trkpt>
      <trkpt lat="50.6102" lon="5.49371">
        <ele>64</ele>
        <time>2018-11-18T21:44:09Z</time>
      </trkpt>
      <trkpt lat="50.6112" lon="5.49523">
        <ele>65</ele>
        <time>2018-11-18T21:45:09Z</time>
      </trkpt>
      <trkpt lat="50.61202" lon="5.49649">
        <ele>67</ele>
        <time>2018-11-18T21:46:09Z</time>
      </trkpt>
      <trkpt lat="50.61249" lon="5.49721">
        <ele>64</ele>
        <time>2018-11-18T21:47:09Z</time>
      </trkpt>
      <trkpt lat="50.61283" lon="5.49779">
        <ele>61</ele>
        <time>2018-11-18T21:48:09Z</time>
      </trkpt>
      <trkpt lat="50.61364" lon="5.49918">
        <ele>62</ele>
        <time>2018-11-18T21:49:09Z</time>
      </trkpt>
      <trkpt lat="50.61428" lon="5.50027">
        <ele>63</ele>
        <time>2018-11-18T21:50:09Z</time>
      </trkpt>
      <trkpt lat="50.61466" lon="5.50093">
        <ele>63</ele>
        <time>2018-11-18T21:51:09Z</time>
      </trkpt>
      <trkpt lat="50.61472" lon="5.50087">
        <ele>63</ele>
        <time>2018-11-18T21:52:09Z</time>
      </trkpt>
      <trkpt lat="50.61502" lon="5.50053">
        <ele>63</ele>
        <time>2018-11-18T21:53:09Z</time>
      </trkpt>
      <trkpt lat="50.61539" lon="5.50022">
        <ele>64</ele>
        <time>2018-11-18T21:54:09Z</time>
      </trkpt>
      <trkpt lat="50.61581" lon="5.49988">
        <ele>64</ele>
        <time>2018-11-18T21:55:09Z</time>
      </trkpt>
      <trkpt lat="50.61621" lon="5.49944">
        <ele>65</ele>
        <time>2018-11-18T21:56:09Z</time>
      </trkpt>
      <trkpt lat="50.61667" lon="5.49884">
        <ele>66</ele>
        <time>2018-11-18T21:57:09Z</time>
      </trkpt>
      <trkpt lat="50.61687" lon="5.49863">
        <ele>66</ele>
        <time>2018-11-18T21:58:09Z</time>
      </trkpt>
      <trkpt lat="50.61741" lon="5.49828">
        <ele>68</ele>
        <time>2018-11-18T21:59:09Z</time>
      </trkpt>
      <trkpt lat="50.61779" lon="5.49807">
        <ele>69</ele>
        <time>2018-11-18T22:00:09Z</time>
      </trkpt>
      <trkpt lat="50.61796" lon="5.49797">
        <ele>69</ele>
        <time>2018-11-18T22:01:09Z</time>
      </trkpt>
      <trkpt lat="50.61835" lon="5.49762">
        <ele>70</ele>
        <time>2018-11-18T22:02:09Z</time>
      </trkpt>
      <trkpt lat="50.61874" lon="5.49723">
        <ele>71</ele>
        <time>2018-11-18T22:03:09Z</time>
      </trkpt>
      <trkpt lat="50.61929" lon="5.49671">
        <ele>73</ele>
        <time>2018-11-18T22:04:09Z</time>
      </trkpt>
      <trkpt lat="50.6196" lon="5.49634">
        <ele>76</ele>
        <time>2018-11-18T22:05:09Z</time>
      </trkpt>
      <trkpt lat="50.61986" lon="5.49608">
        <ele>77</ele>
        <time>2018-11-18T22:06:09Z</time>
      </trkpt>
      <trkpt lat="50.62022" lon="5.496">
        <ele>78</ele>
        <time>2018-11-18T22:07:09Z</time>
      </trkpt>
      <trkpt lat="50.6204" lon="5.49598">
        <ele>79</ele>
        <time>2018-11-18T22:08:09Z</time>
      </trkpt>
      <trkpt lat="50.62057" lon="5.49597">
        <ele>79</ele>
        <time>2018-11-18T22:09:09Z</time>
      </trkpt>
      <trkpt lat="50.62102" lon="5.49597">
        <ele>80</ele>
        <time>2018-11-18T22:10:09Z</time>
      </trkpt>
      <trkpt lat="50.62131" lon="5.49599">
        <ele>80</ele>
        <time>2018-11-18T22:11:09Z</time>
      </trkpt>
      <trkpt lat="50.62154" lon="5.49604">
        <ele>80</ele>
        <time>2018-11-18T22:12:09Z</time>
      </trkpt>
      <trkpt lat="50.62172" lon="5.49636">
        <ele>80</ele>
        <time>2018-11-18T22:13:09Z</time>
      </trkpt>
      <trkpt lat="50.62192" lon="5.49676">
        <ele>81</ele>
        <time>2018-11-18T22:14:09Z</time>
      </trkpt>
      <trkpt lat="50.62213" lon="5.49704">
        <ele>81</ele>
        <time>2018-11-18T22:15:09Z</time>
      </trkpt>
      <trkpt lat="50.62267" lon="5.49753">
        <ele>83</ele>
        <time>2018-11-18T22:16:09Z</time>
      </trkpt>
      <trkpt lat="50.62286" lon="5.49769">
        <ele>86</ele>
        <time>2018-11-18T22:17:09Z</time>
      </trkpt>
      <trkpt lat="50.62314" lon="5.49799">
        <ele>88</ele>
        <time>2018-11-18T22:18:09Z</time>
      </trkpt>
      <trkpt lat="50.62338" lon="5.4983">
        <ele>89</ele>
        <time>2018-11-18T22:19:09Z</time>
      </trkpt>
      <trkpt lat="50.62353" lon="5.49851">
        <ele>90</ele>
        <time>2018-11-18T22:20:09Z</time>
      </trkpt>
      <trkpt lat="50.62375" lon="5.4988">
        <ele>92</ele>
        <time>2018-11-18T22:21:09Z</time>
      </trkpt>
      <trkpt lat="50.62467" lon="5.50002">
        <ele>98</ele>
        <time>2018-11-18T22:22:09Z</time>
      </trkpt>
      <trkpt lat="50.62541" lon="5.50105">
        <ele>102</ele>
        <time>2018-11-18T22:23:09Z</time>
      </trkpt>
      <trkpt lat="50.62626" lon="5.50229">
        <ele>109</ele>
        <time>2018-11-18T22:24:09Z</time>
      </trkpt>
      <trkpt lat="50.62684" lon="5.50313">
        <ele>114</ele>
        <time>2018-11-18T22:25:09Z</time>
      </trkpt>
      <trkpt lat="50.62765" lon="5.50434">
        <ele>108</ele>
        <time>2018-11-18T22:26:09Z</time>
      </trkpt>
      <trkpt lat="50.62843" lon="5.50564">
        <ele>106</ele>
        <time>2018-11-18T22:27:09Z</time>
      </trkpt>
      <trkpt lat="50.62867" lon="5.50602">
        <ele>106</ele>
        <time>2018-11-18T22:28:09Z</time>
      </trkpt>
      <trkpt lat="50.62894" lon="5.50647">
        <ele>106</ele>
        <time>2018-11-18T22:29:09Z</time>
      </trkpt>
      <trkpt lat="50.62902" lon="5.50658">
        <ele>106</ele>
        <time>2018-11-18T22:30:09Z</time>
      </trkpt>
      <trkpt lat="50.62929" lon="5.50697">
        <ele>106</ele>
        <time>2018-11-18T22:31:09Z</time>
      </trkpt>
      <trkpt lat="50.62937" lon="5.50702">
        <ele>106</ele>
        <time>2018-11-18T22:32:09Z</time>
      </trkpt>
      <trkpt lat="50.62967" lon="5.50719">
        <ele>105</ele>
        <time>2018-11-18T22:33:09Z</time>
      </trkpt>
      <trkpt lat="50.62972" lon="5.50733">
        <ele>104</ele>
        <time>2018-11-18T22:34:09Z</time>
      </trkpt>
      <trkpt lat="50.62987" lon="5.50741">
        <ele>104</ele>
        <time>2018-11-18T22:35:09Z</time>
      </trkpt>
      <trkpt lat="50.62993" lon="5.50746">
        <ele>103</ele>
        <time>2018-11-18T22:36:09Z</time>
      </trkpt>
      <trkpt lat="50.63079" lon="5.50816">
        <ele>102</ele>
        <time>2018-11-18T22:37:09Z</time>
      </trkpt>
      <trkpt lat="50.63141" lon="5.50869">
        <ele>107</ele>
        <time>2018-11-18T22:38:09Z</time>
      </trkpt>
      <trkpt lat="50.63168" lon="5.50892">
        <ele>109</ele>
        <time>2018-11-18T22:39:09Z</time>
      </trkpt>
      <trkpt lat="50.63205" lon="5.5093">
        <ele>109</ele>
        <time>2018-11-18T22:40:09Z</time>
      </trkpt>
      <trkpt lat="50.63211" lon="5.50948">
        <ele>110</ele>
        <time>2018-11-18T22:41:09Z</time>
      </trkpt>
      <trkpt lat="50.63225" lon="5.50977">
        <ele>110</ele>
        <time>2018-11-18T22:42:09Z</time>
      </trkpt>
      <trkpt lat="50.6325" lon="5.51003">
        <ele>107</ele>
        <time>2018-11-18T22:43:09Z</time>
      </trkpt>
      <trkpt lat="50.63293" lon="5.51083">
        <ele>113</ele>
        <time>2018-11-18T22:44:09Z</time>
      </trkpt>
      <trkpt lat="50.63311" lon="5.51119">
        <ele>114</ele>
        <time>2018-11-18T22:45:09Z</time>
      </trkpt>
      <trkpt lat="50.63353" lon="5.51181">
        <ele>113</ele>
        <time>2018-11-18T22:46:09Z</time>
      </trkpt>
      <trkpt lat="50.63404" lon="5.51268">
        <ele>117</ele>
        <time>2018-11-18T22:47:09Z</time>
      </trkpt>
      <trkpt lat="50.6348" lon="5.51388">
        <ele>116</ele>
        <time>2018-11-18T22:48:09Z</time>
      </trkpt>
      <trkpt lat="50.63555" lon="5.51499">
        <ele>120</ele>
        <time>2018-11-18T22:49:09Z</time>
      </trkpt>
      <trkpt lat="50.63635" lon="5.51618">
        <ele>123</ele>
        <time>2018-11-18T22:50:09Z</time>
      </trkpt>
      <trkpt lat="50.63651" lon="5.5164">
        <ele>123</ele>
        <time>2018-11-18T22:51:09Z</time>
      </trkpt>
      <trkpt lat="50.63654" lon="5.51658">
        <ele>123</ele>
        <time>2018-11-18T22:52:09Z</time>
      </trkpt>
      <trkpt lat="50.63661" lon="5.5167">
        <ele>122</ele>
        <time>2018-11-18T22:53:09Z</time>
      </trkpt>
      <trkpt lat="50.63676" lon="5.51691">
        <ele>123</ele>
        <time>2018-11-18T22:54:09Z</time>
      </trkpt>
      <trkpt lat="50.63688" lon="5.51706">
        <ele>123</ele>
        <time>2018-11-18T22:55:09Z</time>
      </trkpt>
      <trkpt lat="50.63697" lon="5.51713">
        <ele>124</ele>
        <time>2018-11-18T22:56:09Z</time>
      </trkpt>
      <trkpt lat="50.63736" lon="5.51781">
        <ele>123</ele>
        <time>2018-11-18T22:57:09Z</time>
      </trkpt>
      <trkpt lat="50.63774" lon="5.51858">
        <ele>125</ele>
        <time>2018-11-18T22:58:09Z</time>
      </trkpt>
      <trkpt lat="50.63789" lon="5.51894">
        <ele>127</ele>
        <time>2018-11-18T22:59:09Z</time>
      </trkpt>
      <trkpt lat="50.63821" lon="5.51982">
        <ele>127</ele>
        <time>2018-11-18T23:00:09Z</time>
      </trkpt>
      <trkpt lat="50.63866" lon="5.5211">
        <ele>131</ele>
        <time>2018-11-18T23:01:09Z</time>
      </trkpt>
      <trkpt lat="50.6389" lon="5.52176">
        <ele>134</ele>
        <time>2018-11-18T23:02:09Z</time>
      </trkpt>
      <trkpt lat="50.63902" lon="5.52203">
        <ele>136</ele>
        <time>2018-11-18T23:03:09Z</time>
      </trkpt>
      <trkpt lat="50.63911" lon="5.52217">
        <ele>137</ele>
        <time>2018-11-18T23:04:09Z</time>
      </trkpt>
      <trkpt lat="50.6393" lon="5.5224">
        <ele>138</ele>
        <time>2018-11-18T23:05:09Z</time>
      </trkpt>
      <trkpt lat="50.63944" lon="5.5226">
        <ele>140</ele>
        <time>2018-11-18T23:06:09Z</time>
      </trkpt>
      <trkpt lat="50.63964" lon="5.52278">
        <ele>141</ele>
        <time>2018-11-18T23:07:09Z</time>
      </trkpt>
      <trkpt lat="50.6398" lon="5.52289">
        <ele>141</ele>
        <time>2018-11-18T23:08:09Z</time>
      </trkpt>
      <trkpt lat="50.64022" lon="5.5231">
        <ele>143</ele>
        <time>2018-11-18T23:09:09Z</time>
      </trkpt>
      <trkpt lat="50.641" lon="5.52352">
        <ele>148</ele>
        <time>2018-11-18T23:10:09Z</time>
      </trkpt>
      <trkpt lat="50.64159" lon="5.52383">
        <ele>153</ele>
        <time>2018-11-18T23:11:09Z</time>
      </trkpt>
      <trkpt lat="50.64184" lon="5.52404">
        <ele>154</ele>
        <time>2018-11-18T23:12:09Z</time>
      </trkpt>
      <trkpt lat="50.64224" lon="5.52463">
        <ele>158</ele>
        <time>2018-11-18T23:13:09Z</time>
      </trkpt>
      <trkpt lat="50.64286" lon="5.52559">
        <ele>163</ele>
        <time>2018-11-18T23:14:09Z</time>
      </trkpt>
      <trkpt lat="50.64297" lon="5.52573">
        <ele>163</ele>
        <time>2018-11-18T23:15:09Z</time>
      </trkpt>
      <trkpt lat="50.643" lon="5.52584">
        <ele>163</ele>
        <time>2018-11-18T23:16:09Z</time>
      </trkpt>
      <trkpt lat="50.64309" lon="5.52593">
        <ele>163</ele>
        <time>2018-11-18T23:17:09Z</time>
      </trkpt>
      <trkpt lat="50.64318" lon="5.52598">
        <ele>163</ele>
        <time>2018-11-18T23:18:09Z</time>
      </trkpt>
      <trkpt lat="50.64324" lon="5.52615">
        <ele>163</ele>
        <time>2018-11-18T23:19:09Z</time>
      </trkpt>
      <trkpt lat="50.64334" lon="5.52648">
        <ele>163</ele>
        <time>2018-11-18T23:20:09Z</time>
      </trkpt>
      <trkpt lat="50.64346" lon="5.52686">
        <ele>166</ele>
        <time>2018-11-18T23:21:09Z</time>
      </trkpt>
      <trkpt lat="50.64359" lon="5.52734">
        <ele>169</ele>
        <time>2018-11-18T23:22:09Z</time>
      </trkpt>
      <trkpt lat="50.64367" lon="5.52761">
        <ele>169</ele>
        <time>2018-11-18T23:23:09Z</time>
      </trkpt>
      <trkpt lat="50.64381" lon="5.52802">
        <ele>170</ele>
        <time>2018-11-18T23:24:09Z</time>
      </trkpt>
      <trkpt lat="50.64389" lon="5.52813">
        <ele>170</ele>
        <time>2018-11-18T23:25:09Z</time>
      </trkpt>
      <trkpt lat="50.64399" lon="5.52817">
        <ele>170</ele>
        <time>2018-11-18T23:26:09Z</time>
      </trkpt>
      <trkpt lat="50.64467" lon="5.52829">
        <ele>173</ele>
        <time>2018-11-18T23:27:09Z</time>
      </trkpt>
      <trkpt lat="50.64479" lon="5.5283">
        <ele>174</ele>
        <time>2018-11-18T23:28:09Z</time>
      </trkpt>
      <trkpt lat="50.64534" lon="5.52824">
        <ele>176</ele>
        <time>2018-11-18T23:29:09Z</time>
      </trkpt>
      <trkpt lat="50.64552" lon="5.52817">
        <ele>177</ele>
        <time>2018-11-18T23:30:09Z</time>
      </trkpt>
      <trkpt lat="50.64574" lon="5.52808">
        <ele>177</ele>
        <time>2018-11-18T23:31:09Z</time>
      </trkpt>
      <trkpt lat="50.64609" lon="5.52795">
        <ele>178</ele>
        <time>2018-11-18T23:32:09Z</time>
      </trkpt>
      <trkpt lat="50.64627" lon="5.52788">
        <ele>179</ele>
        <time>2018-11-18T23:33:09Z</time>
      </trkpt>
      <trkpt lat="50.64642" lon="5.52778">
        <ele>179</ele>
        <time>2018-11-18T23:34:09Z</time>
      </trkpt>
      <trkpt lat="50.64657" lon="5.52764">
        <ele>180</ele>
        <time>2018-11-18T23:35:09Z</time>
      </trkpt>
      <trkpt lat="50.64673" lon="5.52739">
        <ele>180</ele>
        <time>2018-11-18T23:36:09Z</time>
      </trkpt>
      <trkpt lat="50.64681" lon="5.52712">
        <ele>181</ele>
        <time>2018-11-18T23:37:09Z</time>
      </trkpt>
      <trkpt lat="50.64708" lon="5.5263">
        <ele>182</ele>
        <time>2018-11-18T23:38:09Z</time>
      </trkpt>
      <trkpt lat="50.6473" lon="5.52568">
        <ele>183</ele>
        <time>2018-11-18T23:39:09Z</time>
      </trkpt>
      <trkpt lat="50.64754" lon="5.52513">
        <ele>184</ele>
        <time>2018-11-18T23:40:09Z</time>
      </trkpt>
      <trkpt lat="50.6477" lon="5.52493">
        <ele>184</ele>
        <time>2018-11-18T23:41:09Z</time>
      </trkpt>
      <trkpt lat="50.64847" lon="5.52417">
        <ele>184</ele>
        <time>2018-11-18T23:42:09Z</time>
      </trkpt>
      <trkpt lat="50.64891" lon="5.52375">
        <ele>185</ele>
        <time>2018-11-18T23:43:09Z</time>
      </trkpt>
      <trkpt lat="50.64918" lon="5.52358">
        <ele>186</ele>
        <time>2018-11-18T23:44:09Z</time>
      </trkpt>
      <trkpt lat="50.6494" lon="5.5235">
        <ele>187</ele>
        <time>2018-11-18T23:45:09Z</time>
      </trkpt>
      <trkpt lat="50.64973" lon="5.52343">
        <ele>188</ele>
        <time>2018-11-18T23:46:09Z</time>
      </trkpt>
      <trkpt lat="50.64996" lon="5.52349">
        <ele>189</ele>
        <time>2018-11-18T23:47:09Z</time>
      </trkpt>
      <trkpt lat="50.65022" lon="5.5237">
        <ele>188</ele>
        <time>2018-11-18T23:48:09Z</time>
      </trkpt>
      <trkpt lat="50.65068" lon="5.52423">
        <ele>187</ele>
        <time>2018-11-18T23:49:09Z</time>
      </trkpt>
      <trkpt lat="50.65095" lon="5.52455">
        <ele>187</ele>
        <time>2018-11-18T23:50:09Z</time>
      </trkpt>
      <trkpt lat="50.65128" lon="5.52497">
        <ele>187</ele>
        <time>2018-11-18T23:51:09Z</time>
      </trkpt>
      <trkpt lat="50.65159" lon="5.52535">
        <ele>186</ele>
        <time>2018-11-18T23:52:09Z</time>
      </trkpt>
      <trkpt lat="50.65203" lon="5.52586">
        <ele>186</ele>
        <time>2018-11-18T23:53:09Z</time>
      </trkpt>
      <trkpt lat="50.6527" lon="5.52659">
        <ele>187</ele>
        <time>2018-11-18T23:54:09Z</time>
      </trkpt>
      <trkpt lat="50.65306" lon="5.52699">
        <ele>189</ele>
        <time>2018-11-18T23:55:09Z</time>
      </trkpt>
      <trkpt lat="50.65332" lon="5.52728">
        <ele>189</ele>
        <time>2018-11-18T23:56:09Z</time>
      </trkpt>
      <trkpt lat="50.65406" lon="5.52813">
        <ele>183</ele>
        <time>2018-11-18T23:57:09Z</time>
      </trkpt>
      <trkpt lat="50.655" lon="5.52923">
        <ele>183</ele>
        <time>2018-11-18T23:58:09Z</time>
      </trkpt>
      <trkpt lat="50.65578" lon="5.53014">
        <ele>183</ele>
        <time>2018-11-18T23:59:09Z</time>
      </trkpt>
      <trkpt lat="50.656" lon="5.53036">
        <ele>182</ele>
        <time>2018-11-19T00:00:09Z</time>
      </trkpt>
      <trkpt lat="50.65625" lon="5.53055">
        <ele>183</ele>
        <time>2018-11-19T00:01:09Z</time>
      </trkpt>
      <trkpt lat="50.65646" lon="5.53071">
        <ele>183</ele>
        <time>2018-11-19T00:02:09Z</time>
      </trkpt>
      <trkpt lat="50.65668" lon="5.53088">
        <ele>183</ele>
        <time>2018-11-19T00:03:09Z</time>
      </trkpt>
      <trkpt lat="50.65777" lon="5.53173">
        <ele>186</ele>
        <time>2018-11-19T00:04:09Z</time>
      </trkpt>
      <trkpt lat="50.65815" lon="5.53203">
        <ele>187</ele>
        <time>2018-11-19T00:05:09Z</time>
      </trkpt>
      <trkpt lat="50.65936" lon="5.53296">
        <ele>185</ele>
        <time>2018-11-19T00:06:09Z</time>
      </trkpt>
      <trkpt lat="50.66032" lon="5.53372">
        <ele>185</ele>
        <time>2018-11-19T00:07:09Z</time>
      </trkpt>
      <trkpt lat="50.66132" lon="5.53449">
        <ele>184</ele>
        <time>2018-11-19T00:08:09Z</time>
      </trkpt>
      <trkpt lat="50.66248" lon="5.53541">
        <ele>184</ele>
        <time>2018-11-19T00:09:09Z</time>
      </trkpt>
      <trkpt lat="50.66357" lon="5.53625">
        <ele>183</ele>
        <time>2018-11-19T00:10:09Z</time>
      </trkpt>
      <trkpt lat="50.66457" lon="5.53708">
        <ele>179</ele>
        <time>2018-11-19T00:11:09Z</time>
      </trkpt>
      <trkpt lat="50.6647" lon="5.53718">
        <ele>179</ele>
        <time>2018-11-19T00:12:09Z</time>
      </trkpt>
      <trkpt lat="50.66535" lon="5.5377">
        <ele>177</ele>
        <time>2018-11-19T00:13:09Z</time>
      </trkpt>
      <trkpt lat="50.66617" lon="5.53835">
        <ele>176</ele>
        <time>2018-11-19T00:14:09Z</time>
      </trkpt>
      <trkpt lat="50.66682" lon="5.53885">
        <ele>175</ele>
        <time>2018-11-19T00:15:09Z</time>
      </trkpt>
      <trkpt lat="50.66793" lon="5.53974">
        <ele>173</ele>
        <time>2018-11-19T00:16:09Z</time>
      </trkpt>
      <trkpt lat="50.66848" lon="5.54016">
        <ele>172</ele>
        <time>2018-11-19T00:17:09Z</time>
      </trkpt>
      <trkpt lat="50.66888" lon="5.54047">
        <ele>173</ele>
        <time>2018-11-19T00:18:09Z</time>
      </trkpt>
      <trkpt lat="50.66941" lon="5.54088">
        <ele>173</ele>
        <time>2018-11-19T00:19:09Z</time>
      </trkpt>
      <trkpt lat="50.6706" lon="5.54183">
        <ele>172</ele>
        <time>2018-11-19T00:20:09Z</time>
      </trkpt>
      <trkpt lat="50.67147" lon="5.54251">
        <ele>171</ele>
        <time>2018-11-19T00:21:09Z</time>
      </trkpt>
      <trkpt lat="50.67197" lon="5.5429">
        <ele>171</ele>
        <time>2018-11-19T00:22:09Z</time>
      </trkpt>
      <trkpt lat="50.67271" lon="5.54348">
        <ele>173</ele>
        <time>2018-11-19T00:23:09Z</time>
      </trkpt>
      <trkpt lat="50.67348" lon="5.54407">
        <ele>172</ele>
        <time>2018-11-19T00:24:09Z</time>
      </trkpt>
      <trkpt lat="50.67457" lon="5.54492">
        <ele>173</ele>
        <time>2018-11-19T00:25:09Z</time>
      </trkpt>
      <trkpt lat="50.67549" lon="5.54564">
        <ele>174</ele>
        <time>2018-11-19T00:26:09Z</time>
      </trkpt>
      <trkpt lat="50.67586" lon="5.54594">
        <ele>175</ele>
        <time>2018-11-19T00:27:09Z</time>
      </trkpt>
      <trkpt lat="50.67616" lon="5.54615">
        <ele>175</ele>
        <time>2018-11-19T00:28:09Z</time>
      </trkpt>
      <trkpt lat="50.67659" lon="5.54632">
        <ele>174</ele>
        <time>2018-11-19T00:29:09Z</time>
      </trkpt>
      <trkpt lat="50.6773" lon="5.54659">
        <ele>172</ele>
        <time>2018-11-19T00:30:09Z</time>
      </trkpt>
      <trkpt lat="50.67819" lon="5.54689">
        <ele>170</ele>
        <time>2018-11-19T00:31:09Z</time>
      </trkpt>
      <trkpt lat="50.67867" lon="5.54707">
        <ele>170</ele>
        <time>2018-11-19T00:32:09Z</time>
      </trkpt>
      <trkpt lat="50.67984" lon="5.54785">
        <ele>168</ele>
        <time>2018-11-19T00:33:09Z</time>
      </trkpt>
      <trkpt lat="50.68032" lon="5.54814">
        <ele>168</ele>
        <time>2018-11-19T00:34:09Z</time>
      </trkpt>
      <trkpt lat="50.6807" lon="5.54827">
        <ele>168</ele>
        <time>2018-11-19T00:35:09Z</time>
      </trkpt>
      <trkpt lat="50.68152" lon="5.5485">
        <ele>167</ele>
        <time>2018-11-19T00:36:09Z</time>
      </trkpt>
      <trkpt lat="50.68195" lon="5.54859">
        <ele>166</ele>
        <time>2018-11-19T00:37:09Z</time>
      </trkpt>
      <trkpt lat="50.68237" lon="5.54872">
        <ele>166</ele>
        <time>2018-11-19T00:38:09Z</time>
      </trkpt>
      <trkpt lat="50.68269" lon="5.54882">
        <ele>166</ele>
        <time>2018-11-19T00:39:09Z</time>
      </trkpt>
      <trkpt lat="50.68312" lon="5.54906">
        <ele>165</ele>
        <time>2018-11-19T00:40:09Z</time>
      </trkpt>
      <trkpt lat="50.68353" lon="5.54925">
        <ele>165</ele>
        <time>2018-11-19T00:41:09Z</time>
      </trkpt>
      <trkpt lat="50.68401" lon="5.5495">
        <ele>165</ele>
        <time>2018-11-19T00:42:09Z</time>
      </trkpt>
      <trkpt lat="50.68426" lon="5.54968">
        <ele>166</ele>
        <time>2018-11-19T00:43:09Z</time>
      </trkpt>
      <trkpt lat="50.68453" lon="5.54992">
        <ele>166</ele>
        <time>2018-11-19T00:44:09Z</time>
      </trkpt>
      <trkpt lat="50.685" lon="5.55047">
        <ele>166</ele>
        <time>2018-11-19T00:45:09Z</time>
      </trkpt>
      <trkpt lat="50.68521" lon="5.55075">
        <ele>166</ele>
        <time>2018-11-19T00:46:09Z</time>
      </trkpt>
      <trkpt lat="50.68527" lon="5.55089">
        <ele>166</ele>
        <time>2018-11-19T00:47:09Z</time>
      </trkpt>
      <trkpt lat="50.68539" lon="5.55109">
        <ele>166</ele>
        <time>2018-11-19T00:48:09Z</time>
      </trkpt>
      <trkpt lat="50.68555" lon="5.55145">
        <ele>166</ele>
        <time>2018-11-19T00:49:09Z</time>
      </trkpt>
      <trkpt lat="50.68564" lon="5.55171">
        <ele>167</ele>
        <time>2018-11-19T00:50:09Z</time>
      </trkpt>
      <trkpt lat="50.68571" lon="5.55196">
        <ele>168</ele>
        <time>2018-11-19T00:51:09Z</time>
      </trkpt>
      <trkpt lat="50.68586" lon="5.55236">
        <ele>169</ele>
        <time>2018-11-19T00:52:09Z</time>
      </trkpt>
      <trkpt lat="50.68597" lon="5.55258">
        <ele>169</ele>
        <time>2018-11-19T00:53:09Z</time>
      </trkpt>
      <trkpt lat="50.68619" lon="5.55303">
        <ele>169</ele>
        <time>2018-11-19T00:54:09Z</time>
      </trkpt>
      <trkpt lat="50.68654" lon="5.55362">
        <ele>168</ele>
        <time>2018-11-19T00:55:09Z</time>
      </trkpt>
      <trkpt lat="50.68693" lon="5.55432">
        <ele>168</ele>
        <time>2018-11-19T00:56:09Z</time>
      </trkpt>
      <trkpt lat="50.68708" lon="5.55459">
        <ele>167</ele>
        <time>2018-11-19T00:57:09Z</time>
      </trkpt>
      <trkpt lat="50.68723" lon="5.55483">
        <ele>168</ele>
        <time>2018-11-19T00:58:09Z</time>
      </trkpt>
      <trkpt lat="50.68736" lon="5.55496">
        <ele>168</ele>
        <time>2018-11-19T00:59:09Z</time>
      </trkpt>
      <trkpt lat="50.68769" lon="5.55516">
        <ele>168</ele>
        <time>2018-11-19T01:00:09Z</time>
      </trkpt>
      <trkpt lat="50.68793" lon="5.55533">
        <ele>169</ele>
        <time>2018-11-19T01:01:09Z</time>
      </trkpt>
      <trkpt lat="50.68818" lon="5.55551">
        <ele>169</ele>
        <time>2018-11-19T01:02:09Z</time>
      </trkpt>
      <trkpt lat="50.68841" lon="5.55578">
        <ele>169</ele>
        <time>2018-11-19T01:03:09Z</time>
      </trkpt>
      <trkpt lat="50.68888" lon="5.55634">
        <ele>167</ele>
        <time>2018-11-19T01:04:09Z</time>
      </trkpt>
      <trkpt lat="50.68913" lon="5.55664">
        <ele>167</ele>
        <time>2018-11-19T01:05:09Z</time>
      </trkpt>
      <trkpt lat="50.68942" lon="5.557">
        <ele>165</ele>
        <time>2018-11-19T01:06:09Z</time>
      </trkpt>
      <trkpt lat="50.68997" lon="5.55765">
        <ele>161</ele>
        <time>2018-11-19T01:07:09Z</time>
      </trkpt>
      <trkpt lat="50.69015" lon="5.55793">
        <ele>162</ele>
        <time>2018-11-19T01:08:09Z</time>
      </trkpt>
      <trkpt lat="50.69058" lon="5.55858">
        <ele>162</ele>
        <time>2018-11-19T01:09:09Z</time>
      </trkpt>
      <trkpt lat="50.69096" lon="5.55925">
        <ele>163</ele>
        <time>2018-11-19T01:10:09Z</time>
      </trkpt>
      <trkpt lat="50.69166" lon="5.56054">
        <ele>165</ele>
        <time>2018-11-19T01:11:09Z</time>
      </trkpt>
      <trkpt lat="50.69182" lon="5.56084">
        <ele>166</ele>
        <time>2018-11-19T01:12:09Z</time>
      </trkpt>
      <trkpt lat="50.69197" lon="5.56113">
        <ele>167</ele>
        <time>2018-11-19T01:13:09Z</time>
      </trkpt>
      <trkpt lat="50.69225" lon="5.56163">
        <ele>167</ele>
        <time>2018-11-19T01:14:09Z</time>
      </trkpt>
      <trkpt lat="50.69264" lon="5.56235">
        <ele>167</ele>
        <time>2018-11-19T01:15:09Z</time>
      </trkpt>
      <trkpt lat="50.69294" lon="5.56292">
        <ele>167</ele>
        <time>2018-11-19T01:16:09Z</time>
      </trkpt>
      <trkpt lat="50.69309" lon="5.56315">
        <ele>167</ele>
        <time>2018-11-19T01:17:09Z</time>
      </trkpt>
      <trkpt lat="50.69333" lon="5.56348">
        <ele>166</ele>
        <time>2018-11-19T01:18:09Z</time>
      </trkpt>
      <trkpt lat="50.6936" lon="5.56381">
        <ele>165</ele>
        <time>2018-11-19T01:19:09Z</time>
      </trkpt>
      <trkpt lat="50.69373" lon="5.56395">
        <ele>165</ele>
        <time>2018-11-19T01:20:09Z</time>
      </trkpt>
      <trkpt lat="50.69415" lon="5.56475">
        <ele>164</ele>
        <time>2018-11-19T01:21:09Z</time>
      </trkpt>
      <trkpt lat="50.69423" lon="5.56487">
        <ele>164</ele>
        <time>2018-11-19T01:22:09Z</time>
      </trkpt>
      <trkpt lat="50.69445" lon="5.56513">
        <ele>163</ele>
        <time>2018-11-19T01:23:09Z</time>
      </trkpt>
      <trkpt lat="50.69463" lon="5.56532">
        <ele>163</ele>
        <time>2018-11-19T01:24:09Z</time>
      </trkpt>
      <trkpt lat="50.69491" lon="5.56557">
        <ele>162</ele>
        <time>2018-11-19T01:25:09Z</time>
      </trkpt>
      <trkpt lat="50.69538" lon="5.56601">
        <ele>162</ele>
        <time>2018-11-19T01:26:09Z</time>
      </trkpt>
      <trkpt lat="50.69558" lon="5.56619">
        <ele>162</ele>
        <time>2018-11-19T01:27:09Z</time>
      </trkpt>
      <trkpt lat="50.69606" lon="5.56661">
        <ele>162</ele>
        <time>2018-11-19T01:28:09Z</time>
      </trkpt>
      <trkpt lat="50.69644" lon="5.56694">
        <ele>162</ele>
        <time>2018-11-19T01:29:09Z</time>
      </trkpt>
      <trkpt lat="50.69684" lon="5.56727">
        <ele>163</ele>
        <time>2018-11-19T01:30:09Z</time>
      </trkpt>
      <trkpt lat="50.69699" lon="5.56736">
        <ele>164</ele>
        <time>2018-11-19T01:31:09Z</time>
      </trkpt>
      <trkpt lat="50.69707" lon="5.56749">
        <ele>164</ele>
        <time>2018-11-19T01:32:09Z</time>
      </trkpt>
      <trkpt lat="50.69722" lon="5.56767">
        <ele>164</ele>
        <time>2018-11-19T01:33:09Z</time>
      </trkpt>
      <trkpt lat="50.69739" lon="5.56759">
        <ele>165</ele>
        <time>2018-11-19T01:34:09Z</time>
      </trkpt>
      <trkpt lat="50.69778" lon="5.5676">
        <ele>165</ele>
        <time>2018-11-19T01:35:09Z</time>
      </trkpt>
      <trkpt lat="50.69852" lon="5.5676">
        <ele>166</ele>
        <time>2018-11-19T01:36:09Z</time>
      </trkpt>
      <trkpt lat="50.69894" lon="5.56759">
        <ele>165</ele>
        <time>2018-11-19T01:37:09Z</time>
      </trkpt>
      <trkpt lat="50.69962" lon="5.5676">
        <ele>165</ele>
        <time>2018-11-19T01:38:09Z</time>
      </trkpt>
      <trkpt lat="50.69984" lon="5.56761">
        <ele>165</ele>
        <time>2018-11-19T01:39:09Z</time>
      </trkpt>
      <trkpt lat="50.70015" lon="5.56764">
        <ele>165</ele>
        <time>2018-11-19T01:40:09Z</time>
      </trkpt>
      <trkpt lat="50.70077" lon="5.56775">
        <ele>165</ele>
        <time>2018-11-19T01:41:09Z</time>
      </trkpt>
      <trkpt lat="50.70136" lon="5.56792">
        <ele>165</ele>
        <time>2018-11-19T01:42:09Z</time>
      </trkpt>
      <trkpt lat="50.70196" lon="5.56819">
        <ele>164</ele>
        <time>2018-11-19T01:43:09Z</time>
      </trkpt>
      <trkpt lat="50.7025" lon="5.5684">
        <ele>164</ele>
        <time>2018-11-19T01:44:09Z</time>
      </trkpt>
      <trkpt lat="50.70294" lon="5.5686">
        <ele>165</ele>
        <time>2018-11-19T01:45:09Z</time>
      </trkpt>
      <trkpt lat="50.70307" lon="5.56863">
        <ele>165</ele>
        <time>2018-11-19T01:46:09Z</time>
      </trkpt>
      <trkpt lat="50.70336" lon="5.56862">
        <ele>165</ele>
        <time>2018-11-19T01:47:09Z</time>
      </trkpt>
      <trkpt lat="50.70356" lon="5.56859">
        <ele>165</ele>
        <time>2018-11-19T01:48:09Z</time>
      </trkpt>
      <trkpt lat="50.70447" lon="5.56823">
        <ele>165</ele>
        <time>2018-11-19T01:49:09Z</time>
      </trkpt>
      <trkpt lat="50.70547" lon="5.56786">
        <ele>163</ele>
        <time>2018-11-19T01:50:09Z</time>
      </trkpt>
      <trkpt lat="50.7059" lon="5.5677">
        <ele>162</ele>
        <time>2018-11-19T01:51:09Z</time>
      </trkpt>
      <trkpt lat="50.70662" lon="5.56743">
        <ele>161</ele>
        <time>2018-11-19T01:52:09Z</time>
      </trkpt>
      <trkpt lat="50.70753" lon="5.56706">
        <ele>159</ele>
        <time>2018-11-19T01:53:09Z</time>
      </trkpt>
      <trkpt lat="50.7087" lon="5.5666">
        <ele>153</ele>
        <time>2018-11-19T01:54:09Z</time>
      </trkpt>
      <trkpt lat="50.71068" lon="5.56585">
        <ele>153</ele>
        <time>2018-11-19T01:55:09Z</time>
      </trkpt>
      <trkpt lat="50.71129" lon="5.56563">
        <ele>153</ele>
        <time>2018-11-19T01:56:09Z</time>
      </trkpt>
      <trkpt lat="50.71181" lon="5.56561">
        <ele>154</ele>
        <time>2018-11-19T01:57:09Z</time>
      </trkpt>
      <trkpt lat="50.71229" lon="5.5657">
        <ele>154</ele>
        <time>2018-11-19T01:58:09Z</time>
      </trkpt>
      <trkpt lat="50.71288" lon="5.56589">
        <ele>154</ele>
        <time>2018-11-19T01:59:09Z</time>
      </trkpt>
      <trkpt lat="50.71359" lon="5.5661">
        <ele>152</ele>
        <time>2018-11-19T02:00:09Z</time>
      </trkpt>
      <trkpt lat="50.71394" lon="5.56626">
        <ele>150</ele>
        <time>2018-11-19T02:01:09Z</time>
      </trkpt>
      <trkpt lat="50.71551" lon="5.56708">
        <ele>150</ele>
        <time>2018-11-19T02:02:09Z</time>
      </trkpt>
      <trkpt lat="50.71614" lon="5.56742">
        <ele>151</ele>
        <time>2018-11-19T02:03:09Z</time>
      </trkpt>
      <trkpt lat="50.71651" lon="5.56766">
        <ele>151</ele>
        <time>2018-11-19T02:04:09Z</time>
      </trkpt>
      <trkpt lat="50.71666" lon="5.56787">
        <ele>151</ele>
        <time>2018-11-19T02:05:09Z</time>
      </trkpt>
      <trkpt lat="50.7171" lon="5.56843">
        <ele>152</ele>
        <time>2018-11-19T02:06:09Z</time>
      </trkpt>
      <trkpt lat="50.71758" lon="5.56897">
        <ele>151</ele>
        <time>2018-11-19T02:07:09Z</time>
      </trkpt>
      <trkpt lat="50.71779" lon="5.56919">
        <ele>151</ele>
        <time>2018-11-19T02:08:09Z</time>
      </trkpt>
      <trkpt lat="50.71808" lon="5.56945">
        <ele>152</ele>
        <time>2018-11-19T02:09:09Z</time>
      </trkpt>
      <trkpt lat="50.71836" lon="5.56957">
        <ele>151</ele>
        <time>2018-11-19T02:10:09Z</time>
      </trkpt>
      <trkpt lat="50.71854" lon="5.56963">
        <ele>151</ele>
        <time>2018-11-19T02:11:09Z</time>
      </trkpt>
      <trkpt lat="50.71869" lon="5.56964">
        <ele>151</ele>
        <time>2018-11-19T02:12:09Z</time>
      </trkpt>
      <trkpt lat="50.71906" lon="5.56962">
        <ele>150</ele>
        <time>2018-11-19T02:13:09Z</time>
      </trkpt>
      <trkpt lat="50.71969" lon="5.56958">
        <ele>149</ele>
        <time>2018-11-19T02:14:09Z</time>
      </trkpt>
      <trkpt lat="50.71996" lon="5.56956">
        <ele>149</ele>
        <time>2018-11-19T02:15:09Z</time>
      </trkpt>
      <trkpt lat="50.72013" lon="5.56957">
        <ele>149</ele>
        <time>2018-11-19T02:16:09Z</time>
      </trkpt>
      <trkpt lat="50.72077" lon="5.56974">
        <ele>147</ele>
        <time>2018-11-19T02:17:09Z</time>
      </trkpt>
      <trkpt lat="50.72124" lon="5.56972">
        <ele>147</ele>
        <time>2018-11-19T02:18:09Z</time>
      </trkpt>
      <trkpt lat="50.72183" lon="5.56968">
        <ele>147</ele>
        <time>2018-11-19T02:19:09Z</time>
      </trkpt>
      <trkpt lat="50.72233" lon="5.56962">
        <ele>148</ele>
        <time>2018-11-19T02:20:09Z</time>
      </trkpt>
      <trkpt lat="50.72299" lon="5.56952">
        <ele>151</ele>
        <time>2018-11-19T02:21:09Z</time>
      </trkpt>
      <trkpt lat="50.72327" lon="5.56947">
        <ele>152</ele>
        <time>2018-11-19T02:22:09Z</time>
      </trkpt>
      <trkpt lat="50.72361" lon="5.56951">
        <ele>153</ele>
        <time>2018-11-19T02:23:09Z</time>
      </trkpt>
      <trkpt lat="50.72395" lon="5.56959">
        <ele>153</ele>
        <time>2018-11-19T02:24:09Z</time>
      </trkpt>
      <trkpt lat="50.72437" lon="5.56975">
        <ele>154</ele>
        <time>2018-11-19T02:25:09Z</time>
      </trkpt>
      <trkpt lat="50.72494" lon="5.56996">
        <ele>155</ele>
        <time>2018-11-19T02:26:09Z</time>
      </trkpt>
      <trkpt lat="50.72555" lon="5.57001">
        <ele>155</ele>
        <time>2018-11-19T02:27:09Z</time>
      </trkpt>
      <trkpt lat="50.72583" lon="5.57003">
        <ele>155</ele>
        <time>2018-11-19T02:28:09Z</time>
      </trkpt>
      <trkpt lat="50.72606" lon="5.5701">
        <ele>155</ele>
        <time>2018-11-19T02:29:09Z</time>
      </trkpt>
      <trkpt lat="50.72617" lon="5.57014">
        <ele>155</ele>
        <time>2018-11-19T02:30:09Z</time>
      </trkpt>
      <trkpt lat="50.72625" lon="5.57023">
        <ele>155</ele>
        <time>2018-11-19T02:31:09Z</time>
      </trkpt>
      <trkpt lat="50.72636" lon="5.57051">
        <ele>155</ele>
        <time>2018-11-19T02:32:09Z</time>
      </trkpt>
      <trkpt lat="50.72648" lon="5.57082">
        <ele>154</ele>
        <time>2018-11-19T02:33:09Z</time>
      </trkpt>
      <trkpt lat="50.72672" lon="5.57117">
        <ele>154</ele>
        <time>2018-11-19T02:34:09Z</time>
      </trkpt>
      <trkpt lat="50.727" lon="5.57145">
        <ele>153</ele>
        <time>2018-11-19T02:35:09Z</time>
      </trkpt>
      <trkpt lat="50.72717" lon="5.57162">
        <ele>153</ele>
        <time>2018-11-19T02:36:09Z</time>
      </trkpt>
      <trkpt lat="50.72738" lon="5.57184">
        <ele>153</ele>
        <time>2018-11-19T02:37:09Z</time>
      </trkpt>
      <trkpt lat="50.72762" lon="5.57211">
        <ele>153</ele>
        <time>2018-11-19T02:38:09Z</time>
      </trkpt>
      <trkpt lat="50.72791" lon="5.5724">
        <ele>153</ele>
        <time>2018-11-19T02:39:09Z</time>
      </trkpt>
      <trkpt lat="50.72808" lon="5.57261">
        <ele>153</ele>
        <time>2018-11-19T02:40:09Z</time>
      </trkpt>
      <trkpt lat="50.72827" lon="5.57287">
        <ele>152</ele>
        <time>2018-11-19T02:41:09Z</time>
      </trkpt>
      <trkpt lat="50.72847" lon="5.57323">
        <ele>152</ele>
        <time>2018-11-19T02:42:09Z</time>
      </trkpt>
      <trkpt lat="50.72865" lon="5.57355">
        <ele>153</ele>
        <time>2018-11-19T02:43:09Z</time>
      </trkpt>
      <trkpt lat="50.72882" lon="5.57394">
        <ele>153</ele>
        <time>2018-11-19T02:44:09Z</time>
      </trkpt>
      <trkpt lat="50.729" lon="5.57432">
        <ele>153</ele>
        <time>2018-11-19T02:45:09Z</time>
      </trkpt>
      <trkpt lat="50.72913" lon="5.57469">
        <ele>152</ele>
        <time>2018-11-19T02:46:09Z</time>
      </trkpt>
      <trkpt lat="50.72933" lon="5.5755">
        <ele>151</ele>
        <time>2018-11-19T02:47:09Z</time>
      </trkpt>
      <trkpt lat="50.73049" lon="5.57996">
        <ele>150</ele>
        <time>2018-11-19T02:48:09Z</time>
      </trkpt>
      <trkpt lat="50.73088" lon="5.58153">
        <ele>151</ele>
        <time>2018-11-19T02:49:09Z</time>
      </trkpt>
      <trkpt lat="50.73109" lon="5.5824">
        <ele>150</ele>
        <time>2018-11-19T02:50:09Z</time>
      </trkpt>
      <trkpt lat="50.73137" lon="5.58356">
        <ele>149</ele>
        <time>2018-11-19T02:51:09Z</time>
      </trkpt>
      <trkpt lat="50.73187" lon="5.58555">
        <ele>147</ele>
        <time>2018-11-19T02:52:09Z</time>
      </trkpt>
      <trkpt lat="50.7323" lon="5.58736">
        <ele>142</ele>
        <time>2018-11-19T02:53:09Z</time>
      </trkpt>
      <trkpt lat="50.73289" lon="5.58972">
        <ele>141</ele>
        <time>2018-11-19T02:54:09Z</time>
      </trkpt>
      <trkpt lat="50.73314" lon="5.5907">
        <ele>143</ele>
        <time>2018-11-19T02:55:09Z</time>
      </trkpt>
      <trkpt lat="50.73354" lon="5.59225">
        <ele>144</ele>
        <time>2018-11-19T02:56:09Z</time>
      </trkpt>
      <trkpt lat="50.73369" lon="5.59287">
        <ele>144</ele>
        <time>2018-11-19T02:57:09Z</time>
      </trkpt>
      <trkpt lat="50.73394" lon="5.59386">
        <ele>145</ele>
        <time>2018-11-19T02:58:09Z</time>
      </trkpt>
      <trkpt lat="50.73404" lon="5.59424">
        <ele>145</ele>
        <time>2018-11-19T02:59:09Z</time>
      </trkpt>
      <trkpt lat="50.73436" lon="5.59552">
        <ele>147</ele>
        <time>2018-11-19T03:00:09Z</time>
      </trkpt>
      <trkpt lat="50.73458" lon="5.59651">
        <ele>150</ele>
        <time>2018-11-19T03:01:09Z</time>
      </trkpt>
      <trkpt lat="50.73495" lon="5.59806">
        <ele>153</ele>
        <time>2018-11-19T03:02:09Z</time>
      </trkpt>
      <trkpt lat="50.73514" lon="5.59891">
        <ele>153</ele>
        <time>2018-11-19T03:03:09Z</time>
      </trkpt>
      <trkpt lat="50.73529" lon="5.5997">
        <ele>154</ele>
        <time>2018-11-19T03:04:09Z</time>
      </trkpt>
      <trkpt lat="50.73538" lon="5.60012">
        <ele>154</ele>
        <time>2018-11-19T03:05:09Z</time>
      </trkpt>
      <trkpt lat="50.73541" lon="5.60044">
        <ele>154</ele>
        <time>2018-11-19T03:06:09Z</time>
      </trkpt>
      <trkpt lat="50.73554" lon="5.60146">
        <ele>154</ele>
        <time>2018-11-19T03:07:09Z</time>
      </trkpt>
      <trkpt lat="50.73588" lon="5.60393">
        <ele>151</ele>
        <time>2018-11-19T03:08:09Z</time>
      </trkpt>
      <trkpt lat="50.73599" lon="5.60491">
        <ele>151</ele>
        <time>2018-11-19T03:09:09Z</time>
      </trkpt>
      <trkpt lat="50.73621" lon="5.60589">
        <ele>150</ele>
        <time>2018-11-19T03:10:09Z</time>
      </trkpt>
      <trkpt lat="50.73634" lon="5.60648">
        <ele>152</ele>
        <time>2018-11-19T03:11:09Z</time>
      </trkpt>
      <trkpt lat="50.73643" lon="5.60689">
        <ele>152</ele>
        <time>2018-11-19T03:12:09Z</time>
      </trkpt>
      <trkpt lat="50.73681" lon="5.60749">
        <ele>151</ele>
        <time>2018-11-19T03:13:09Z</time>
      </trkpt>
      <trkpt lat="50.73709" lon="5.60801">
        <ele>152</ele>
        <time>2018-11-19T03:14:09Z</time>
      </trkpt>
      <trkpt lat="50.73732" lon="5.6086">
        <ele>151</ele>
        <time>2018-11-19T03:15:09Z</time>
      </trkpt>
      <trkpt lat="50.73763" lon="5.60935">
        <ele>150</ele>
        <time>2018-11-19T03:16:09Z</time>
      </trkpt>
      <trkpt lat="50.73787" lon="5.60994">
        <ele>149</ele>
        <time>2018-11-19T03:17:09Z</time>
      </trkpt>
      <trkpt lat="50.73817" lon="5.61064">
        <ele>148</ele>
        <time>2018-11-19T03:18:09Z</time>
      </trkpt>
      <trkpt lat="50.73827" lon="5.61087">
        <ele>147</ele>
        <time>2018-11-19T03:19:09Z</time>
      </trkpt>
      <trkpt lat="50.73843" lon="5.61111">
        <ele>147</ele>
        <time>2018-11-19T03:20:09Z</time>
      </trkpt>
      <trkpt lat="50.73867" lon="5.61126">
        <ele>146</ele>
        <time>2018-11-19T03:21:09Z</time>
      </trkpt>
      <trkpt lat="50.73881" lon="5.61131">
        <ele>146</ele>
        <time>2018-11-19T03:22:09Z</time>
      </trkpt>
      <trkpt lat="50.73945" lon="5.61152">
        <ele>144</ele>
        <time>2018-11-19T03:23:09Z</time>
      </trkpt>
      <trkpt lat="50.73963" lon="5.61165">
        <ele>144</ele>
        <time>2018-11-19T03:24:09Z</time>
      </trkpt>
      <trkpt lat="50.73978" lon="5.61181">
        <ele>143</ele>
        <time>2018-11-19T03:25:09Z</time>
      </trkpt>
      <trkpt lat="50.74006" lon="5.61221">
        <ele>143</ele>
        <time>2018-11-19T03:26:09Z</time>
      </trkpt>
      <trkpt lat="50.74052" lon="5.6128">
        <ele>142</ele>
        <time>2018-11-19T03:27:09Z</time>
      </trkpt>
      <trkpt lat="50.74093" lon="5.6132">
        <ele>142</ele>
        <time>2018-11-19T03:28:09Z</time>
      </trkpt>
      <trkpt lat="50.74112" lon="5.61338">
        <ele>142</ele>
        <time>2018-11-19T03:29:09Z</time>
      </trkpt>
      <trkpt lat="50.74135" lon="5.61356">
        <ele>142</ele>
        <time>2018-11-19T03:30:09Z</time>
      </trkpt>
      <trkpt lat="50.74191" lon="5.61394">
        <ele>141</ele>
        <time>2018-11-19T03:31:09Z</time>
      </trkpt>
      <trkpt lat="50.74229" lon="5.61417">
        <ele>141</ele>
        <time>2018-11-19T03:32:09Z</time>
      </trkpt>
      <trkpt lat="50.74239" lon="5.61424">
        <ele>140</ele>
        <time>2018-11-19T03:33:09Z</time>
      </trkpt>
      <trkpt lat="50.74242" lon="5.6142">
        <ele>140</ele>
        <time>2018-11-19T03:34:09Z</time>
      </trkpt>
      <trkpt lat="50.74259" lon="5.61398">
        <ele>139</ele>
        <time>2018-11-19T03:35:09Z</time>
      </trkpt>
      <trkpt lat="50.74293" lon="5.61355">
        <ele>137</ele>
        <time>2018-11-19T03:36:09Z</time>
      </trkpt>
      <trkpt lat="50.74323" lon="5.61324">
        <ele>135</ele>
        <time>2018-11-19T03:37:09Z</time>
      </trkpt>
      <trkpt lat="50.74346" lon="5.61307">
        <ele>134</ele>
        <time>2018-11-19T03:38:09Z</time>
      </trkpt>
      <trkpt lat="50.74369" lon="5.61293">
        <ele>133</ele>
        <time>2018-11-19T03:39:09Z</time>
      </trkpt>
      <trkpt lat="50.74403" lon="5.61276">
        <ele>132</ele>
        <time>2018-11-19T03:40:09Z</time>
      </trkpt>
      <trkpt lat="50.74492" lon="5.6124">
        <ele>128</ele>
        <time>2018-11-19T03:41:09Z</time>
      </trkpt>
      <trkpt lat="50.74511" lon="5.61231">
        <ele>127</ele>
        <time>2018-11-19T03:42:09Z</time>
      </trkpt>
      <trkpt lat="50.74588" lon="5.61201">
        <ele>124</ele>
        <time>2018-11-19T03:43:09Z</time>
      </trkpt>
      <trkpt lat="50.74608" lon="5.61196">
        <ele>124</ele>
        <time>2018-11-19T03:44:09Z</time>
      </trkpt>
      <trkpt lat="50.74639" lon="5.61194">
        <ele>123</ele>
        <time>2018-11-19T03:45:09Z</time>
      </trkpt>
      <trkpt lat="50.74659" lon="5.61196">
        <ele>123</ele>
        <time>2018-11-19T03:46:09Z</time>
      </trkpt>
      <trkpt lat="50.74739" lon="5.61201">
        <ele>119</ele>
        <time>2018-11-19T03:47:09Z</time>
      </trkpt>
      <trkpt lat="50.7477" lon="5.61205">
        <ele>118</ele>
        <time>2018-11-19T03:48:09Z</time>
      </trkpt>
      <trkpt lat="50.74844" lon="5.61212">
        <ele>115</ele>
        <time>2018-11-19T03:49:09Z</time>
      </trkpt>
      <trkpt lat="50.74887" lon="5.61217">
        <ele>112</ele>
        <time>2018-11-19T03:50:09Z</time>
      </trkpt>
      <trkpt lat="50.7492" lon="5.6122">
        <ele>111</ele>
        <time>2018-11-19T03:51:09Z</time>
      </trkpt>
      <trkpt lat="50.75008" lon="5.61232">
        <ele>105</ele>
        <time>2018-11-19T03:52:09Z</time>
      </trkpt>
      <trkpt lat="50.75051" lon="5.61233">
        <ele>101</ele>
        <time>2018-11-19T03:53:09Z</time>
      </trkpt>
      <trkpt lat="50.75082" lon="5.61228">
        <ele>98</ele>
        <time>2018-11-19T03:54:09Z</time>
      </trkpt>
      <trkpt lat="50.75114" lon="5.6122">
        <ele>98</ele>
        <time>2018-11-19T03:55:09Z</time>
      </trkpt>
      <trkpt lat="50.75173" lon="5.61193">
        <ele>96</ele>
        <time>2018-11-19T03:56:09Z</time>
      </trkpt>
      <trkpt lat="50.75201" lon="5.61183">
        <ele>93</ele>
        <time>2018-11-19T03:57:09Z</time>
      </trkpt>
      <trkpt lat="50.75221" lon="5.61178">
        <ele>91</ele>
        <time>2018-11-19T03:58:09Z</time>
      </trkpt>
      <trkpt lat="50.75234" lon="5.61175">
        <ele>90</ele>
        <time>2018-11-19T03:59:09Z</time>
      </trkpt>
      <trkpt lat="50.75253" lon="5.61174">
        <ele>88</ele>
        <time>2018-11-19T04:00:09Z</time>
      </trkpt>
      <trkpt lat="50.75274" lon="5.61176">
        <ele>88</ele>
        <time>2018-11-19T04:01:09Z</time>
      </trkpt>
      <trkpt lat="50.75349" lon="5.61184">
        <ele>86</ele>
        <time>2018-11-19T04:02:09Z</time>
      </trkpt>
      <trkpt lat="50.7537" lon="5.61187">
        <ele>85</ele>
        <time>2018-11-19T04:03:09Z</time>
      </trkpt>
      <trkpt lat="50.754" lon="5.6119">
        <ele>85</ele>
        <time>2018-11-19T04:04:09Z</time>
      </trkpt>
      <trkpt lat="50.75446" lon="5.61196">
        <ele>84</ele>
        <time>2018-11-19T04:05:09Z</time>
      </trkpt>
      <trkpt lat="50.75479" lon="5.61199">
        <ele>83</ele>
        <time>2018-11-19T04:06:09Z</time>
      </trkpt>
      <trkpt lat="50.75508" lon="5.61202">
        <ele>83</ele>
        <time>2018-11-19T04:07:09Z</time>
      </trkpt>
      <trkpt lat="50.75528" lon="5.61204">
        <ele>83</ele>
        <time>2018-11-19T04:08:09Z</time>
      </trkpt>
      <trkpt lat="50.75565" lon="5.61206">
        <ele>82</ele>
        <time>2018-11-19T04:09:09Z</time>
      </trkpt>
      <trkpt lat="50.75621" lon="5.61202">
        <ele>80</ele>
        <time>2018-11-19T04:10:09Z</time>
      </trkpt>
      <trkpt lat="50.75637" lon="5.61199">
        <ele>79</ele>
        <time>2018-11-19T04:11:09Z</time>
      </trkpt>
      <trkpt lat="50.75656" lon="5.61195">
        <ele>78</ele>
        <time>2018-11-19T04:12:09Z</time>
      </trkpt>
      <trkpt lat="50.75668" lon="5.61184">
        <ele>77</ele>
        <time>2018-11-19T04:13:09Z</time>
      </trkpt>
      <trkpt lat="50.75725" lon="5.61128">
        <ele>75</ele>
        <time>2018-11-19T04:14:09Z</time>
      </trkpt>
      <trkpt lat="50.7575" lon="5.6111">
        <ele>74</ele>
        <time>2018-11-19T04:15:09Z</time>
      </trkpt>
      <trkpt lat="50.75783" lon="5.61085">
        <ele>74</ele>
        <time>2018-11-19T04:16:09Z</time>
      </trkpt>
      <trkpt lat="50.75804" lon="5.6107">
        <ele>74</ele>
        <time>2018-11-19T04:17:09Z</time>
      </trkpt>
      <trkpt lat="50.75846" lon="5.61046">
        <ele>75</ele>
        <time>2018-11-19T04:18:09Z</time>
      </trkpt>
      <trkpt lat="50.75864" lon="5.61035">
        <ele>75</ele>
        <time>2018-11-19T04:19:09Z</time>
      </trkpt>
      <trkpt lat="50.75888" lon="5.61018">
        <ele>75</ele>
        <time>2018-11-19T04:20:09Z</time>
      </trkpt>
      <trkpt lat="50.759" lon="5.60997">
        <ele>76</ele>
        <time>2018-11-19T04:21:09Z</time>
      </trkpt>
      <trkpt lat="50.75908" lon="5.61005">
        <ele>76</ele>
        <time>2018-11-19T04:22:09Z</time>
      </trkpt>
      <trkpt lat="50.7592" lon="5.61008">
        <ele>76</ele>
        <time>2018-11-19T04:23:09Z</time>
      </trkpt>
      <trkpt lat="50.75938" lon="5.61006">
        <ele>76</ele>
        <time>2018-11-19T04:24:09Z</time>
      </trkpt>
      <trkpt lat="50.75967" lon="5.60999">
        <ele>76</ele>
        <time>2018-11-19T04:25:09Z</time>
      </trkpt>
      <trkpt lat="50.75989" lon="5.60982">
        <ele>76</ele>
        <time>2018-11-19T04:26:09Z</time>
      </trkpt>
      <trkpt lat="50.76022" lon="5.60958">
        <ele>79</ele>
        <time>2018-11-19T04:27:09Z</time>
      </trkpt>
      <trkpt lat="50.76013" lon="5.60928">
        <ele>79</ele>
        <time>2018-11-19T04:28:09Z</time>
      </trkpt>
      <trkpt lat="50.75997" lon="5.60887">
        <ele>79</ele>
        <time>2018-11-19T04:29:09Z</time>
      </trkpt>
      <trkpt lat="50.75988" lon="5.60866">
        <ele>79</ele>
        <time>2018-11-19T04:30:09Z</time>
      </trkpt>
      <trkpt lat="50.75976" lon="5.60834">
        <ele>79</ele>
        <time>2018-11-19T04:31:09Z</time>
      </trkpt>
      <trkpt lat="50.7597" lon="5.60803">
        <ele>81</ele>
        <time>2018-11-19T04:32:09Z</time>
      </trkpt>
      <trkpt lat="50.75963" lon="5.60733">
        <ele>86</ele>
        <time>2018-11-19T04:33:09Z</time>
      </trkpt>
      <trkpt lat="50.75969" lon="5.60691">
        <ele>90</ele>
        <time>2018-11-19T04:34:09Z</time>
      </trkpt>
      <trkpt lat="50.7599" lon="5.60594">
        <ele>93</ele>
        <time>2018-11-19T04:35:09Z</time>
      </trkpt>
      <trkpt lat="50.76001" lon="5.60543">
        <ele>93</ele>
        <time>2018-11-19T04:36:09Z</time>
      </trkpt>
      <trkpt lat="50.76008" lon="5.60513">
        <ele>93</ele>
        <time>2018-11-19T04:37:09Z</time>
      </trkpt>
      <trkpt lat="50.76015" lon="5.60485">
        <ele>94</ele>
        <time>2018-11-19T04:38:09Z</time>
      </trkpt>
      <trkpt lat="50.76047" lon="5.60417">
        <ele>95</ele>
        <time>2018-11-19T04:39:09Z</time>
      </trkpt>
      <trkpt lat="50.7608" lon="5.60352">
        <ele>95</ele>
        <time>2018-11-19T04:40:09Z</time>
      </trkpt>
      <trkpt lat="50.76121" lon="5.60286">
        <ele>99</ele>
        <time>2018-11-19T04:41:09Z</time>
      </trkpt>
      <trkpt lat="50.7616" lon="5.60225">
        <ele>100</ele>
        <time>2018-11-19T04:42:09Z</time>
      </trkpt>
      <trkpt lat="50.76214" lon="5.60139">
        <ele>102</ele>
        <time>2018-11-19T04:43:09Z</time>
      </trkpt>
      <trkpt lat="50.76256" lon="5.60073">
        <ele>102</ele>
        <time>2018-11-19T04:44:09Z</time>
      </trkpt>
      <trkpt lat="50.76297" lon="5.6001">
        <ele>103</ele>
        <time>2018-11-19T04:45:09Z</time>
      </trkpt>
      <trkpt lat="50.76318" lon="5.59981">
        <ele>103</ele>
        <time>2018-11-19T04:46:09Z</time>
      </trkpt>
      <trkpt lat="50.7633" lon="5.59974">
        <ele>103</ele>
        <time>2018-11-19T04:47:09Z</time>
      </trkpt>
      <trkpt lat="50.76445" lon="5.59897">
        <ele>106</ele>
        <time>2018-11-19T04:48:09Z</time>
      </trkpt>
      <trkpt lat="50.76469" lon="5.59882">
        <ele>107</ele>
        <time>2018-11-19T04:49:09Z</time>
      </trkpt>
      <trkpt lat="50.76495" lon="5.59854">
        <ele>107</ele>
        <time>2018-11-19T04:50:09Z</time>
      </trkpt>
      <trkpt lat="50.76576" lon="5.59758">
        <ele>108</ele>
        <time>2018-11-19T04:51:09Z</time>
      </trkpt>
      <trkpt lat="50.76627" lon="5.59699">
        <ele>110</ele>
        <time>2018-11-19T04:52:09Z</time>
      </trkpt>
      <trkpt lat="50.76662" lon="5.59658">
        <ele>110</ele>
        <time>2018-11-19T04:53:09Z</time>
      </trkpt>
      <trkpt lat="50.76687" lon="5.5964">
        <ele>111</ele>
        <time>2018-11-19T04:54:09Z</time>
      </trkpt>
      <trkpt lat="50.76704" lon="5.59631">
        <ele>112</ele>
        <time>2018-11-19T04:55:09Z</time>
      </trkpt>
      <trkpt lat="50.76724" lon="5.59624">
        <ele>113</ele>
        <time>2018-11-19T04:56:09Z</time>
      </trkpt>
      <trkpt lat="50.7675" lon="5.59622">
        <ele>113</ele>
        <time>2018-11-19T04:57:09Z</time>
      </trkpt>
      <trkpt lat="50.76773" lon="5.59623">
        <ele>115</ele>
        <time>2018-11-19T04:58:09Z</time>
      </trkpt>
      <trkpt lat="50.76796" lon="5.5963">
        <ele>116</ele>
        <time>2018-11-19T04:59:09Z</time>
      </trkpt>
      <trkpt lat="50.76818" lon="5.5964">
        <ele>117</ele>
        <time>2018-11-19T05:00:09Z</time>
      </trkpt>
      <trkpt lat="50.76845" lon="5.5965">
        <ele>119</ele>
        <time>2018-11-19T05:01:09Z</time>
      </trkpt>
      <trkpt lat="50.76872" lon="5.59655">
        <ele>120</ele>
        <time>2018-11-19T05:02:09Z</time>
      </trkpt>
      <trkpt lat="50.76893" lon="5.59655">
        <ele>122</ele>
        <time>2018-11-19T05:03:09Z</time>
      </trkpt>
      <trkpt lat="50.76963" lon="5.59663">
        <ele>125</ele>
        <time>2018-11-19T05:04:09Z</time>
      </trkpt>
      <trkpt lat="50.77028" lon="5.5967">
        <ele>127</ele>
        <time>2018-11-19T05:05:09Z</time>
      </trkpt>
      <trkpt lat="50.77052" lon="5.59672">
        <ele>128</ele>
        <time>2018-11-19T05:06:09Z</time>
      </trkpt>
      <trkpt lat="50.7707" lon="5.59669">
        <ele>129</ele>
        <time>2018-11-19T05:07:09Z</time>
      </trkpt>
      <trkpt lat="50.77087" lon="5.59665">
        <ele>129</ele>
        <time>2018-11-19T05:08:09Z</time>
      </trkpt>
      <trkpt lat="50.77183" lon="5.59642">
        <ele>125</ele>
        <time>2018-11-19T05:09:09Z</time>
      </trkpt>
      <trkpt lat="50.77209" lon="5.59639">
        <ele>124</ele>
        <time>2018-11-19T05:10:09Z</time>
      </trkpt>
      <trkpt lat="50.77229" lon="5.59638">
        <ele>123</ele>
        <time>2018-11-19T05:11:09Z</time>
      </trkpt>
      <trkpt lat="50.7725" lon="5.59639">
        <ele>122</ele>
        <time>2018-11-19T05:12:09Z</time>
      </trkpt>
      <trkpt lat="50.77264" lon="5.59644">
        <ele>122</ele>
        <time>2018-11-19T05:13:09Z</time>
      </trkpt>
      <trkpt lat="50.77286" lon="5.59652">
        <ele>121</ele>
        <time>2018-11-19T05:14:09Z</time>
      </trkpt>
      <trkpt lat="50.773" lon="5.59657">
        <ele>121</ele>
        <time>2018-11-19T05:15:09Z</time>
      </trkpt>
      <trkpt lat="50.77325" lon="5.59665">
        <ele>120</ele>
        <time>2018-11-19T05:16:09Z</time>
      </trkpt>
      <trkpt lat="50.77377" lon="5.59685">
        <ele>119</ele>
        <time>2018-11-19T05:17:09Z</time>
      </trkpt>
      <trkpt lat="50.7746" lon="5.59715">
        <ele>118</ele>
        <time>2018-11-19T05:18:09Z</time>
      </trkpt>
      <trkpt lat="50.77513" lon="5.59733">
        <ele>118</ele>
        <time>2018-11-19T05:19:09Z</time>
      </trkpt>
      <trkpt lat="50.77585" lon="5.59759">
        <ele>118</ele>
        <time>2018-11-19T05:20:09Z</time>
      </trkpt>
      <trkpt lat="50.77669" lon="5.5979">
        <ele>116</ele>
        <time>2018-11-19T05:21:09Z</time>
      </trkpt>
      <trkpt lat="50.77725" lon="5.59812">
        <ele>116</ele>
        <time>2018-11-19T05:22:09Z</time>
      </trkpt>
      <trkpt lat="50.77781" lon="5.59832">
        <ele>116</ele>
        <time>2018-11-19T05:23:09Z</time>
      </trkpt>
      <trkpt lat="50.77824" lon="5.59851">
        <ele>117</ele>
        <time>2018-11-19T05:24:09Z</time>
      </trkpt>
      <trkpt lat="50.77855" lon="5.59864">
        <ele>117</ele>
        <time>2018-11-19T05:25:09Z</time>
      </trkpt>
      <trkpt lat="50.77881" lon="5.59877">
        <ele>116</ele>
        <time>2018-11-19T05:26:09Z</time>
      </trkpt>
      <trkpt lat="50.77906" lon="5.59889">
        <ele>116</ele>
        <time>2018-11-19T05:27:09Z</time>
      </trkpt>
      <trkpt lat="50.77923" lon="5.59902">
        <ele>116</ele>
        <time>2018-11-19T05:28:09Z</time>
      </trkpt>
      <trkpt lat="50.7794" lon="5.59917">
        <ele>115</ele>
        <time>2018-11-19T05:29:09Z</time>
      </trkpt>
      <trkpt lat="50.77949" lon="5.59944">
        <ele>115</ele>
        <time>2018-11-19T05:30:09Z</time>
      </trkpt>
      <trkpt lat="50.77981" lon="5.60018">
        <ele>113</ele>
        <time>2018-11-19T05:31:09Z</time>
      </trkpt>
      <trkpt lat="50.78004" lon="5.60062">
        <ele>113</ele>
        <time>2018-11-19T05:32:09Z</time>
      </trkpt>
      <trkpt lat="50.78021" lon="5.60086">
        <ele>113</ele>
        <time>2018-11-19T05:33:09Z</time>
      </trkpt>
      <trkpt lat="50.78027" lon="5.60092">
        <ele>113</ele>
        <time>2018-11-19T05:34:09Z</time>
      </trkpt>
      <trkpt lat="50.78057" lon="5.60118">
        <ele>112</ele>
        <time>2018-11-19T05:35:09Z</time>
      </trkpt>
      <trkpt lat="50.78092" lon="5.60135">
        <ele>111</ele>
        <time>2018-11-19T05:36:09Z</time>
      </trkpt>
      <trkpt lat="50.78142" lon="5.60147">
        <ele>111</ele>
        <time>2018-11-19T05:37:09Z</time>
      </trkpt>
      <trkpt lat="50.78201" lon="5.60163">
        <ele>112</ele>
        <time>2018-11-19T05:38:09Z</time>
      </trkpt>
      <trkpt lat="50.78257" lon="5.60176">
        <ele>112</ele>
        <time>2018-11-19T05:39:09Z</time>
      </trkpt>
      <trkpt lat="50.78338" lon="5.60198">
        <ele>111</ele>
        <time>2018-11-19T05:40:09Z</time>
      </trkpt>
      <trkpt lat="50.78378" lon="5.60209">
        <ele>111</ele>
        <time>2018-11-19T05:41:09Z</time>
      </trkpt>
      <trkpt lat="50.78391" lon="5.60207">
        <ele>111</ele>
        <time>2018-11-19T05:42:09Z</time>
      </trkpt>
      <trkpt lat="50.78418" lon="5.60198">
        <ele>111</ele>
        <time>2018-11-19T05:43:09Z</time>
      </trkpt>
      <trkpt lat="50.78434" lon="5.60188">
        <ele>110</ele>
        <time>2018-11-19T05:44:09Z</time>
      </trkpt>
      <trkpt lat="50.7845" lon="5.60175">
        <ele>110</ele>
        <time>2018-11-19T05:45:09Z</time>
      </trkpt>
      <trkpt lat="50.78471" lon="5.60148">
        <ele>109</ele>
        <time>2018-11-19T05:46:09Z</time>
      </trkpt>
      <trkpt lat="50.78496" lon="5.60103">
        <ele>108</ele>
        <time>2018-11-19T05:47:09Z</time>
      </trkpt>
      <trkpt lat="50.7851" lon="5.60085">
        <ele>108</ele>
        <time>2018-11-19T05:48:09Z</time>
      </trkpt>
      <trkpt lat="50.78522" lon="5.60066">
        <ele>107</ele>
        <time>2018-11-19T05:49:09Z</time>
      </trkpt>
      <trkpt lat="50.78534" lon="5.60053">
        <ele>107</ele>
        <time>2018-11-19T05:50:09Z</time>
      </trkpt>
      <trkpt lat="50.78556" lon="5.60033">
        <ele>106</ele>
        <time>2018-11-19T05:51:09Z</time>
      </trkpt>
      <trkpt lat="50.78625" lon="5.59981">
        <ele>103</ele>
        <time>2018-11-19T05:52:09Z</time>
      </trkpt>
      <trkpt lat="50.78656" lon="5.59955">
        <ele>103</ele>
        <time>2018-11-19T05:53:09Z</time>
      </trkpt>
      <trkpt lat="50.78676" lon="5.59935">
        <ele>102</ele>
        <time>2018-11-19T05:54:09Z</time>
      </trkpt>
      <trkpt lat="50.7871" lon="5.5989">
        <ele>101</ele>
        <time>2018-11-19T05:55:09Z</time>
      </trkpt>
      <trkpt lat="50.78745" lon="5.59842">
        <ele>98</ele>
        <time>2018-11-19T05:56:09Z</time>
      </trkpt>
      <trkpt lat="50.78769" lon="5.59806">
        <ele>97</ele>
        <time>2018-11-19T05:57:09Z</time>
      </trkpt>
      <trkpt lat="50.78802" lon="5.59739">
        <ele>97</ele>
        <time>2018-11-19T05:58:09Z</time>
      </trkpt>
      <trkpt lat="50.78834" lon="5.59691">
        <ele>96</ele>
        <time>2018-11-19T05:59:09Z</time>
      </trkpt>
      <trkpt lat="50.78882" lon="5.59616">
        <ele>98</ele>
        <time>2018-11-19T06:00:09Z</time>
      </trkpt>
      <trkpt lat="50.78909" lon="5.59576">
        <ele>99</ele>
        <time>2018-11-19T06:01:09Z</time>
      </trkpt>
      <trkpt lat="50.78935" lon="5.59543">
        <ele>100</ele>
        <time>2018-11-19T06:02:09Z</time>
      </trkpt>
      <trkpt lat="50.78963" lon="5.59509">
        <ele>101</ele>
        <time>2018-11-19T06:03:09Z</time>
      </trkpt>
      <trkpt lat="50.79019" lon="5.59449">
        <ele>104</ele>
        <time>2018-11-19T06:04:09Z</time>
      </trkpt>
      <trkpt lat="50.79085" lon="5.59373">
        <ele>106</ele>
        <time>2018-11-19T06:05:09Z</time>
      </trkpt>
      <trkpt lat="50.79134" lon="5.59317">
        <ele>108</ele>
        <time>2018-11-19T06:06:09Z</time>
      </trkpt>
      <trkpt lat="50.79178" lon="5.59272">
        <ele>108</ele>
        <time>2018-11-19T06:07:09Z</time>
      </trkpt>
      <trkpt lat="50.79199" lon="5.59252">
        <ele>108</ele>
        <time>2018-11-19T06:08:09Z</time>
      </trkpt>
      <trkpt lat="50.79224" lon="5.5923">
        <ele>107</ele>
        <time>2018-11-19T06:09:09Z</time>
      </trkpt>
      <trkpt lat="50.79289" lon="5.5918">
        <ele>104</ele>
        <time>2018-11-19T06:10:09Z</time>
      </trkpt>
      <trkpt lat="50.79304" lon="5.59168">
        <ele>103</ele>
        <time>2018-11-19T06:11:09Z</time>
      </trkpt>
      <trkpt lat="50.79341" lon="5.59133">
        <ele>100</ele>
        <time>2018-11-19T06:12:09Z</time>
      </trkpt>
      <trkpt lat="50.79355" lon="5.59119">
        <ele>99</ele>
        <time>2018-11-19T06:13:09Z</time>
      </trkpt>
      <trkpt lat="50.79377" lon="5.59097">
        <ele>98</ele>
        <time>2018-11-19T06:14:09Z</time>
      </trkpt>
      <trkpt lat="50.79396" lon="5.59075">
        <ele>97</ele>
        <time>2018-11-19T06:15:09Z</time>
      </trkpt>
      <trkpt lat="50.79455" lon="5.59008">
        <ele>95</ele>
        <time>2018-11-19T06:16:09Z</time>
      </trkpt>
      <trkpt lat="50.79479" lon="5.5898">
        <ele>95</ele>
        <time>2018-11-19T06:17:09Z</time>
      </trkpt>
      <trkpt lat="50.79489" lon="5.58968">
        <ele>95</ele>
        <time>2018-11-19T06:18:09Z</time>
      </trkpt>
      <trkpt lat="50.79486" lon="5.58959">
        <ele>95</ele>
        <time>2018-11-19T06:19:09Z</time>
      </trkpt>
      <trkpt lat="50.7948" lon="5.58945">
        <ele>96</ele>
        <time>2018-11-19T06:20:09Z</time>
      </trkpt>
      <trkpt lat="50.79456" lon="5.5889">
        <ele>96</ele>
        <time>2018-11-19T06:21:09Z</time>
      </trkpt>
      <trkpt lat="50.79442" lon="5.58851">
        <ele>96</ele>
        <time>2018-11-19T06:22:09Z</time>
      </trkpt>
      <trkpt lat="50.79424" lon="5.588">
        <ele>97</ele>
        <time>2018-11-19T06:23:09Z</time>
      </trkpt>
      <trkpt lat="50.79409" lon="5.58749">
        <ele>97</ele>
        <time>2018-11-19T06:24:09Z</time>
      </trkpt>
      <trkpt lat="50.79385" lon="5.58661">
        <ele>98</ele>
        <time>2018-11-19T06:25:09Z</time>
      </trkpt>
      <trkpt lat="50.79374" lon="5.58619">
        <ele>98</ele>
        <time>2018-11-19T06:26:09Z</time>
      </trkpt>
      <trkpt lat="50.79366" lon="5.58574">
        <ele>98</ele>
        <time>2018-11-19T06:27:09Z</time>
      </trkpt>
      <trkpt lat="50.79352" lon="5.58487">
        <ele>98</ele>
        <time>2018-11-19T06:28:09Z</time>
      </trkpt>
      <trkpt lat="50.79334" lon="5.58304">
        <ele>95</ele>
        <time>2018-11-19T06:29:09Z</time>
      </trkpt>
      <trkpt lat="50.7933" lon="5.58283">
        <ele>94</ele>
        <time>2018-11-19T06:30:09Z</time>
      </trkpt>
      <trkpt lat="50.79326" lon="5.58264">
        <ele>94</ele>
        <time>2018-11-19T06:31:09Z</time>
      </trkpt>
      <trkpt lat="50.79314" lon="5.58213">
        <ele>94</ele>
        <time>2018-11-19T06:32:09Z</time>
      </trkpt>
      <trkpt lat="50.79297" lon="5.5816">
        <ele>95</ele>
        <time>2018-11-19T06:33:09Z</time>
      </trkpt>
      <trkpt lat="50.79287" lon="5.58134">
        <ele>96</ele>
        <time>2018-11-19T06:34:09Z</time>
      </trkpt>
      <trkpt lat="50.79276" lon="5.58114">
        <ele>96</ele>
        <time>2018-11-19T06:35:09Z</time>
      </trkpt>
      <trkpt lat="50.79264" lon="5.58102">
        <ele>96</ele>
        <time>2018-11-19T06:36:09Z</time>
      </trkpt>
      <trkpt lat="50.79216" lon="5.58063">
        <ele>96</ele>
        <time>2018-11-19T06:37:09Z</time>
      </trkpt>
      <trkpt lat="50.79186" lon="5.58036">
        <ele>97</ele>
        <time>2018-11-19T06:38:09Z</time>
      </trkpt>
      <trkpt lat="50.79165" lon="5.58013">
        <ele>98</ele>
        <time>2018-11-19T06:39:09Z</time>
      </trkpt>
      <trkpt lat="50.79146" lon="5.57989">
        <ele>98</ele>
        <time>2018-11-19T06:40:09Z</time>
      </trkpt>
      <trkpt lat="50.7913" lon="5.57962">
        <ele>98</ele>
        <time>2018-11-19T06:41:09Z</time>
      </trkpt>
      <trkpt lat="50.79092" lon="5.57894">
        <ele>98</ele>
        <time>2018-11-19T06:42:09Z</time>
      </trkpt>
      <trkpt lat="50.79045" lon="5.57802">
        <ele>99</ele>
        <time>2018-11-19T06:43:09Z</time>
      </trkpt>
      <trkpt lat="50.7891" lon="5.57552">
        <ele>100</ele>
        <time>2018-11-19T06:44:09Z</time>
      </trkpt>
      <trkpt lat="50.78871" lon="5.5748">
        <ele>100</ele>
        <time>2018-11-19T06:45:09Z</time>
      </trkpt>
      <trkpt lat="50.78816" lon="5.57367">
        <ele>100</ele>
        <time>2018-11-19T06:46:09Z</time>
      </trkpt>
      <trkpt lat="50.78749" lon="5.57224">
        <ele>100</ele>
        <time>2018-11-19T06:47:09Z</time>
      </trkpt>
      <trkpt lat="50.78697" lon="5.57093">
        <ele>101</ele>
        <time>2018-11-19T06:48:09Z</time>
      </trkpt>
      <trkpt lat="50.78657" lon="5.56961">
        <ele>101</ele>
        <time>2018-11-19T06:49:09Z</time>
      </trkpt>
      <trkpt lat="50.78622" lon="5.56839">
        <ele>103</ele>
        <time>2018-11-19T06:50:09Z</time>
      </trkpt>
      <trkpt lat="50.78601" lon="5.56764">
        <ele>103</ele>
        <time>2018-11-19T06:51:09Z</time>
      </trkpt>
      <trkpt lat="50.78578" lon="5.56685">
        <ele>103</ele>
        <time>2018-11-19T06:52:09Z</time>
      </trkpt>
      <trkpt lat="50.78565" lon="5.56654">
        <ele>103</ele>
        <time>2018-11-19T06:53:09Z</time>
      </trkpt>
      <trkpt lat="50.78552" lon="5.56625">
        <ele>103</ele>
        <time>2018-11-19T06:54:09Z</time>
      </trkpt>
      <trkpt lat="50.78535" lon="5.566">
        <ele>104</ele>
        <time>2018-11-19T06:55:09Z</time>
      </trkpt>
      <trkpt lat="50.78515" lon="5.56571">
        <ele>104</ele>
        <time>2018-11-19T06:56:09Z</time>
      </trkpt>
      <trkpt lat="50.78499" lon="5.56543">
        <ele>104</ele>
        <time>2018-11-19T06:57:09Z</time>
      </trkpt>
      <trkpt lat="50.78476" lon="5.56504">
        <ele>104</ele>
        <time>2018-11-19T06:58:09Z</time>
      </trkpt>
      <trkpt lat="50.78459" lon="5.56468">
        <ele>105</ele>
        <time>2018-11-19T06:59:09Z</time>
      </trkpt>
      <trkpt lat="50.78429" lon="5.56408">
        <ele>106</ele>
        <time>2018-11-19T07:00:09Z</time>
      </trkpt>
      <trkpt lat="50.78394" lon="5.56335">
        <ele>107</ele>
        <time>2018-11-19T07:01:09Z</time>
      </trkpt>
      <trkpt lat="50.78363" lon="5.5627">
        <ele>107</ele>
        <time>2018-11-19T07:02:09Z</time>
      </trkpt>
      <trkpt lat="50.78339" lon="5.56223">
        <ele>108</ele>
        <time>2018-11-19T07:03:09Z</time>
      </trkpt>
      <trkpt lat="50.78335" lon="5.56203">
        <ele>108</ele>
        <time>2018-11-19T07:04:09Z</time>
      </trkpt>
      <trkpt lat="50.7833" lon="5.56186">
        <ele>108</ele>
        <time>2018-11-19T07:05:09Z</time>
      </trkpt>
      <trkpt lat="50.78323" lon="5.56174">
        <ele>108</ele>
        <time>2018-11-19T07:06:09Z</time>
      </trkpt>
      <trkpt lat="50.78314" lon="5.56161">
        <ele>108</ele>
        <time>2018-11-19T07:07:09Z</time>
      </trkpt>
      <trkpt lat="50.78261" lon="5.56076">
        <ele>109</ele>
        <time>2018-11-19T07:08:09Z</time>
      </trkpt>
      <trkpt lat="50.78252" lon="5.56059">
        <ele>109</ele>
        <time>2018-11-19T07:09:09Z</time>
      </trkpt>
      <trkpt lat="50.78238" lon="5.56031">
        <ele>109</ele>
        <time>2018-11-19T07:10:09Z</time>
      </trkpt>
      <trkpt lat="50.78222" lon="5.55999">
        <ele>110</ele>
        <time>2018-11-19T07:11:09Z</time>
      </trkpt>
      <trkpt lat="50.78197" lon="5.55948">
        <ele>111</ele>
        <time>2018-11-19T07:12:09Z</time>
      </trkpt>
      <trkpt lat="50.78183" lon="5.55909">
        <ele>111</ele>
        <time>2018-11-19T07:13:09Z</time>
      </trkpt>
      <trkpt lat="50.78171" lon="5.55868">
        <ele>111</ele>
        <time>2018-11-19T07:14:09Z</time>
      </trkpt>
      <trkpt lat="50.78146" lon="5.55779">
        <ele>112</ele>
        <time>2018-11-19T07:15:09Z</time>
      </trkpt>
      <trkpt lat="50.78123" lon="5.55696">
        <ele>113</ele>
        <time>2018-11-19T07:16:09Z</time>
      </trkpt>
      <trkpt lat="50.78111" lon="5.55654">
        <ele>114</ele>
        <time>2018-11-19T07:17:09Z</time>
      </trkpt>
      <trkpt lat="50.78102" lon="5.5563">
        <ele>115</ele>
        <time>2018-11-19T07:18:09Z</time>
      </trkpt>
      <trkpt lat="50.78088" lon="5.55607">
        <ele>115</ele>
        <time>2018-11-19T07:19:09Z</time>
      </trkpt>
      <trkpt lat="50.78068" lon="5.55575">
        <ele>116</ele>
        <time>2018-11-19T07:20:09Z</time>
      </trkpt>
      <trkpt lat="50.78023" lon="5.55512">
        <ele>118</ele>
        <time>2018-11-19T07:21:09Z</time>
      </trkpt>
      <trkpt lat="50.77984" lon="5.55454">
        <ele>118</ele>
        <time>2018-11-19T07:22:09Z</time>
      </trkpt>
      <trkpt lat="50.77962" lon="5.55419">
        <ele>118</ele>
        <time>2018-11-19T07:23:09Z</time>
      </trkpt>
      <trkpt lat="50.77954" lon="5.55407">
        <ele>117</ele>
        <time>2018-11-19T07:24:09Z</time>
      </trkpt>
      <trkpt lat="50.77947" lon="5.55389">
        <ele>117</ele>
        <time>2018-11-19T07:25:09Z</time>
      </trkpt>
      <trkpt lat="50.7793" lon="5.55332">
        <ele>115</ele>
        <time>2018-11-19T07:26:09Z</time>
      </trkpt>
      <trkpt lat="50.77907" lon="5.55259">
        <ele>116</ele>
        <time>2018-11-19T07:27:09Z</time>
      </trkpt>
      <trkpt lat="50.77882" lon="5.55175">
        <ele>115</ele>
        <time>2018-11-19T07:28:09Z</time>
      </trkpt>
      <trkpt lat="50.77861" lon="5.55107">
        <ele>114</ele>
        <time>2018-11-19T07:29:09Z</time>
      </trkpt>
      <trkpt lat="50.77844" lon="5.55064">
        <ele>113</ele>
        <time>2018-11-19T07:30:09Z</time>
      </trkpt>
      <trkpt lat="50.77829" lon="5.55023">
        <ele>112</ele>
        <time>2018-11-19T07:31:09Z</time>
      </trkpt>
      <trkpt lat="50.77816" lon="5.54995">
        <ele>111</ele>
        <time>2018-11-19T07:32:09Z</time>
      </trkpt>
      <trkpt lat="50.77805" lon="5.54979">
        <ele>111</ele>
        <time>2018-11-19T07:33:09Z</time>
      </trkpt>
      <trkpt lat="50.77792" lon="5.54956">
        <ele>111</ele>
        <time>2018-11-19T07:34:09Z</time>
      </trkpt>
      <trkpt lat="50.77778" lon="5.54941">
        <ele>111</ele>
        <time>2018-11-19T07:35:09Z</time>
      </trkpt>
      <trkpt lat="50.77762" lon="5.54929">
        <ele>111</ele>
        <time>2018-11-19T07:36:09Z</time>
      </trkpt>
      <trkpt lat="50.77731" lon="5.54902">
        <ele>110</ele>
        <time>2018-11-19T07:37:09Z</time>
      </trkpt>
      <trkpt lat="50.77678" lon="5.54862">
        <ele>108</ele>
        <time>2018-11-19T07:38:09Z</time>
      </trkpt>
      <trkpt lat="50.77647" lon="5.54837">
        <ele>108</ele>
        <time>2018-11-19T07:39:09Z</time>
      </trkpt>
      <trkpt lat="50.776" lon="5.54802">
        <ele>108</ele>
        <time>2018-11-19T07:40:09Z</time>
      </trkpt>
      <trkpt lat="50.77549" lon="5.54764">
        <ele>108</ele>
        <time>2018-11-19T07:41:09Z</time>
      </trkpt>
      <trkpt lat="50.77504" lon="5.54724">
        <ele>108</ele>
        <time>2018-11-19T07:42:09Z</time>
      </trkpt>
      <trkpt lat="50.7746" lon="5.5467">
        <ele>107</ele>
        <time>2018-11-19T07:43:09Z</time>
      </trkpt>
      <trkpt lat="50.77356" lon="5.54542">
        <ele>104</ele>
        <time>2018-11-19T07:44:09Z</time>
      </trkpt>
      <trkpt lat="50.77307" lon="5.54483">
        <ele>102</ele>
        <time>2018-11-19T07:45:09Z</time>
      </trkpt>
      <trkpt lat="50.7727" lon="5.54433">
        <ele>101</ele>
        <time>2018-11-19T07:46:09Z</time>
      </trkpt>
      <trkpt lat="50.77235" lon="5.5438">
        <ele>102</ele>
        <time>2018-11-19T07:47:09Z</time>
      </trkpt>
      <trkpt lat="50.77227" lon="5.54369">
        <ele>102</ele>
        <time>2018-11-19T07:48:09Z</time>
      </trkpt>
      <trkpt lat="50.7721" lon="5.54336">
        <ele>103</ele>
        <time>2018-11-19T07:49:09Z</time>
      </trkpt>
      <trkpt lat="50.7719" lon="5.54295">
        <ele>102</ele>
        <time>2018-11-19T07:50:09Z</time>
      </trkpt>
      <trkpt lat="50.77143" lon="5.54203">
        <ele>100</ele>
        <time>2018-11-19T07:51:09Z</time>
      </trkpt>
      <trkpt lat="50.77092" lon="5.541">
        <ele>99</ele>
        <time>2018-11-19T07:52:09Z</time>
      </trkpt>
      <trkpt lat="50.77058" lon="5.54033">
        <ele>98</ele>
        <time>2018-11-19T07:53:09Z</time>
      </trkpt>
      <trkpt lat="50.77043" lon="5.54011">
        <ele>98</ele>
        <time>2018-11-19T07:54:09Z</time>
      </trkpt>
      <trkpt lat="50.77032" lon="5.53998">
        <ele>98</ele>
        <time>2018-11-19T07:55:09Z</time>
      </trkpt>
      <trkpt lat="50.7701" lon="5.53977">
        <ele>99</ele>
        <time>2018-11-19T07:56:09Z</time>
      </trkpt>
      <trkpt lat="50.76993" lon="5.53961">
        <ele>100</ele>
        <time>2018-11-19T07:57:09Z</time>
      </trkpt>
      <trkpt lat="50.7697" lon="5.53939">
        <ele>101</ele>
        <time>2018-11-19T07:58:09Z</time>
      </trkpt>
      <trkpt lat="50.76949" lon="5.53917">
        <ele>102</ele>
        <time>2018-11-19T07:59:09Z</time>
      </trkpt>
      <trkpt lat="50.76932" lon="5.53884">
        <ele>102</ele>
        <time>2018-11-19T08:00:09Z</time>
      </trkpt>
      <trkpt lat="50.76885" lon="5.53779">
        <ele>102</ele>
        <time>2018-11-19T08:01:09Z</time>
      </trkpt>
      <trkpt lat="50.76853" lon="5.53707">
        <ele>102</ele>
        <time>2018-11-19T08:02:09Z</time>
      </trkpt>
      <trkpt lat="50.76826" lon="5.53654">
        <ele>102</ele>
        <time>2018-11-19T08:03:09Z</time>
      </trkpt>
      <trkpt lat="50.76785" lon="5.53576">
        <ele>101</ele>
        <time>2018-11-19T08:04:09Z</time>
      </trkpt>
      <trkpt lat="50.76768" lon="5.53546">
        <ele>101</ele>
        <time>2018-11-19T08:05:09Z</time>
      </trkpt>
      <trkpt lat="50.76763" lon="5.53534">
        <ele>101</ele>
        <time>2018-11-19T08:06:09Z</time>
      </trkpt>
      <trkpt lat="50.76753" lon="5.5352">
        <ele>100</ele>
        <time>2018-11-19T08:07:09Z</time>
      </trkpt>
      <trkpt lat="50.7674" lon="5.535">
        <ele>100</ele>
        <time>2018-11-19T08:08:09Z</time>
      </trkpt>
      <trkpt lat="50.7668" lon="5.5341">
        <ele>100</ele>
        <time>2018-11-19T08:09:09Z</time>
      </trkpt>
      <trkpt lat="50.76633" lon="5.53333">
        <ele>100</ele>
        <time>2018-11-19T08:10:09Z</time>
      </trkpt>
      <trkpt lat="50.76599" lon="5.53277">
        <ele>99</ele>
        <time>2018-11-19T08:11:09Z</time>
      </trkpt>
      <trkpt lat="50.76566" lon="5.53211">
        <ele>96</ele>
        <time>2018-11-19T08:12:09Z</time>
      </trkpt>
      <trkpt lat="50.76549" lon="5.53178">
        <ele>94</ele>
        <time>2018-11-19T08:13:09Z</time>
      </trkpt>
      <trkpt lat="50.76538" lon="5.53156">
        <ele>92</ele>
        <time>2018-11-19T08:14:09Z</time>
      </trkpt>
      <trkpt lat="50.76536" lon="5.53141">
        <ele>92</ele>
        <time>2018-11-19T08:15:09Z</time>
      </trkpt>
      <trkpt lat="50.76545" lon="5.53134">
        <ele>91</ele>
        <time>2018-11-19T08:16:09Z</time>
      </trkpt>
      <trkpt lat="50.76597" lon="5.53104">
        <ele>89</ele>
        <time>2018-11-19T08:17:09Z</time>
      </trkpt>
      <trkpt lat="50.7663" lon="5.53084">
        <ele>89</ele>
        <time>2018-11-19T08:18:09Z</time>
      </trkpt>
      <trkpt lat="50.76662" lon="5.53061">
        <ele>88</ele>
        <time>2018-11-19T08:19:09Z</time>
      </trkpt>
      <trkpt lat="50.76668" lon="5.53047">
        <ele>87</ele>
        <time>2018-11-19T08:20:09Z</time>
      </trkpt>
      <trkpt lat="50.76668" lon="5.53034">
        <ele>87</ele>
        <time>2018-11-19T08:21:09Z</time>
      </trkpt>
      <trkpt lat="50.76673" lon="5.53014">
        <ele>86</ele>
        <time>2018-11-19T08:22:09Z</time>
      </trkpt>
      <trkpt lat="50.76679" lon="5.52994">
        <ele>85</ele>
        <time>2018-11-19T08:23:09Z</time>
      </trkpt>
      <trkpt lat="50.76684" lon="5.52976">
        <ele>85</ele>
        <time>2018-11-19T08:24:09Z</time>
      </trkpt>
      <trkpt lat="50.76696" lon="5.52956">
        <ele>86</ele>
        <time>2018-11-19T08:25:09Z</time>
      </trkpt>
      <trkpt lat="50.7672" lon="5.52922">
        <ele>87</ele>
        <time>2018-11-19T08:26:09Z</time>
      </trkpt>
      <trkpt lat="50.7674" lon="5.52889">
        <ele>87</ele>
        <time>2018-11-19T08:27:09Z</time>
      </trkpt>
      <trkpt lat="50.76756" lon="5.52858">
        <ele>87</ele>
        <time>2018-11-19T08:28:09Z</time>
      </trkpt>
      <trkpt lat="50.76768" lon="5.52828">
        <ele>87</ele>
        <time>2018-11-19T08:29:09Z</time>
      </trkpt>
      <trkpt lat="50.76797" lon="5.52743">
        <ele>88</ele>
        <time>2018-11-19T08:30:09Z</time>
      </trkpt>
      <trkpt lat="50.76807" lon="5.52715">
        <ele>88</ele>
        <time>2018-11-19T08:31:09Z</time>
      </trkpt>
      <trkpt lat="50.76812" lon="5.52693">
        <ele>88</ele>
        <time>2018-11-19T08:32:09Z</time>
      </trkpt>
      <trkpt lat="50.76831" lon="5.52604">
        <ele>90</ele>
        <time>2018-11-19T08:33:09Z</time>
      </trkpt>
      <trkpt lat="50.76866" lon="5.52478">
        <ele>92</ele>
        <time>2018-11-19T08:34:09Z</time>
      </trkpt>
      <trkpt lat="50.76874" lon="5.52454">
        <ele>92</ele>
        <time>2018-11-19T08:35:09Z</time>
      </trkpt>
      <trkpt lat="50.76879" lon="5.52434">
        <ele>92</ele>
        <time>2018-11-19T08:36:09Z</time>
      </trkpt>
      <trkpt lat="50.76864" lon="5.52421">
        <ele>92</ele>
        <time>2018-11-19T08:37:09Z</time>
      </trkpt>
      <trkpt lat="50.76847" lon="5.52407">
        <ele>91</ele>
        <time>2018-11-19T08:38:09Z</time>
      </trkpt>
      <trkpt lat="50.7683" lon="5.52392">
        <ele>90</ele>
        <time>2018-11-19T08:39:09Z</time>
      </trkpt>
      <trkpt lat="50.76817" lon="5.5238">
        <ele>89</ele>
        <time>2018-11-19T08:40:09Z</time>
      </trkpt>
      <trkpt lat="50.76809" lon="5.52359">
        <ele>89</ele>
        <time>2018-11-19T08:41:09Z</time>
      </trkpt>
      <trkpt lat="50.76809" lon="5.52345">
        <ele>89</ele>
        <time>2018-11-19T08:42:09Z</time>
      </trkpt>
      <trkpt lat="50.76811" lon="5.52331">
        <ele>90</ele>
        <time>2018-11-19T08:43:09Z</time>
      </trkpt>
      <trkpt lat="50.76816" lon="5.52309">
        <ele>90</ele>
        <time>2018-11-19T08:44:09Z</time>
      </trkpt>
      <trkpt lat="50.7684" lon="5.5219">
        <ele>88</ele>
        <time>2018-11-19T08:45:09Z</time>
      </trkpt>
      <trkpt lat="50.76844" lon="5.52169">
        <ele>87</ele>
        <time>2018-11-19T08:46:09Z</time>
      </trkpt>
      <trkpt lat="50.76843" lon="5.52154">
        <ele>87</ele>
        <time>2018-11-19T08:47:09Z</time>
      </trkpt>
      <trkpt lat="50.76838" lon="5.52141">
        <ele>87</ele>
        <time>2018-11-19T08:48:09Z</time>
      </trkpt>
      <trkpt lat="50.76832" lon="5.52124">
        <ele>86</ele>
        <time>2018-11-19T08:49:09Z</time>
      </trkpt>
      <trkpt lat="50.76831" lon="5.52109">
        <ele>86</ele>
        <time>2018-11-19T08:50:09Z</time>
      </trkpt>
      <trkpt lat="50.76834" lon="5.52088">
        <ele>86</ele>
        <time>2018-11-19T08:51:09Z</time>
      </trkpt>
      <trkpt lat="50.76836" lon="5.52063">
        <ele>86</ele>
        <time>2018-11-19T08:52:09Z</time>
      </trkpt>
      <trkpt lat="50.7684" lon="5.52027">
        <ele>85</ele>
        <time>2018-11-19T08:53:09Z</time>
      </trkpt>
      <trkpt lat="50.76846" lon="5.51948">
        <ele>86</ele>
        <time>2018-11-19T08:54:09Z</time>
      </trkpt>
      <trkpt lat="50.76853" lon="5.51875">
        <ele>86</ele>
        <time>2018-11-19T08:55:09Z</time>
      </trkpt>
      <trkpt lat="50.7685" lon="5.51862">
        <ele>86</ele>
        <time>2018-11-19T08:56:09Z</time>
      </trkpt>
      <trkpt lat="50.76837" lon="5.51846">
        <ele>86</ele>
        <time>2018-11-19T08:57:09Z</time>
      </trkpt>
      <trkpt lat="50.76829" lon="5.51837">
        <ele>86</ele>
        <time>2018-11-19T08:58:09Z</time>
      </trkpt>
      <trkpt lat="50.76833" lon="5.51828">
        <ele>86</ele>
        <time>2018-11-19T08:59:09Z</time>
      </trkpt>
      <trkpt lat="50.76846" lon="5.51806">
        <ele>86</ele>
        <time>2018-11-19T09:00:09Z</time>
      </trkpt>
      <trkpt lat="50.76851" lon="5.51795">
        <ele>86</ele>
        <time>2018-11-19T09:01:09Z</time>
      </trkpt>
      <trkpt lat="50.76851" lon="5.51766">
        <ele>86</ele>
        <time>2018-11-19T09:02:09Z</time>
      </trkpt>
      <trkpt lat="50.76851" lon="5.51759">
        <ele>86</ele>
        <time>2018-11-19T09:03:09Z</time>
      </trkpt>
      <trkpt lat="50.76866" lon="5.51716">
        <ele>86</ele>
        <time>2018-11-19T09:04:09Z</time>
      </trkpt>
      <trkpt lat="50.7688" lon="5.51685">
        <ele>86</ele>
        <time>2018-11-19T09:05:09Z</time>
      </trkpt>
      <trkpt lat="50.76898" lon="5.51643">
        <ele>86</ele>
        <time>2018-11-19T09:06:09Z</time>
      </trkpt>
      <trkpt lat="50.76991" lon="5.51421">
        <ele>85</ele>
        <time>2018-11-19T09:07:09Z</time>
      </trkpt>
      <trkpt lat="50.77022" lon="5.51354">
        <ele>85</ele>
        <time>2018-11-19T09:08:09Z</time>
      </trkpt>
      <trkpt lat="50.77095" lon="5.51181">
        <ele>86</ele>
        <time>2018-11-19T09:09:09Z</time>
      </trkpt>
      <trkpt lat="50.77127" lon="5.51113">
        <ele>87</ele>
        <time>2018-11-19T09:10:09Z</time>
      </trkpt>
      <trkpt lat="50.77208" lon="5.50924">
        <ele>89</ele>
        <time>2018-11-19T09:11:09Z</time>
      </trkpt>
      <trkpt lat="50.77213" lon="5.50915">
        <ele>89</ele>
        <time>2018-11-19T09:12:09Z</time>
      </trkpt>
      <trkpt lat="50.77221" lon="5.50895">
        <ele>89</ele>
        <time>2018-11-19T09:13:09Z</time>
      </trkpt>
      <trkpt lat="50.77222" lon="5.50891">
        <ele>89</ele>
        <time>2018-11-19T09:14:09Z</time>
      </trkpt>
      <trkpt lat="50.77242" lon="5.50847">
        <ele>90</ele>
        <time>2018-11-19T09:15:09Z</time>
      </trkpt>
      <trkpt lat="50.77258" lon="5.50809">
        <ele>89</ele>
        <time>2018-11-19T09:16:09Z</time>
      </trkpt>
      <trkpt lat="50.77294" lon="5.50721">
        <ele>86</ele>
        <time>2018-11-19T09:17:09Z</time>
      </trkpt>
      <trkpt lat="50.77309" lon="5.50685">
        <ele>86</ele>
        <time>2018-11-19T09:18:09Z</time>
      </trkpt>
      <trkpt lat="50.77398" lon="5.50475">
        <ele>90</ele>
        <time>2018-11-19T09:19:09Z</time>
      </trkpt>
      <trkpt lat="50.77408" lon="5.50453">
        <ele>90</ele>
        <time>2018-11-19T09:20:09Z</time>
      </trkpt>
      <trkpt lat="50.7745" lon="5.50355">
        <ele>91</ele>
        <time>2018-11-19T09:21:09Z</time>
      </trkpt>
      <trkpt lat="50.77479" lon="5.50283">
        <ele>91</ele>
        <time>2018-11-19T09:22:09Z</time>
      </trkpt>
      <trkpt lat="50.77511" lon="5.50213">
        <ele>90</ele>
        <time>2018-11-19T09:23:09Z</time>
      </trkpt>
      <trkpt lat="50.7753" lon="5.5016">
        <ele>91</ele>
        <time>2018-11-19T09:24:09Z</time>
      </trkpt>
      <trkpt lat="50.77547" lon="5.50119">
        <ele>91</ele>
        <time>2018-11-19T09:25:09Z</time>
      </trkpt>
      <trkpt lat="50.7756" lon="5.50078">
        <ele>90</ele>
        <time>2018-11-19T09:26:09Z</time>
      </trkpt>
      <trkpt lat="50.77576" lon="5.50029">
        <ele>90</ele>
        <time>2018-11-19T09:27:09Z</time>
      </trkpt>
      <trkpt lat="50.77584" lon="5.49999">
        <ele>89</ele>
        <time>2018-11-19T09:28:09Z</time>
      </trkpt>
      <trkpt lat="50.77606" lon="5.4992">
        <ele>90</ele>
        <time>2018-11-19T09:29:09Z</time>
      </trkpt>
      <trkpt lat="50.77622" lon="5.49848">
        <ele>90</ele>
        <time>2018-11-19T09:30:09Z</time>
      </trkpt>
      <trkpt lat="50.77638" lon="5.49765">
        <ele>89</ele>
        <time>2018-11-19T09:31:09Z</time>
      </trkpt>
      <trkpt lat="50.7765" lon="5.49676">
        <ele>86</ele>
        <time>2018-11-19T09:32:09Z</time>
      </trkpt>
      <trkpt lat="50.77655" lon="5.49609">
        <ele>86</ele>
        <time>2018-11-19T09:33:09Z</time>
      </trkpt>
      <trkpt lat="50.77694" lon="5.49129">
        <ele>86</ele>
        <time>2018-11-19T09:34:09Z</time>
      </trkpt>
      <trkpt lat="50.777" lon="5.49043">
        <ele>87</ele>
        <time>2018-11-19T09:35:09Z</time>
      </trkpt>
      <trkpt lat="50.77716" lon="5.48842">
        <ele>88</ele>
        <time>2018-11-19T09:36:09Z</time>
      </trkpt>
      <trkpt lat="50.77723" lon="5.48753">
        <ele>87</ele>
        <time>2018-11-19T09:37:09Z</time>
      </trkpt>
      <trkpt lat="50.7773" lon="5.48666">
        <ele>85</ele>
        <time>2018-11-19T09:38:09Z</time>
      </trkpt>
      <trkpt lat="50.77736" lon="5.48579">
        <ele>85</ele>
        <time>2018-11-19T09:39:09Z</time>
      </trkpt>
      <trkpt lat="50.77742" lon="5.48514">
        <ele>86</ele>
        <time>2018-11-19T09:40:09Z</time>
      </trkpt>
      <trkpt lat="50.77747" lon="5.48438">
        <ele>86</ele>
        <time>2018-11-19T09:41:09Z</time>
      </trkpt>
      <trkpt lat="50.77754" lon="5.48344">
        <ele>86</ele>
        <time>2018-11-19T09:42:09Z</time>
      </trkpt>
      <trkpt lat="50.77763" lon="5.4823">
        <ele>86</ele>
        <time>2018-11-19T09:43:09Z</time>
      </trkpt>
      <trkpt lat="50.77769" lon="5.48145">
        <ele>87</ele>
        <time>2018-11-19T09:44:09Z</time>
      </trkpt>
      <trkpt lat="50.77778" lon="5.4805">
        <ele>88</ele>
        <time>2018-11-19T09:45:09Z</time>
      </trkpt>
      <trkpt lat="50.77789" lon="5.47975">
        <ele>90</ele>
        <time>2018-11-19T09:46:09Z</time>
      </trkpt>
      <trkpt lat="50.7779" lon="5.47955">
        <ele>90</ele>
        <time>2018-11-19T09:47:09Z</time>
      </trkpt>
      <trkpt lat="50.77784" lon="5.4793">
        <ele>90</ele>
        <time>2018-11-19T09:48:09Z</time>
      </trkpt>
      <trkpt lat="50.77768" lon="5.47849">
        <ele>92</ele>
        <time>2018-11-19T09:49:09Z</time>
      </trkpt>
      <trkpt lat="50.7775" lon="5.47768">
        <ele>92</ele>
        <time>2018-11-19T09:50:09Z</time>
      </trkpt>
      <trkpt lat="50.77736" lon="5.47715">
        <ele>91</ele>
        <time>2018-11-19T09:51:09Z</time>
      </trkpt>
      <trkpt lat="50.77729" lon="5.47694">
        <ele>90</ele>
        <time>2018-11-19T09:52:09Z</time>
      </trkpt>
      <trkpt lat="50.77725" lon="5.47678">
        <ele>90</ele>
        <time>2018-11-19T09:53:09Z</time>
      </trkpt>
      <trkpt lat="50.77724" lon="5.47658">
        <ele>89</ele>
        <time>2018-11-19T09:54:09Z</time>
      </trkpt>
      <trkpt lat="50.77721" lon="5.47573">
        <ele>89</ele>
        <time>2018-11-19T09:55:09Z</time>
      </trkpt>
      <trkpt lat="50.7772" lon="5.47511">
        <ele>89</ele>
        <time>2018-11-19T09:56:09Z</time>
      </trkpt>
      <trkpt lat="50.77719" lon="5.47492">
        <ele>89</ele>
        <time>2018-11-19T09:57:09Z</time>
      </trkpt>
      <trkpt lat="50.77716" lon="5.47468">
        <ele>88</ele>
        <time>2018-11-19T09:58:09Z</time>
      </trkpt>
      <trkpt lat="50.7771" lon="5.47455">
        <ele>88</ele>
        <time>2018-11-19T09:59:09Z</time>
      </trkpt>
      <trkpt lat="50.7772" lon="5.47438">
        <ele>88</ele>
        <time>2018-11-19T10:00:09Z</time>
      </trkpt>
      <trkpt lat="50.77731" lon="5.47404">
        <ele>87</ele>
        <time>2018-11-19T10:01:09Z</time>
      </trkpt>
      <trkpt lat="50.77717" lon="5.4739">
        <ele>87</ele>
        <time>2018-11-19T10:02:09Z</time>
      </trkpt>
      <trkpt lat="50.77704" lon="5.47376">
        <ele>88</ele>
        <time>2018-11-19T10:03:09Z</time>
      </trkpt>
      <trkpt lat="50.77694" lon="5.47358">
        <ele>87</ele>
        <time>2018-11-19T10:04:09Z</time>
      </trkpt>
      <trkpt lat="50.7768" lon="5.47326">
        <ele>87</ele>
        <time>2018-11-19T10:05:09Z</time>
      </trkpt>
      <trkpt lat="50.77662" lon="5.47286">
        <ele>86</ele>
        <time>2018-11-19T10:06:09Z</time>
      </trkpt>
      <trkpt lat="50.77647" lon="5.47253">
        <ele>86</ele>
        <time>2018-11-19T10:07:09Z</time>
      </trkpt>
      <trkpt lat="50.77636" lon="5.47227">
        <ele>87</ele>
        <time>2018-11-19T10:08:09Z</time>
      </trkpt>
      <trkpt lat="50.77631" lon="5.47197">
        <ele>87</ele>
        <time>2018-11-19T10:09:09Z</time>
      </trkpt>
      <trkpt lat="50.77629" lon="5.47172">
        <ele>87</ele>
        <time>2018-11-19T10:10:09Z</time>
      </trkpt>
      <trkpt lat="50.77631" lon="5.47149">
        <ele>88</ele>
        <time>2018-11-19T10:11:09Z</time>
      </trkpt>
      <trkpt lat="50.77617" lon="5.47145">
        <ele>88</ele>
        <time>2018-11-19T10:12:09Z</time>
      </trkpt>
      <trkpt lat="50.77587" lon="5.47132">
        <ele>87</ele>
        <time>2018-11-19T10:13:09Z</time>
      </trkpt>
      <trkpt lat="50.77571" lon="5.47126">
        <ele>87</ele>
        <time>2018-11-19T10:14:09Z</time>
      </trkpt>
      <trkpt lat="50.77558" lon="5.4711">
        <ele>88</ele>
        <time>2018-11-19T10:15:09Z</time>
      </trkpt>
      <trkpt lat="50.77547" lon="5.47094">
        <ele>88</ele>
        <time>2018-11-19T10:16:09Z</time>
      </trkpt>
      <trkpt lat="50.77519" lon="5.4704">
        <ele>88</ele>
        <time>2018-11-19T10:17:09Z</time>
      </trkpt>
      <trkpt lat="50.77461" lon="5.46925">
        <ele>87</ele>
        <time>2018-11-19T10:18:09Z</time>
      </trkpt>
      <trkpt lat="50.77417" lon="5.46836">
        <ele>87</ele>
        <time>2018-11-19T10:19:09Z</time>
      </trkpt>
      <trkpt lat="50.77352" lon="5.4671">
        <ele>87</ele>
        <time>2018-11-19T10:20:09Z</time>
      </trkpt>
      <trkpt lat="50.77329" lon="5.46665">
        <ele>86</ele>
        <time>2018-11-19T10:21:09Z</time>
      </trkpt>
      <trkpt lat="50.77314" lon="5.4663">
        <ele>87</ele>
        <time>2018-11-19T10:22:09Z</time>
      </trkpt>
      <trkpt lat="50.77299" lon="5.46595">
        <ele>88</ele>
        <time>2018-11-19T10:23:09Z</time>
      </trkpt>
      <trkpt lat="50.77285" lon="5.46558">
        <ele>89</ele>
        <time>2018-11-19T10:24:09Z</time>
      </trkpt>
      <trkpt lat="50.77266" lon="5.46503">
        <ele>89</ele>
        <time>2018-11-19T10:25:09Z</time>
      </trkpt>
      <trkpt lat="50.77245" lon="5.46435">
        <ele>88</ele>
        <time>2018-11-19T10:26:09Z</time>
      </trkpt>
      <trkpt lat="50.77219" lon="5.46355">
        <ele>89</ele>
        <time>2018-11-19T10:27:09Z</time>
      </trkpt>
      <trkpt lat="50.77204" lon="5.46299">
        <ele>89</ele>
        <time>2018-11-19T10:28:09Z</time>
      </trkpt>
      <trkpt lat="50.77181" lon="5.46209">
        <ele>88</ele>
        <time>2018-11-19T10:29:09Z</time>
      </trkpt>
      <trkpt lat="50.77171" lon="5.46188">
        <ele>88</ele>
        <time>2018-11-19T10:30:09Z</time>
      </trkpt>
      <trkpt lat="50.77165" lon="5.46165">
        <ele>88</ele>
        <time>2018-11-19T10:31:09Z</time>
      </trkpt>
      <trkpt lat="50.77159" lon="5.46159">
        <ele>88</ele>
        <time>2018-11-19T10:32:09Z</time>
      </trkpt>
      <trkpt lat="50.77151" lon="5.46157">
        <ele>88</ele>
        <time>2018-11-19T10:33:09Z</time>
      </trkpt>
      <trkpt lat="50.77145" lon="5.46163">
        <ele>88</ele>
        <time>2018-11-19T10:34:09Z</time>
      </trkpt>
      <trkpt lat="50.7714" lon="5.46175">
        <ele>88</ele>
        <time>2018-11-19T10:35:09Z</time>
      </trkpt>
      <trkpt lat="50.77129" lon="5.46188">
        <ele>88</ele>
        <time>2018-11-19T10:36:09Z</time>
      </trkpt>
      <trkpt lat="50.77097" lon="5.46231">
        <ele>88</ele>
        <time>2018-11-19T10:37:09Z</time>
      </trkpt>
      <trkpt lat="50.77083" lon="5.46234">
        <ele>88</ele>
        <time>2018-11-19T10:38:09Z</time>
      </trkpt>
      <trkpt lat="50.77066" lon="5.4623">
        <ele>88</ele>
        <time>2018-11-19T10:39:09Z</time>
      </trkpt>
      <trkpt lat="50.7704" lon="5.46218">
        <ele>88</ele>
        <time>2018-11-19T10:40:09Z</time>
      </trkpt>
      <trkpt lat="50.76984" lon="5.46189">
        <ele>88</ele>
        <time>2018-11-19T10:41:09Z</time>
      </trkpt>
      <trkpt lat="50.76943" lon="5.46167">
        <ele>89</ele>
        <time>2018-11-19T10:42:09Z</time>
      </trkpt>
      <trkpt lat="50.7684" lon="5.46109">
        <ele>90</ele>
        <time>2018-11-19T10:43:09Z</time>
      </trkpt>
      <trkpt lat="50.76794" lon="5.46082">
        <ele>90</ele>
        <time>2018-11-19T10:44:09Z</time>
      </trkpt>
      <trkpt lat="50.76691" lon="5.46024">
        <ele>92</ele>
        <time>2018-11-19T10:45:09Z</time>
      </trkpt>
      <trkpt lat="50.76665" lon="5.46011">
        <ele>93</ele>
        <time>2018-11-19T10:46:09Z</time>
      </trkpt>
      <trkpt lat="50.7664" lon="5.46004">
        <ele>93</ele>
        <time>2018-11-19T10:47:09Z</time>
      </trkpt>
      <trkpt lat="50.76633" lon="5.46004">
        <ele>93</ele>
        <time>2018-11-19T10:48:09Z</time>
      </trkpt>
      <trkpt lat="50.76574" lon="5.46008">
        <ele>94</ele>
        <time>2018-11-19T10:49:09Z</time>
      </trkpt>
      <trkpt lat="50.76555" lon="5.46005">
        <ele>94</ele>
        <time>2018-11-19T10:50:09Z</time>
      </trkpt>
      <trkpt lat="50.76464" lon="5.45975">
        <ele>93</ele>
        <time>2018-11-19T10:51:09Z</time>
      </trkpt>
      <trkpt lat="50.76429" lon="5.45964">
        <ele>93</ele>
        <time>2018-11-19T10:52:09Z</time>
      </trkpt>
      <trkpt lat="50.76409" lon="5.45953">
        <ele>93</ele>
        <time>2018-11-19T10:53:09Z</time>
      </trkpt>
      <trkpt lat="50.76382" lon="5.45935">
        <ele>93</ele>
        <time>2018-11-19T10:54:09Z</time>
      </trkpt>
      <trkpt lat="50.76357" lon="5.45911">
        <ele>94</ele>
        <time>2018-11-19T10:55:09Z</time>
      </trkpt>
      <trkpt lat="50.76306" lon="5.45863">
        <ele>94</ele>
        <time>2018-11-19T10:56:09Z</time>
      </trkpt>
      <trkpt lat="50.76253" lon="5.45815">
        <ele>94</ele>
        <time>2018-11-19T10:57:09Z</time>
      </trkpt>
      <trkpt lat="50.76197" lon="5.45778">
        <ele>94</ele>
        <time>2018-11-19T10:58:09Z</time>
      </trkpt>
      <trkpt lat="50.76133" lon="5.45748">
        <ele>96</ele>
        <time>2018-11-19T10:59:09Z</time>
      </trkpt>
      <trkpt lat="50.76078" lon="5.45724">
        <ele>98</ele>
        <time>2018-11-19T11:00:09Z</time>
      </trkpt>
      <trkpt lat="50.75954" lon="5.45679">
        <ele>100</ele>
        <time>2018-11-19T11:01:09Z</time>
      </trkpt>
      <trkpt lat="50.75905" lon="5.45662">
        <ele>101</ele>
        <time>2018-11-19T11:02:09Z</time>
      </trkpt>
      <trkpt lat="50.75797" lon="5.45633">
        <ele>102</ele>
        <time>2018-11-19T11:03:09Z</time>
      </trkpt>
      <trkpt lat="50.75751" lon="5.45621">
        <ele>102</ele>
        <time>2018-11-19T11:04:09Z</time>
      </trkpt>
      <trkpt lat="50.75621" lon="5.45588">
        <ele>101</ele>
        <time>2018-11-19T11:05:09Z</time>
      </trkpt>
      <trkpt lat="50.75614" lon="5.45587">
        <ele>101</ele>
        <time>2018-11-19T11:06:09Z</time>
      </trkpt>
      <trkpt lat="50.75601" lon="5.45594">
        <ele>101</ele>
        <time>2018-11-19T11:07:09Z</time>
      </trkpt>
      <trkpt lat="50.75577" lon="5.45599">
        <ele>101</ele>
        <time>2018-11-19T11:08:09Z</time>
      </trkpt>
      <trkpt lat="50.75558" lon="5.45602">
        <ele>100</ele>
        <time>2018-11-19T11:09:09Z</time>
      </trkpt>
      <trkpt lat="50.75538" lon="5.45606">
        <ele>100</ele>
        <time>2018-11-19T11:10:09Z</time>
      </trkpt>
      <trkpt lat="50.75527" lon="5.45618">
        <ele>100</ele>
        <time>2018-11-19T11:11:09Z</time>
      </trkpt>
      <trkpt lat="50.75518" lon="5.45638">
        <ele>100</ele>
        <time>2018-11-19T11:12:09Z</time>
      </trkpt>
      <trkpt lat="50.75499" lon="5.45674">
        <ele>100</ele>
        <time>2018-11-19T11:13:09Z</time>
      </trkpt>
      <trkpt lat="50.7548" lon="5.45709">
        <ele>100</ele>
        <time>2018-11-19T11:14:09Z</time>
      </trkpt>
      <trkpt lat="50.75461" lon="5.45734">
        <ele>101</ele>
        <time>2018-11-19T11:15:09Z</time>
      </trkpt>
      <trkpt lat="50.75438" lon="5.45752">
        <ele>102</ele>
        <time>2018-11-19T11:16:09Z</time>
      </trkpt>
      <trkpt lat="50.75409" lon="5.4577">
        <ele>103</ele>
        <time>2018-11-19T11:17:09Z</time>
      </trkpt>
      <trkpt lat="50.75395" lon="5.45774">
        <ele>102</ele>
        <time>2018-11-19T11:18:09Z</time>
      </trkpt>
      <trkpt lat="50.75384" lon="5.45774">
        <ele>102</ele>
        <time>2018-11-19T11:19:09Z</time>
      </trkpt>
      <trkpt lat="50.7536" lon="5.45768">
        <ele>102</ele>
        <time>2018-11-19T11:20:09Z</time>
      </trkpt>
      <trkpt lat="50.75345" lon="5.45772">
        <ele>102</ele>
        <time>2018-11-19T11:21:09Z</time>
      </trkpt>
      <trkpt lat="50.75325" lon="5.45785">
        <ele>102</ele>
        <time>2018-11-19T11:22:09Z</time>
      </trkpt>
      <trkpt lat="50.7528" lon="5.45825">
        <ele>105</ele>
        <time>2018-11-19T11:23:09Z</time>
      </trkpt>
      <trkpt lat="50.75248" lon="5.45854">
        <ele>107</ele>
        <time>2018-11-19T11:24:09Z</time>
      </trkpt>
      <trkpt lat="50.75179" lon="5.45923">
        <ele>110</ele>
        <time>2018-11-19T11:25:09Z</time>
      </trkpt>
      <trkpt lat="50.75141" lon="5.45962">
        <ele>111</ele>
        <time>2018-11-19T11:26:09Z</time>
      </trkpt>
      <trkpt lat="50.75107" lon="5.45993">
        <ele>111</ele>
        <time>2018-11-19T11:27:09Z</time>
      </trkpt>
      <trkpt lat="50.75082" lon="5.46014">
        <ele>111</ele>
        <time>2018-11-19T11:28:09Z</time>
      </trkpt>
      <trkpt lat="50.75068" lon="5.46023">
        <ele>111</ele>
        <time>2018-11-19T11:29:09Z</time>
      </trkpt>
      <trkpt lat="50.75052" lon="5.46029">
        <ele>110</ele>
        <time>2018-11-19T11:30:09Z</time>
      </trkpt>
      <trkpt lat="50.75004" lon="5.4603">
        <ele>108</ele>
        <time>2018-11-19T11:31:09Z</time>
      </trkpt>
      <trkpt lat="50.74954" lon="5.46029">
        <ele>107</ele>
        <time>2018-11-19T11:32:09Z</time>
      </trkpt>
      <trkpt lat="50.74928" lon="5.46032">
        <ele>107</ele>
        <time>2018-11-19T11:33:09Z</time>
      </trkpt>
      <trkpt lat="50.74869" lon="5.46044">
        <ele>107</ele>
        <time>2018-11-19T11:34:09Z</time>
      </trkpt>
      <trkpt lat="50.74839" lon="5.46051">
        <ele>107</ele>
        <time>2018-11-19T11:35:09Z</time>
      </trkpt>
      <trkpt lat="50.74811" lon="5.4606">
        <ele>108</ele>
        <time>2018-11-19T11:36:09Z</time>
      </trkpt>
      <trkpt lat="50.74773" lon="5.46076">
        <ele>109</ele>
        <time>2018-11-19T11:37:09Z</time>
      </trkpt>
      <trkpt lat="50.74731" lon="5.46091">
        <ele>109</ele>
        <time>2018-11-19T11:38:09Z</time>
      </trkpt>
      <trkpt lat="50.74677" lon="5.46113">
        <ele>110</ele>
        <time>2018-11-19T11:39:09Z</time>
      </trkpt>
      <trkpt lat="50.74657" lon="5.46126">
        <ele>111</ele>
        <time>2018-11-19T11:40:09Z</time>
      </trkpt>
      <trkpt lat="50.74638" lon="5.46146">
        <ele>111</ele>
        <time>2018-11-19T11:41:09Z</time>
      </trkpt>
      <trkpt lat="50.74612" lon="5.4618">
        <ele>112</ele>
        <time>2018-11-19T11:42:09Z</time>
      </trkpt>
      <trkpt lat="50.7458" lon="5.46224">
        <ele>113</ele>
        <time>2018-11-19T11:43:09Z</time>
      </trkpt>
      <trkpt lat="50.74563" lon="5.46243">
        <ele>112</ele>
        <time>2018-11-19T11:44:09Z</time>
      </trkpt>
      <trkpt lat="50.74516" lon="5.46286">
        <ele>112</ele>
        <time>2018-11-19T11:45:09Z</time>
      </trkpt>
      <trkpt lat="50.74472" lon="5.46323">
        <ele>110</ele>
        <time>2018-11-19T11:46:09Z</time>
      </trkpt>
      <trkpt lat="50.74446" lon="5.46335">
        <ele>109</ele>
        <time>2018-11-19T11:47:09Z</time>
      </trkpt>
      <trkpt lat="50.74432" lon="5.46339">
        <ele>108</ele>
        <time>2018-11-19T11:48:09Z</time>
      </trkpt>
      <trkpt lat="50.74412" lon="5.46342">
        <ele>108</ele>
        <time>2018-11-19T11:49:09Z</time>
      </trkpt>
      <trkpt lat="50.74304" lon="5.46346">
        <ele>108</ele>
        <time>2018-11-19T11:50:09Z</time>
      </trkpt>
      <trkpt lat="50.74175" lon="5.46349">
        <ele>108</ele>
        <time>2018-11-19T11:51:09Z</time>
      </trkpt>
      <trkpt lat="50.74074" lon="5.4635">
        <ele>109</ele>
        <time>2018-11-19T11:52:09Z</time>
      </trkpt>
      <trkpt lat="50.74017" lon="5.46351">
        <ele>110</ele>
        <time>2018-11-19T11:53:09Z</time>
      </trkpt>
      <trkpt lat="50.73988" lon="5.46354">
        <ele>110</ele>
        <time>2018-11-19T11:54:09Z</time>
      </trkpt>
      <trkpt lat="50.7396" lon="5.46362">
        <ele>111</ele>
        <time>2018-11-19T11:55:09Z</time>
      </trkpt>
      <trkpt lat="50.73907" lon="5.46387">
        <ele>111</ele>
        <time>2018-11-19T11:56:09Z</time>
      </trkpt>
      <trkpt lat="50.73891" lon="5.46394">
        <ele>112</ele>
        <time>2018-11-19T11:57:09Z</time>
      </trkpt>
      <trkpt lat="50.73876" lon="5.46398">
        <ele>112</ele>
        <time>2018-11-19T11:58:09Z</time>
      </trkpt>
      <trkpt lat="50.73844" lon="5.46403">
        <ele>112</ele>
        <time>2018-11-19T11:59:09Z</time>
      </trkpt>
      <trkpt lat="50.73817" lon="5.46403">
        <ele>112</ele>
        <time>2018-11-19T12:00:09Z</time>
      </trkpt>
      <trkpt lat="50.73794" lon="5.46398">
        <ele>113</ele>
        <time>2018-11-19T12:01:09Z</time>
      </trkpt>
      <trkpt lat="50.73762" lon="5.46396">
        <ele>114</ele>
        <time>2018-11-19T12:02:09Z</time>
      </trkpt>
      <trkpt lat="50.73735" lon="5.46398">
        <ele>114</ele>
        <time>2018-11-19T12:03:09Z</time>
      </trkpt>
      <trkpt lat="50.73712" lon="5.46402">
        <ele>115</ele>
        <time>2018-11-19T12:04:09Z</time>
      </trkpt>
      <trkpt lat="50.73677" lon="5.46411">
        <ele>116</ele>
        <time>2018-11-19T12:05:09Z</time>
      </trkpt>
      <trkpt lat="50.73655" lon="5.46417">
        <ele>116</ele>
        <time>2018-11-19T12:06:09Z</time>
      </trkpt>
      <trkpt lat="50.73609" lon="5.46432">
        <ele>117</ele>
        <time>2018-11-19T12:07:09Z</time>
      </trkpt>
      <trkpt lat="50.73582" lon="5.46442">
        <ele>117</ele>
        <time>2018-11-19T12:08:09Z</time>
      </trkpt>
      <trkpt lat="50.73543" lon="5.46466">
        <ele>118</ele>
        <time>2018-11-19T12:09:09Z</time>
      </trkpt>
      <trkpt lat="50.73521" lon="5.46482">
        <ele>118</ele>
        <time>2018-11-19T12:10:09Z</time>
      </trkpt>
      <trkpt lat="50.73495" lon="5.46509">
        <ele>118</ele>
        <time>2018-11-19T12:11:09Z</time>
      </trkpt>
      <trkpt lat="50.73455" lon="5.46561">
        <ele>120</ele>
        <time>2018-11-19T12:12:09Z</time>
      </trkpt>
      <trkpt lat="50.73439" lon="5.46576">
        <ele>120</ele>
        <time>2018-11-19T12:13:09Z</time>
      </trkpt>
      <trkpt lat="50.73421" lon="5.46586">
        <ele>120</ele>
        <time>2018-11-19T12:14:09Z</time>
      </trkpt>
      <trkpt lat="50.73402" lon="5.46594">
        <ele>120</ele>
        <time>2018-11-19T12:15:09Z</time>
      </trkpt>
      <trkpt lat="50.73329" lon="5.46611">
        <ele>123</ele>
        <time>2018-11-19T12:16:09Z</time>
      </trkpt>
      <trkpt lat="50.73322" lon="5.46613">
        <ele>124</ele>
        <time>2018-11-19T12:17:09Z</time>
      </trkpt>
      <trkpt lat="50.73279" lon="5.46626">
        <ele>125</ele>
        <time>2018-11-19T12:18:09Z</time>
      </trkpt>
      <trkpt lat="50.73247" lon="5.46636">
        <ele>126</ele>
        <time>2018-11-19T12:19:09Z</time>
      </trkpt>
      <trkpt lat="50.73189" lon="5.46655">
        <ele>128</ele>
        <time>2018-11-19T12:20:09Z</time>
      </trkpt>
      <trkpt lat="50.73148" lon="5.46668">
        <ele>129</ele>
        <time>2018-11-19T12:21:09Z</time>
      </trkpt>
      <trkpt lat="50.73107" lon="5.46681">
        <ele>129</ele>
        <time>2018-11-19T12:22:09Z</time>
      </trkpt>
      <trkpt lat="50.73083" lon="5.46688">
        <ele>129</ele>
        <time>2018-11-19T12:23:09Z</time>
      </trkpt>
      <trkpt lat="50.73069" lon="5.46692">
        <ele>129</ele>
        <time>2018-11-19T12:24:09Z</time>
      </trkpt>
      <trkpt lat="50.73054" lon="5.46691">
        <ele>129</ele>
        <time>2018-11-19T12:25:09Z</time>
      </trkpt>
      <trkpt lat="50.73047" lon="5.46689">
        <ele>129</ele>
        <time>2018-11-19T12:26:09Z</time>
      </trkpt>
      <trkpt lat="50.73028" lon="5.4668">
        <ele>129</ele>
        <time>2018-11-19T12:27:09Z</time>
      </trkpt>
      <trkpt lat="50.73008" lon="5.46667">
        <ele>129</ele>
        <time>2018-11-19T12:28:09Z</time>
      </trkpt>
      <trkpt lat="50.72991" lon="5.46656">
        <ele>129</ele>
        <time>2018-11-19T12:29:09Z</time>
      </trkpt>
      <trkpt lat="50.72964" lon="5.46633">
        <ele>129</ele>
        <time>2018-11-19T12:30:09Z</time>
      </trkpt>
      <trkpt lat="50.72942" lon="5.46614">
        <ele>129</ele>
        <time>2018-11-19T12:31:09Z</time>
      </trkpt>
      <trkpt lat="50.72913" lon="5.46587">
        <ele>129</ele>
        <time>2018-11-19T12:32:09Z</time>
      </trkpt>
      <trkpt lat="50.7289" lon="5.4657">
        <ele>130</ele>
        <time>2018-11-19T12:33:09Z</time>
      </trkpt>
      <trkpt lat="50.72874" lon="5.46559">
        <ele>131</ele>
        <time>2018-11-19T12:34:09Z</time>
      </trkpt>
      <trkpt lat="50.7286" lon="5.46552">
        <ele>131</ele>
        <time>2018-11-19T12:35:09Z</time>
      </trkpt>
      <trkpt lat="50.72849" lon="5.46547">
        <ele>132</ele>
        <time>2018-11-19T12:36:09Z</time>
      </trkpt>
      <trkpt lat="50.72835" lon="5.46542">
        <ele>132</ele>
        <time>2018-11-19T12:37:09Z</time>
      </trkpt>
      <trkpt lat="50.7281" lon="5.46537">
        <ele>133</ele>
        <time>2018-11-19T12:38:09Z</time>
      </trkpt>
      <trkpt lat="50.72791" lon="5.46528">
        <ele>133</ele>
        <time>2018-11-19T12:39:09Z</time>
      </trkpt>
      <trkpt lat="50.72758" lon="5.46512">
        <ele>134</ele>
        <time>2018-11-19T12:40:09Z</time>
      </trkpt>
      <trkpt lat="50.72731" lon="5.46498">
        <ele>134</ele>
        <time>2018-11-19T12:41:09Z</time>
      </trkpt>
      <trkpt lat="50.72693" lon="5.46481">
        <ele>133</ele>
        <time>2018-11-19T12:42:09Z</time>
      </trkpt>
      <trkpt lat="50.72668" lon="5.4647">
        <ele>133</ele>
        <time>2018-11-19T12:43:09Z</time>
      </trkpt>
      <trkpt lat="50.72649" lon="5.46461">
        <ele>132</ele>
        <time>2018-11-19T12:44:09Z</time>
      </trkpt>
      <trkpt lat="50.72629" lon="5.46455">
        <ele>132</ele>
        <time>2018-11-19T12:45:09Z</time>
      </trkpt>
      <trkpt lat="50.72608" lon="5.46453">
        <ele>132</ele>
        <time>2018-11-19T12:46:09Z</time>
      </trkpt>
      <trkpt lat="50.72577" lon="5.46453">
        <ele>131</ele>
        <time>2018-11-19T12:47:09Z</time>
      </trkpt>
      <trkpt lat="50.72515" lon="5.46455">
        <ele>131</ele>
        <time>2018-11-19T12:48:09Z</time>
      </trkpt>
      <trkpt lat="50.72457" lon="5.4646">
        <ele>132</ele>
        <time>2018-11-19T12:49:09Z</time>
      </trkpt>
      <trkpt lat="50.72398" lon="5.46469">
        <ele>133</ele>
        <time>2018-11-19T12:50:09Z</time>
      </trkpt>
      <trkpt lat="50.72364" lon="5.46477">
        <ele>132</ele>
        <time>2018-11-19T12:51:09Z</time>
      </trkpt>
      <trkpt lat="50.72342" lon="5.46481">
        <ele>132</ele>
        <time>2018-11-19T12:52:09Z</time>
      </trkpt>
      <trkpt lat="50.72327" lon="5.4648">
        <ele>132</ele>
        <time>2018-11-19T12:53:09Z</time>
      </trkpt>
      <trkpt lat="50.72307" lon="5.46468">
        <ele>132</ele>
        <time>2018-11-19T12:54:09Z</time>
      </trkpt>
      <trkpt lat="50.72294" lon="5.46462">
        <ele>132</ele>
        <time>2018-11-19T12:55:09Z</time>
      </trkpt>
      <trkpt lat="50.72277" lon="5.46456">
        <ele>132</ele>
        <time>2018-11-19T12:56:09Z</time>
      </trkpt>
      <trkpt lat="50.72257" lon="5.46457">
        <ele>132</ele>
        <time>2018-11-19T12:57:09Z</time>
      </trkpt>
      <trkpt lat="50.7224" lon="5.46459">
        <ele>132</ele>
        <time>2018-11-19T12:58:09Z</time>
      </trkpt>
      <trkpt lat="50.72203" lon="5.4646">
        <ele>132</ele>
        <time>2018-11-19T12:59:09Z</time>
      </trkpt>
      <trkpt lat="50.72157" lon="5.4646">
        <ele>132</ele>
        <time>2018-11-19T13:00:09Z</time>
      </trkpt>
      <trkpt lat="50.72131" lon="5.46456">
        <ele>133</ele>
        <time>2018-11-19T13:01:09Z</time>
      </trkpt>
      <trkpt lat="50.72123" lon="5.46457">
        <ele>133</ele>
        <time>2018-11-19T13:02:09Z</time>
      </trkpt>
      <trkpt lat="50.72114" lon="5.46456">
        <ele>133</ele>
        <time>2018-11-19T13:03:09Z</time>
      </trkpt>
      <trkpt lat="50.72095" lon="5.46451">
        <ele>134</ele>
        <time>2018-11-19T13:04:09Z</time>
      </trkpt>
      <trkpt lat="50.72084" lon="5.46449">
        <ele>134</ele>
        <time>2018-11-19T13:05:09Z</time>
      </trkpt>
      <trkpt lat="50.72062" lon="5.46455">
        <ele>134</ele>
        <time>2018-11-19T13:06:09Z</time>
      </trkpt>
      <trkpt lat="50.72036" lon="5.4646">
        <ele>134</ele>
        <time>2018-11-19T13:07:09Z</time>
      </trkpt>
      <trkpt lat="50.72004" lon="5.46463">
        <ele>135</ele>
        <time>2018-11-19T13:08:09Z</time>
      </trkpt>
      <trkpt lat="50.71975" lon="5.46465">
        <ele>135</ele>
        <time>2018-11-19T13:09:09Z</time>
      </trkpt>
      <trkpt lat="50.71963" lon="5.46468">
        <ele>135</ele>
        <time>2018-11-19T13:10:09Z</time>
      </trkpt>
      <trkpt lat="50.71924" lon="5.46484">
        <ele>136</ele>
        <time>2018-11-19T13:11:09Z</time>
      </trkpt>
      <trkpt lat="50.71903" lon="5.46496">
        <ele>137</ele>
        <time>2018-11-19T13:12:09Z</time>
      </trkpt>
      <trkpt lat="50.71876" lon="5.46508">
        <ele>138</ele>
        <time>2018-11-19T13:13:09Z</time>
      </trkpt>
      <trkpt lat="50.71858" lon="5.46516">
        <ele>138</ele>
        <time>2018-11-19T13:14:09Z</time>
      </trkpt>
      <trkpt lat="50.71848" lon="5.46521">
        <ele>139</ele>
        <time>2018-11-19T13:15:09Z</time>
      </trkpt>
      <trkpt lat="50.71841" lon="5.46523">
        <ele>139</ele>
        <time>2018-11-19T13:16:09Z</time>
      </trkpt>
      <trkpt lat="50.71826" lon="5.46525">
        <ele>139</ele>
        <time>2018-11-19T13:17:09Z</time>
      </trkpt>
      <trkpt lat="50.71808" lon="5.4652">
        <ele>140</ele>
        <time>2018-11-19T13:18:09Z</time>
      </trkpt>
      <trkpt lat="50.71784" lon="5.4651">
        <ele>141</ele>
        <time>2018-11-19T13:19:09Z</time>
      </trkpt>
      <trkpt lat="50.71756" lon="5.46495">
        <ele>142</ele>
        <time>2018-11-19T13:20:09Z</time>
      </trkpt>
      <trkpt lat="50.71734" lon="5.46483">
        <ele>142</ele>
        <time>2018-11-19T13:21:09Z</time>
      </trkpt>
      <trkpt lat="50.71725" lon="5.46481">
        <ele>142</ele>
        <time>2018-11-19T13:22:09Z</time>
      </trkpt>
      <trkpt lat="50.71714" lon="5.46478">
        <ele>143</ele>
        <time>2018-11-19T13:23:09Z</time>
      </trkpt>
      <trkpt lat="50.71653" lon="5.46482">
        <ele>144</ele>
        <time>2018-11-19T13:24:09Z</time>
      </trkpt>
      <trkpt lat="50.71611" lon="5.46485">
        <ele>145</ele>
        <time>2018-11-19T13:25:09Z</time>
      </trkpt>
      <trkpt lat="50.71575" lon="5.46489">
        <ele>145</ele>
        <time>2018-11-19T13:26:09Z</time>
      </trkpt>
      <trkpt lat="50.71541" lon="5.46481">
        <ele>143</ele>
        <time>2018-11-19T13:27:09Z</time>
      </trkpt>
      <trkpt lat="50.71494" lon="5.46471">
        <ele>142</ele>
        <time>2018-11-19T13:28:09Z</time>
      </trkpt>
      <trkpt lat="50.71485" lon="5.4647">
        <ele>141</ele>
        <time>2018-11-19T13:29:09Z</time>
      </trkpt>
      <trkpt lat="50.7147" lon="5.46481">
        <ele>141</ele>
        <time>2018-11-19T13:30:09Z</time>
      </trkpt>
      <trkpt lat="50.71444" lon="5.46525">
        <ele>142</ele>
        <time>2018-11-19T13:31:09Z</time>
      </trkpt>
      <trkpt lat="50.7143" lon="5.46549">
        <ele>142</ele>
        <time>2018-11-19T13:32:09Z</time>
      </trkpt>
      <trkpt lat="50.714" lon="5.46517">
        <ele>141</ele>
        <time>2018-11-19T13:33:09Z</time>
      </trkpt>
      <trkpt lat="50.71362" lon="5.46476">
        <ele>141</ele>
        <time>2018-11-19T13:34:09Z</time>
      </trkpt>
      <trkpt lat="50.71325" lon="5.46433">
        <ele>140</ele>
        <time>2018-11-19T13:35:09Z</time>
      </trkpt>
      <trkpt lat="50.71283" lon="5.46378">
        <ele>138</ele>
        <time>2018-11-19T13:36:09Z</time>
      </trkpt>
      <trkpt lat="50.7124" lon="5.46326">
        <ele>135</ele>
        <time>2018-11-19T13:37:09Z</time>
      </trkpt>
      <trkpt lat="50.71171" lon="5.46245">
        <ele>132</ele>
        <time>2018-11-19T13:38:09Z</time>
      </trkpt>
      <trkpt lat="50.71152" lon="5.46223">
        <ele>132</ele>
        <time>2018-11-19T13:39:09Z</time>
      </trkpt>
      <trkpt lat="50.71139" lon="5.46193">
        <ele>132</ele>
        <time>2018-11-19T13:40:09Z</time>
      </trkpt>
      <trkpt lat="50.71121" lon="5.4615">
        <ele>132</ele>
        <time>2018-11-19T13:41:09Z</time>
      </trkpt>
      <trkpt lat="50.7107" lon="5.46031">
        <ele>133</ele>
        <time>2018-11-19T13:42:09Z</time>
      </trkpt>
      <trkpt lat="50.71045" lon="5.45972">
        <ele>134</ele>
        <time>2018-11-19T13:43:09Z</time>
      </trkpt>
      <trkpt lat="50.7103" lon="5.45925">
        <ele>135</ele>
        <time>2018-11-19T13:44:09Z</time>
      </trkpt>
      <trkpt lat="50.71021" lon="5.45892">
        <ele>136</ele>
        <time>2018-11-19T13:45:09Z</time>
      </trkpt>
      <trkpt lat="50.71013" lon="5.45854">
        <ele>137</ele>
        <time>2018-11-19T13:46:09Z</time>
      </trkpt>
      <trkpt lat="50.71005" lon="5.45829">
        <ele>137</ele>
        <time>2018-11-19T13:47:09Z</time>
      </trkpt>
      <trkpt lat="50.70998" lon="5.45806">
        <ele>137</ele>
        <time>2018-11-19T13:48:09Z</time>
      </trkpt>
      <trkpt lat="50.70989" lon="5.45789">
        <ele>138</ele>
        <time>2018-11-19T13:49:09Z</time>
      </trkpt>
      <trkpt lat="50.70981" lon="5.45774">
        <ele>138</ele>
        <time>2018-11-19T13:50:09Z</time>
      </trkpt>
      <trkpt lat="50.70967" lon="5.45755">
        <ele>138</ele>
        <time>2018-11-19T13:51:09Z</time>
      </trkpt>
      <trkpt lat="50.70931" lon="5.45711">
        <ele>139</ele>
        <time>2018-11-19T13:52:09Z</time>
      </trkpt>
      <trkpt lat="50.70883" lon="5.45664">
        <ele>139</ele>
        <time>2018-11-19T13:53:09Z</time>
      </trkpt>
      <trkpt lat="50.70861" lon="5.45643">
        <ele>138</ele>
        <time>2018-11-19T13:54:09Z</time>
      </trkpt>
      <trkpt lat="50.7083" lon="5.45622">
        <ele>137</ele>
        <time>2018-11-19T13:55:09Z</time>
      </trkpt>
      <trkpt lat="50.70773" lon="5.45581">
        <ele>137</ele>
        <time>2018-11-19T13:56:09Z</time>
      </trkpt>
      <trkpt lat="50.70746" lon="5.45561">
        <ele>137</ele>
        <time>2018-11-19T13:57:09Z</time>
      </trkpt>
      <trkpt lat="50.70716" lon="5.4554">
        <ele>137</ele>
        <time>2018-11-19T13:58:09Z</time>
      </trkpt>
      <trkpt lat="50.70686" lon="5.45518">
        <ele>137</ele>
        <time>2018-11-19T13:59:09Z</time>
      </trkpt>
      <trkpt lat="50.70651" lon="5.45502">
        <ele>136</ele>
        <time>2018-11-19T14:00:09Z</time>
      </trkpt>
      <trkpt lat="50.70615" lon="5.45492">
        <ele>137</ele>
        <time>2018-11-19T14:01:09Z</time>
      </trkpt>
      <trkpt lat="50.70585" lon="5.45483">
        <ele>138</ele>
        <time>2018-11-19T14:02:09Z</time>
      </trkpt>
      <trkpt lat="50.70568" lon="5.45464">
        <ele>139</ele>
        <time>2018-11-19T14:03:09Z</time>
      </trkpt>
      <trkpt lat="50.70536" lon="5.45393">
        <ele>139</ele>
        <time>2018-11-19T14:04:09Z</time>
      </trkpt>
      <trkpt lat="50.70501" lon="5.45317">
        <ele>139</ele>
        <time>2018-11-19T14:05:09Z</time>
      </trkpt>
      <trkpt lat="50.7048" lon="5.45269">
        <ele>140</ele>
        <time>2018-11-19T14:06:09Z</time>
      </trkpt>
      <trkpt lat="50.70463" lon="5.45233">
        <ele>141</ele>
        <time>2018-11-19T14:07:09Z</time>
      </trkpt>
      <trkpt lat="50.70443" lon="5.45199">
        <ele>141</ele>
        <time>2018-11-19T14:08:09Z</time>
      </trkpt>
      <trkpt lat="50.70433" lon="5.45182">
        <ele>142</ele>
        <time>2018-11-19T14:09:09Z</time>
      </trkpt>
      <trkpt lat="50.70405" lon="5.45136">
        <ele>143</ele>
        <time>2018-11-19T14:10:09Z</time>
      </trkpt>
      <trkpt lat="50.70372" lon="5.45077">
        <ele>145</ele>
        <time>2018-11-19T14:11:09Z</time>
      </trkpt>
      <trkpt lat="50.70358" lon="5.45053">
        <ele>145</ele>
        <time>2018-11-19T14:12:09Z</time>
      </trkpt>
      <trkpt lat="50.70353" lon="5.4504">
        <ele>146</ele>
        <time>2018-11-19T14:13:09Z</time>
      </trkpt>
      <trkpt lat="50.70348" lon="5.45025">
        <ele>146</ele>
        <time>2018-11-19T14:14:09Z</time>
      </trkpt>
      <trkpt lat="50.70344" lon="5.45004">
        <ele>147</ele>
        <time>2018-11-19T14:15:09Z</time>
      </trkpt>
      <trkpt lat="50.7034" lon="5.44984">
        <ele>146</ele>
        <time>2018-11-19T14:16:09Z</time>
      </trkpt>
      <trkpt lat="50.70334" lon="5.44972">
        <ele>146</ele>
        <time>2018-11-19T14:17:09Z</time>
      </trkpt>
      <trkpt lat="50.70317" lon="5.4494">
        <ele>145</ele>
        <time>2018-11-19T14:18:09Z</time>
      </trkpt>
      <trkpt lat="50.70301" lon="5.44902">
        <ele>145</ele>
        <time>2018-11-19T14:19:09Z</time>
      </trkpt>
      <trkpt lat="50.70287" lon="5.44868">
        <ele>144</ele>
        <time>2018-11-19T14:20:09Z</time>
      </trkpt>
      <trkpt lat="50.70276" lon="5.44835">
        <ele>144</ele>
        <time>2018-11-19T14:21:09Z</time>
      </trkpt>
      <trkpt lat="50.70259" lon="5.44787">
        <ele>144</ele>
        <time>2018-11-19T14:22:09Z</time>
      </trkpt>
      <trkpt lat="50.70241" lon="5.44734">
        <ele>143</ele>
        <time>2018-11-19T14:23:09Z</time>
      </trkpt>
      <trkpt lat="50.70229" lon="5.44697">
        <ele>142</ele>
        <time>2018-11-19T14:24:09Z</time>
      </trkpt>
      <trkpt lat="50.7022" lon="5.44674">
        <ele>141</ele>
        <time>2018-11-19T14:25:09Z</time>
      </trkpt>
      <trkpt lat="50.70218" lon="5.4467">
        <ele>141</ele>
        <time>2018-11-19T14:26:09Z</time>
      </trkpt>
      <trkpt lat="50.70212" lon="5.44674">
        <ele>141</ele>
        <time>2018-11-19T14:27:09Z</time>
      </trkpt>
      <trkpt lat="50.70192" lon="5.44685">
        <ele>141</ele>
        <time>2018-11-19T14:28:09Z</time>
      </trkpt>
      <trkpt lat="50.70181" lon="5.44686">
        <ele>141</ele>
        <time>2018-11-19T14:29:09Z</time>
      </trkpt>
      <trkpt lat="50.70183" lon="5.44649">
        <ele>140</ele>
        <time>2018-11-19T14:30:09Z</time>
      </trkpt>
      <trkpt lat="50.70188" lon="5.44555">
        <ele>140</ele>
        <time>2018-11-19T14:31:09Z</time>
      </trkpt>
      <trkpt lat="50.70191" lon="5.44497">
        <ele>140</ele>
        <time>2018-11-19T14:32:09Z</time>
      </trkpt>
      <trkpt lat="50.70189" lon="5.44463">
        <ele>140</ele>
        <time>2018-11-19T14:33:09Z</time>
      </trkpt>
      <trkpt lat="50.70173" lon="5.44369">
        <ele>139</ele>
        <time>2018-11-19T14:34:09Z</time>
      </trkpt>
      <trkpt lat="50.70161" lon="5.44305">
        <ele>137</ele>
        <time>2018-11-19T14:35:09Z</time>
      </trkpt>
      <trkpt lat="50.70149" lon="5.44233">
        <ele>136</ele>
        <time>2018-11-19T14:36:09Z</time>
      </trkpt>
      <trkpt lat="50.70143" lon="5.44187">
        <ele>135</ele>
        <time>2018-11-19T14:37:09Z</time>
      </trkpt>
      <trkpt lat="50.70141" lon="5.44148">
        <ele>135</ele>
        <time>2018-11-19T14:38:09Z</time>
      </trkpt>
      <trkpt lat="50.70145" lon="5.44091">
        <ele>135</ele>
        <time>2018-11-19T14:39:09Z</time>
      </trkpt>
      <trkpt lat="50.70153" lon="5.44012">
        <ele>135</ele>
        <time>2018-11-19T14:40:09Z</time>
      </trkpt>
      <trkpt lat="50.70132" lon="5.44006">
        <ele>136</ele>
        <time>2018-11-19T14:41:09Z</time>
      </trkpt>
      <trkpt lat="50.70081" lon="5.43991">
        <ele>138</ele>
        <time>2018-11-19T14:42:09Z</time>
      </trkpt>
      <trkpt lat="50.7006" lon="5.43985">
        <ele>138</ele>
        <time>2018-11-19T14:43:09Z</time>
      </trkpt>
      <trkpt lat="50.70011" lon="5.43977">
        <ele>138</ele>
        <time>2018-11-19T14:44:09Z</time>
      </trkpt>
      <trkpt lat="50.69929" lon="5.43966">
        <ele>140</ele>
        <time>2018-11-19T14:45:09Z</time>
      </trkpt>
      <trkpt lat="50.69858" lon="5.43957">
        <ele>141</ele>
        <time>2018-11-19T14:46:09Z</time>
      </trkpt>
      <trkpt lat="50.69825" lon="5.43946">
        <ele>141</ele>
        <time>2018-11-19T14:47:09Z</time>
      </trkpt>
      <trkpt lat="50.69759" lon="5.43914">
        <ele>142</ele>
        <time>2018-11-19T14:48:09Z</time>
      </trkpt>
      <trkpt lat="50.69722" lon="5.43897">
        <ele>143</ele>
        <time>2018-11-19T14:49:09Z</time>
      </trkpt>
      <trkpt lat="50.69584" lon="5.43834">
        <ele>145</ele>
        <time>2018-11-19T14:50:09Z</time>
      </trkpt>
      <trkpt lat="50.69542" lon="5.43814">
        <ele>144</ele>
        <time>2018-11-19T14:51:09Z</time>
      </trkpt>
      <trkpt lat="50.69524" lon="5.4381">
        <ele>144</ele>
        <time>2018-11-19T14:52:09Z</time>
      </trkpt>
      <trkpt lat="50.69493" lon="5.43814">
        <ele>144</ele>
        <time>2018-11-19T14:53:09Z</time>
      </trkpt>
      <trkpt lat="50.69462" lon="5.4382">
        <ele>143</ele>
        <time>2018-11-19T14:54:09Z</time>
      </trkpt>
      <trkpt lat="50.69433" lon="5.43825">
        <ele>142</ele>
        <time>2018-11-19T14:55:09Z</time>
      </trkpt>
      <trkpt lat="50.69389" lon="5.43833">
        <ele>142</ele>
        <time>2018-11-19T14:56:09Z</time>
      </trkpt>
      <trkpt lat="50.69367" lon="5.43837">
        <ele>143</ele>
        <time>2018-11-19T14:57:09Z</time>
      </trkpt>
      <trkpt lat="50.69338" lon="5.43842">
        <ele>143</ele>
        <time>2018-11-19T14:58:09Z</time>
      </trkpt>
      <trkpt lat="50.69322" lon="5.43837">
        <ele>143</ele>
        <time>2018-11-19T14:59:09Z</time>
      </trkpt>
      <trkpt lat="50.69303" lon="5.43832">
        <ele>143</ele>
        <time>2018-11-19T15:00:09Z</time>
      </trkpt>
      <trkpt lat="50.69286" lon="5.43826">
        <ele>144</ele>
        <time>2018-11-19T15:01:09Z</time>
      </trkpt>
      <trkpt lat="50.69222" lon="5.4379">
        <ele>144</ele>
        <time>2018-11-19T15:02:09Z</time>
      </trkpt>
      <trkpt lat="50.69136" lon="5.43742">
        <ele>144</ele>
        <time>2018-11-19T15:03:09Z</time>
      </trkpt>
      <trkpt lat="50.69094" lon="5.43722">
        <ele>144</ele>
        <time>2018-11-19T15:04:09Z</time>
      </trkpt>
      <trkpt lat="50.69054" lon="5.43702">
        <ele>145</ele>
        <time>2018-11-19T15:05:09Z</time>
      </trkpt>
      <trkpt lat="50.69005" lon="5.43682">
        <ele>145</ele>
        <time>2018-11-19T15:06:09Z</time>
      </trkpt>
      <trkpt lat="50.68946" lon="5.43668">
        <ele>146</ele>
        <time>2018-11-19T15:07:09Z</time>
      </trkpt>
      <trkpt lat="50.68911" lon="5.4366">
        <ele>146</ele>
        <time>2018-11-19T15:08:09Z</time>
      </trkpt>
      <trkpt lat="50.68852" lon="5.43646">
        <ele>146</ele>
        <time>2018-11-19T15:09:09Z</time>
      </trkpt>
      <trkpt lat="50.68683" lon="5.43605">
        <ele>146</ele>
        <time>2018-11-19T15:10:09Z</time>
      </trkpt>
      <trkpt lat="50.68588" lon="5.43584">
        <ele>146</ele>
        <time>2018-11-19T15:11:09Z</time>
      </trkpt>
      <trkpt lat="50.68526" lon="5.4357">
        <ele>146</ele>
        <time>2018-11-19T15:12:09Z</time>
      </trkpt>
      <trkpt lat="50.68463" lon="5.43553">
        <ele>146</ele>
        <time>2018-11-19T15:13:09Z</time>
      </trkpt>
      <trkpt lat="50.6843" lon="5.43545">
        <ele>146</ele>
        <time>2018-11-19T15:14:09Z</time>
      </trkpt>
      <trkpt lat="50.68403" lon="5.43532">
        <ele>147</ele>
        <time>2018-11-19T15:15:09Z</time>
      </trkpt>
      <trkpt lat="50.68363" lon="5.43517">
        <ele>149</ele>
        <time>2018-11-19T15:16:09Z</time>
      </trkpt>
      <trkpt lat="50.68328" lon="5.43499">
        <ele>150</ele>
        <time>2018-11-19T15:17:09Z</time>
      </trkpt>
      <trkpt lat="50.6829" lon="5.43477">
        <ele>149</ele>
        <time>2018-11-19T15:18:09Z</time>
      </trkpt>
      <trkpt lat="50.68234" lon="5.43447">
        <ele>148</ele>
        <time>2018-11-19T15:19:09Z</time>
      </trkpt>
      <trkpt lat="50.68214" lon="5.43438">
        <ele>148</ele>
        <time>2018-11-19T15:20:09Z</time>
      </trkpt>
      <trkpt lat="50.68197" lon="5.43442">
        <ele>148</ele>
        <time>2018-11-19T15:21:09Z</time>
      </trkpt>
      <trkpt lat="50.6819" lon="5.43456">
        <ele>148</ele>
        <time>2018-11-19T15:22:09Z</time>
      </trkpt>
      <trkpt lat="50.68181" lon="5.43471">
        <ele>148</ele>
        <time>2018-11-19T15:23:09Z</time>
      </trkpt>
      <trkpt lat="50.6817" lon="5.43486">
        <ele>148</ele>
        <time>2018-11-19T15:24:09Z</time>
      </trkpt>
      <trkpt lat="50.68143" lon="5.43529">
        <ele>148</ele>
        <time>2018-11-19T15:25:09Z</time>
      </trkpt>
      <trkpt lat="50.68121" lon="5.43563">
        <ele>149</ele>
        <time>2018-11-19T15:26:09Z</time>
      </trkpt>
      <trkpt lat="50.68111" lon="5.43579">
        <ele>149</ele>
        <time>2018-11-19T15:27:09Z</time>
      </trkpt>
      <trkpt lat="50.68101" lon="5.43602">
        <ele>149</ele>
        <time>2018-11-19T15:28:09Z</time>
      </trkpt>
      <trkpt lat="50.68086" lon="5.43634">
        <ele>150</ele>
        <time>2018-11-19T15:29:09Z</time>
      </trkpt>
      <trkpt lat="50.68071" lon="5.43671">
        <ele>151</ele>
        <time>2018-11-19T15:30:09Z</time>
      </trkpt>
      <trkpt lat="50.68055" lon="5.43696">
        <ele>152</ele>
        <time>2018-11-19T15:31:09Z</time>
      </trkpt>
      <trkpt lat="50.68019" lon="5.43727">
        <ele>153</ele>
        <time>2018-11-19T15:32:09Z</time>
      </trkpt>
      <trkpt lat="50.68" lon="5.43743">
        <ele>153</ele>
        <time>2018-11-19T15:33:09Z</time>
      </trkpt>
      <trkpt lat="50.67973" lon="5.43739">
        <ele>154</ele>
        <time>2018-11-19T15:34:09Z</time>
      </trkpt>
      <trkpt lat="50.67958" lon="5.43727">
        <ele>154</ele>
        <time>2018-11-19T15:35:09Z</time>
      </trkpt>
      <trkpt lat="50.67946" lon="5.43718">
        <ele>154</ele>
        <time>2018-11-19T15:36:09Z</time>
      </trkpt>
      <trkpt lat="50.67925" lon="5.43717">
        <ele>155</ele>
        <time>2018-11-19T15:37:09Z</time>
      </trkpt>
      <trkpt lat="50.67909" lon="5.43735">
        <ele>155</ele>
        <time>2018-11-19T15:38:09Z</time>
      </trkpt>
      <trkpt lat="50.67891" lon="5.43766">
        <ele>156</ele>
        <time>2018-11-19T15:39:09Z</time>
      </trkpt>
      <trkpt lat="50.67871" lon="5.43804">
        <ele>156</ele>
        <time>2018-11-19T15:40:09Z</time>
      </trkpt>
      <trkpt lat="50.67854" lon="5.43815">
        <ele>156</ele>
        <time>2018-11-19T15:41:09Z</time>
      </trkpt>
      <trkpt lat="50.67839" lon="5.43818">
        <ele>156</ele>
        <time>2018-11-19T15:42:09Z</time>
      </trkpt>
      <trkpt lat="50.67815" lon="5.43807">
        <ele>156</ele>
        <time>2018-11-19T15:43:09Z</time>
      </trkpt>
      <trkpt lat="50.67797" lon="5.43793">
        <ele>156</ele>
        <time>2018-11-19T15:44:09Z</time>
      </trkpt>
      <trkpt lat="50.67678" lon="5.43679">
        <ele>154</ele>
        <time>2018-11-19T15:45:09Z</time>
      </trkpt>
      <trkpt lat="50.67608" lon="5.4361">
        <ele>154</ele>
        <time>2018-11-19T15:46:09Z</time>
      </trkpt>
      <trkpt lat="50.676" lon="5.43605">
        <ele>154</ele>
        <time>2018-11-19T15:47:09Z</time>
      </trkpt>
      <trkpt lat="50.67589" lon="5.43611">
        <ele>154</ele>
        <time>2018-11-19T15:48:09Z</time>
      </trkpt>
      <trkpt lat="50.67574" lon="5.43605">
        <ele>154</ele>
        <time>2018-11-19T15:49:09Z</time>
      </trkpt>
      <trkpt lat="50.67556" lon="5.43599">
        <ele>154</ele>
        <time>2018-11-19T15:50:09Z</time>
      </trkpt>
      <trkpt lat="50.67536" lon="5.43592">
        <ele>155</ele>
        <time>2018-11-19T15:51:09Z</time>
      </trkpt>
      <trkpt lat="50.67514" lon="5.43585">
        <ele>155</ele>
        <time>2018-11-19T15:52:09Z</time>
      </trkpt>
      <trkpt lat="50.67487" lon="5.43575">
        <ele>155</ele>
        <time>2018-11-19T15:53:09Z</time>
      </trkpt>
      <trkpt lat="50.67441" lon="5.43561">
        <ele>156</ele>
        <time>2018-11-19T15:54:09Z</time>
      </trkpt>
      <trkpt lat="50.67379" lon="5.4354">
        <ele>156</ele>
        <time>2018-11-19T15:55:09Z</time>
      </trkpt>
      <trkpt lat="50.67345" lon="5.43528">
        <ele>157</ele>
        <time>2018-11-19T15:56:09Z</time>
      </trkpt>
      <trkpt lat="50.67256" lon="5.43508">
        <ele>155</ele>
        <time>2018-11-19T15:57:09Z</time>
      </trkpt>
      <trkpt lat="50.67221" lon="5.435">
        <ele>154</ele>
        <time>2018-11-19T15:58:09Z</time>
      </trkpt>
      <trkpt lat="50.67199" lon="5.43493">
        <ele>153</ele>
        <time>2018-11-19T15:59:09Z</time>
      </trkpt>
      <trkpt lat="50.67161" lon="5.43479">
        <ele>152</ele>
        <time>2018-11-19T16:00:09Z</time>
      </trkpt>
      <trkpt lat="50.67142" lon="5.43465">
        <ele>153</ele>
        <time>2018-11-19T16:01:09Z</time>
      </trkpt>
      <trkpt lat="50.67106" lon="5.43437">
        <ele>153</ele>
        <time>2018-11-19T16:02:09Z</time>
      </trkpt>
      <trkpt lat="50.67083" lon="5.43419">
        <ele>153</ele>
        <time>2018-11-19T16:03:09Z</time>
      </trkpt>
      <trkpt lat="50.6704" lon="5.43389">
        <ele>153</ele>
        <time>2018-11-19T16:04:09Z</time>
      </trkpt>
      <trkpt lat="50.67024" lon="5.43376">
        <ele>153</ele>
        <time>2018-11-19T16:05:09Z</time>
      </trkpt>
      <trkpt lat="50.6699" lon="5.43355">
        <ele>152</ele>
        <time>2018-11-19T16:06:09Z</time>
      </trkpt>
      <trkpt lat="50.66942" lon="5.43329">
        <ele>153</ele>
        <time>2018-11-19T16:07:09Z</time>
      </trkpt>
      <trkpt lat="50.66904" lon="5.43322">
        <ele>153</ele>
        <time>2018-11-19T16:08:09Z</time>
      </trkpt>
      <trkpt lat="50.66854" lon="5.43318">
        <ele>154</ele>
        <time>2018-11-19T16:09:09Z</time>
      </trkpt>
      <trkpt lat="50.66835" lon="5.43319">
        <ele>155</ele>
        <time>2018-11-19T16:10:09Z</time>
      </trkpt>
      <trkpt lat="50.66812" lon="5.43319">
        <ele>155</ele>
        <time>2018-11-19T16:11:09Z</time>
      </trkpt>
      <trkpt lat="50.66789" lon="5.43311">
        <ele>155</ele>
        <time>2018-11-19T16:12:09Z</time>
      </trkpt>
      <trkpt lat="50.66762" lon="5.43298">
        <ele>156</ele>
        <time>2018-11-19T16:13:09Z</time>
      </trkpt>
      <trkpt lat="50.66743" lon="5.4329">
        <ele>156</ele>
        <time>2018-11-19T16:14:09Z</time>
      </trkpt>
      <trkpt lat="50.66731" lon="5.43284">
        <ele>156</ele>
        <time>2018-11-19T16:15:09Z</time>
      </trkpt>
      <trkpt lat="50.66713" lon="5.43275">
        <ele>156</ele>
        <time>2018-11-19T16:16:09Z</time>
      </trkpt>
      <trkpt lat="50.66646" lon="5.43245">
        <ele>157</ele>
        <time>2018-11-19T16:17:09Z</time>
      </trkpt>
      <trkpt lat="50.66568" lon="5.43213">
        <ele>157</ele>
        <time>2018-11-19T16:18:09Z</time>
      </trkpt>
      <trkpt lat="50.66529" lon="5.43197">
        <ele>158</ele>
        <time>2018-11-19T16:19:09Z</time>
      </trkpt>
      <trkpt lat="50.66504" lon="5.43186">
        <ele>158</ele>
        <time>2018-11-19T16:20:09Z</time>
      </trkpt>
      <trkpt lat="50.66474" lon="5.43172">
        <ele>157</ele>
        <time>2018-11-19T16:21:09Z</time>
      </trkpt>
      <trkpt lat="50.66444" lon="5.43157">
        <ele>156</ele>
        <time>2018-11-19T16:22:09Z</time>
      </trkpt>
      <trkpt lat="50.66401" lon="5.43138">
        <ele>155</ele>
        <time>2018-11-19T16:23:09Z</time>
      </trkpt>
      <trkpt lat="50.66344" lon="5.43129">
        <ele>154</ele>
        <time>2018-11-19T16:24:09Z</time>
      </trkpt>
      <trkpt lat="50.66284" lon="5.43143">
        <ele>155</ele>
        <time>2018-11-19T16:25:09Z</time>
      </trkpt>
      <trkpt lat="50.66243" lon="5.43164">
        <ele>156</ele>
        <time>2018-11-19T16:26:09Z</time>
      </trkpt>
      <trkpt lat="50.66215" lon="5.43171">
        <ele>157</ele>
        <time>2018-11-19T16:27:09Z</time>
      </trkpt>
      <trkpt lat="50.66179" lon="5.43172">
        <ele>158</ele>
        <time>2018-11-19T16:28:09Z</time>
      </trkpt>
      <trkpt lat="50.66129" lon="5.43155">
        <ele>160</ele>
        <time>2018-11-19T16:29:09Z</time>
      </trkpt>
      <trkpt lat="50.66088" lon="5.4314">
        <ele>161</ele>
        <time>2018-11-19T16:30:09Z</time>
      </trkpt>
      <trkpt lat="50.66036" lon="5.4312">
        <ele>160</ele>
        <time>2018-11-19T16:31:09Z</time>
      </trkpt>
      <trkpt lat="50.66014" lon="5.43113">
        <ele>160</ele>
        <time>2018-11-19T16:32:09Z</time>
      </trkpt>
      <trkpt lat="50.65996" lon="5.43115">
        <ele>160</ele>
        <time>2018-11-19T16:33:09Z</time>
      </trkpt>
      <trkpt lat="50.65974" lon="5.43117">
        <ele>161</ele>
        <time>2018-11-19T16:34:09Z</time>
      </trkpt>
      <trkpt lat="50.65963" lon="5.43119">
        <ele>161</ele>
        <time>2018-11-19T16:35:09Z</time>
      </trkpt>
      <trkpt lat="50.65953" lon="5.43116">
        <ele>162</ele>
        <time>2018-11-19T16:36:09Z</time>
      </trkpt>
      <trkpt lat="50.65921" lon="5.431">
        <ele>164</ele>
        <time>2018-11-19T16:37:09Z</time>
      </trkpt>
      <trkpt lat="50.65883" lon="5.43083">
        <ele>164</ele>
        <time>2018-11-19T16:38:09Z</time>
      </trkpt>
      <trkpt lat="50.65861" lon="5.43073">
        <ele>163</ele>
        <time>2018-11-19T16:39:09Z</time>
      </trkpt>
      <trkpt lat="50.65826" lon="5.43057">
        <ele>163</ele>
        <time>2018-11-19T16:40:09Z</time>
      </trkpt>
      <trkpt lat="50.65801" lon="5.43048">
        <ele>163</ele>
        <time>2018-11-19T16:41:09Z</time>
      </trkpt>
      <trkpt lat="50.65752" lon="5.43032">
        <ele>162</ele>
        <time>2018-11-19T16:42:09Z</time>
      </trkpt>
      <trkpt lat="50.65718" lon="5.43021">
        <ele>162</ele>
        <time>2018-11-19T16:43:09Z</time>
      </trkpt>
      <trkpt lat="50.65676" lon="5.43006">
        <ele>163</ele>
        <time>2018-11-19T16:44:09Z</time>
      </trkpt>
      <trkpt lat="50.65625" lon="5.42983">
        <ele>163</ele>
        <time>2018-11-19T16:45:09Z</time>
      </trkpt>
      <trkpt lat="50.65577" lon="5.42954">
        <ele>162</ele>
        <time>2018-11-19T16:46:09Z</time>
      </trkpt>
      <trkpt lat="50.65523" lon="5.42928">
        <ele>163</ele>
        <time>2018-11-19T16:47:09Z</time>
      </trkpt>
      <trkpt lat="50.65484" lon="5.42911">
        <ele>164</ele>
        <time>2018-11-19T16:48:09Z</time>
      </trkpt>
      <trkpt lat="50.65473" lon="5.42907">
        <ele>163</ele>
        <time>2018-11-19T16:49:09Z</time>
      </trkpt>
      <trkpt lat="50.65456" lon="5.42903">
        <ele>163</ele>
        <time>2018-11-19T16:50:09Z</time>
      </trkpt>
      <trkpt lat="50.65436" lon="5.42897">
        <ele>163</ele>
        <time>2018-11-19T16:51:09Z</time>
      </trkpt>
      <trkpt lat="50.65385" lon="5.42904">
        <ele>162</ele>
        <time>2018-11-19T16:52:09Z</time>
      </trkpt>
      <trkpt lat="50.65347" lon="5.42903">
        <ele>162</ele>
        <time>2018-11-19T16:53:09Z</time>
      </trkpt>
      <trkpt lat="50.65312" lon="5.42896">
        <ele>162</ele>
        <time>2018-11-19T16:54:09Z</time>
      </trkpt>
      <trkpt lat="50.65284" lon="5.42888">
        <ele>162</ele>
        <time>2018-11-19T16:55:09Z</time>
      </trkpt>
      <trkpt lat="50.65252" lon="5.4289">
        <ele>162</ele>
        <time>2018-11-19T16:56:09Z</time>
      </trkpt>
      <trkpt lat="50.65211" lon="5.4289">
        <ele>162</ele>
        <time>2018-11-19T16:57:09Z</time>
      </trkpt>
      <trkpt lat="50.65158" lon="5.42874">
        <ele>162</ele>
        <time>2018-11-19T16:58:09Z</time>
      </trkpt>
      <trkpt lat="50.65126" lon="5.42867">
        <ele>162</ele>
        <time>2018-11-19T16:59:09Z</time>
      </trkpt>
      <trkpt lat="50.65097" lon="5.42859">
        <ele>163</ele>
        <time>2018-11-19T17:00:09Z</time>
      </trkpt>
      <trkpt lat="50.65077" lon="5.42848">
        <ele>163</ele>
        <time>2018-11-19T17:01:09Z</time>
      </trkpt>
      <trkpt lat="50.65028" lon="5.4282">
        <ele>164</ele>
        <time>2018-11-19T17:02:09Z</time>
      </trkpt>
      <trkpt lat="50.6498" lon="5.42799">
        <ele>164</ele>
        <time>2018-11-19T17:03:09Z</time>
      </trkpt>
      <trkpt lat="50.64969" lon="5.42797">
        <ele>164</ele>
        <time>2018-11-19T17:04:09Z</time>
      </trkpt>
      <trkpt lat="50.64934" lon="5.42803">
        <ele>164</ele>
        <time>2018-11-19T17:05:09Z</time>
      </trkpt>
      <trkpt lat="50.64912" lon="5.42805">
        <ele>164</ele>
        <time>2018-11-19T17:06:09Z</time>
      </trkpt>
      <trkpt lat="50.64885" lon="5.42801">
        <ele>164</ele>
        <time>2018-11-19T17:07:09Z</time>
      </trkpt>
      <trkpt lat="50.64834" lon="5.42795">
        <ele>164</ele>
        <time>2018-11-19T17:08:09Z</time>
      </trkpt>
      <trkpt lat="50.6481" lon="5.42787">
        <ele>165</ele>
        <time>2018-11-19T17:09:09Z</time>
      </trkpt>
      <trkpt lat="50.64784" lon="5.42779">
        <ele>165</ele>
        <time>2018-11-19T17:10:09Z</time>
      </trkpt>
      <trkpt lat="50.64769" lon="5.42771">
        <ele>166</ele>
        <time>2018-11-19T17:11:09Z</time>
      </trkpt>
      <trkpt lat="50.64738" lon="5.42744">
        <ele>166</ele>
        <time>2018-11-19T17:12:09Z</time>
      </trkpt>
      <trkpt lat="50.6472" lon="5.42724">
        <ele>167</ele>
        <time>2018-11-19T17:13:09Z</time>
      </trkpt>
      <trkpt lat="50.64703" lon="5.42703">
        <ele>168</ele>
        <time>2018-11-19T17:14:09Z</time>
      </trkpt>
      <trkpt lat="50.64686" lon="5.42724">
        <ele>167</ele>
        <time>2018-11-19T17:15:09Z</time>
      </trkpt>
      <trkpt lat="50.64675" lon="5.42738">
        <ele>167</ele>
        <time>2018-11-19T17:16:09Z</time>
      </trkpt>
      <trkpt lat="50.64663" lon="5.42754">
        <ele>167</ele>
        <time>2018-11-19T17:17:09Z</time>
      </trkpt>
      <trkpt lat="50.64655" lon="5.42757">
        <ele>167</ele>
        <time>2018-11-19T17:18:09Z</time>
      </trkpt>
      <trkpt lat="50.64647" lon="5.42754">
        <ele>167</ele>
        <time>2018-11-19T17:19:09Z</time>
      </trkpt>
      <trkpt lat="50.64638" lon="5.42743">
        <ele>168</ele>
        <time>2018-11-19T17:20:09Z</time>
      </trkpt>
      <trkpt lat="50.6463" lon="5.42733">
        <ele>168</ele>
        <time>2018-11-19T17:21:09Z</time>
      </trkpt>
      <trkpt lat="50.646" lon="5.42689">
        <ele>169</ele>
        <time>2018-11-19T17:22:09Z</time>
      </trkpt>
      <trkpt lat="50.64578" lon="5.42661">
        <ele>169</ele>
        <time>2018-11-19T17:23:09Z</time>
      </trkpt>
      <trkpt lat="50.64552" lon="5.42635">
        <ele>170</ele>
        <time>2018-11-19T17:24:09Z</time>
      </trkpt>
      <trkpt lat="50.64521" lon="5.4261">
        <ele>171</ele>
        <time>2018-11-19T17:25:09Z</time>
      </trkpt>
      <trkpt lat="50.64477" lon="5.42583">
        <ele>172</ele>
        <time>2018-11-19T17:26:09Z</time>
      </trkpt>
      <trkpt lat="50.64445" lon="5.42562">
        <ele>172</ele>
        <time>2018-11-19T17:27:09Z</time>
      </trkpt>
      <trkpt lat="50.64423" lon="5.42551">
        <ele>173</ele>
        <time>2018-11-19T17:28:09Z</time>
      </trkpt>
      <trkpt lat="50.64407" lon="5.42549">
        <ele>173</ele>
        <time>2018-11-19T17:29:09Z</time>
      </trkpt>
      <trkpt lat="50.6439" lon="5.42549">
        <ele>173</ele>
        <time>2018-11-19T17:30:09Z</time>
      </trkpt>
      <trkpt lat="50.64371" lon="5.42549">
        <ele>172</ele>
        <time>2018-11-19T17:31:09Z</time>
      </trkpt>
      <trkpt lat="50.64358" lon="5.42542">
        <ele>172</ele>
        <time>2018-11-19T17:32:09Z</time>
      </trkpt>
      <trkpt lat="50.64349" lon="5.42529">
        <ele>173</ele>
        <time>2018-11-19T17:33:09Z</time>
      </trkpt>
      <trkpt lat="50.64333" lon="5.42507">
        <ele>173</ele>
        <time>2018-11-19T17:34:09Z</time>
      </trkpt>
      <trkpt lat="50.6431" lon="5.42473">
        <ele>174</ele>
        <time>2018-11-19T17:35:09Z</time>
      </trkpt>
      <trkpt lat="50.64293" lon="5.42447">
        <ele>175</ele>
        <time>2018-11-19T17:36:09Z</time>
      </trkpt>
      <trkpt lat="50.64279" lon="5.4246">
        <ele>175</ele>
        <time>2018-11-19T17:37:09Z</time>
      </trkpt>
      <trkpt lat="50.64246" lon="5.42505">
        <ele>175</ele>
        <time>2018-11-19T17:38:09Z</time>
      </trkpt>
      <trkpt lat="50.64215" lon="5.42545">
        <ele>176</ele>
        <time>2018-11-19T17:39:09Z</time>
      </trkpt>
      <trkpt lat="50.6418" lon="5.42594">
        <ele>179</ele>
        <time>2018-11-19T17:40:09Z</time>
      </trkpt>
      <trkpt lat="50.64129" lon="5.4266">
        <ele>180</ele>
        <time>2018-11-19T17:41:09Z</time>
      </trkpt>
      <trkpt lat="50.64106" lon="5.42688">
        <ele>181</ele>
        <time>2018-11-19T17:42:09Z</time>
      </trkpt>
      <trkpt lat="50.6406" lon="5.42741">
        <ele>183</ele>
        <time>2018-11-19T17:43:09Z</time>
      </trkpt>
      <trkpt lat="50.64049" lon="5.42754">
        <ele>183</ele>
        <time>2018-11-19T17:44:09Z</time>
      </trkpt>
      <trkpt lat="50.64037" lon="5.4277">
        <ele>183</ele>
        <time>2018-11-19T17:45:09Z</time>
      </trkpt>
      <trkpt lat="50.64026" lon="5.42778">
        <ele>184</ele>
        <time>2018-11-19T17:46:09Z</time>
      </trkpt>
      <trkpt lat="50.64013" lon="5.42776">
        <ele>184</ele>
        <time>2018-11-19T17:47:09Z</time>
      </trkpt>
      <trkpt lat="50.64004" lon="5.42766">
        <ele>184</ele>
        <time>2018-11-19T17:48:09Z</time>
      </trkpt>
      <trkpt lat="50.63992" lon="5.42747">
        <ele>184</ele>
        <time>2018-11-19T17:49:09Z</time>
      </trkpt>
      <trkpt lat="50.63984" lon="5.42734">
        <ele>184</ele>
        <time>2018-11-19T17:50:09Z</time>
      </trkpt>
      <trkpt lat="50.63948" lon="5.4267">
        <ele>184</ele>
        <time>2018-11-19T17:51:09Z</time>
      </trkpt>
      <trkpt lat="50.63935" lon="5.42647">
        <ele>184</ele>
        <time>2018-11-19T17:52:09Z</time>
      </trkpt>
      <trkpt lat="50.63923" lon="5.42632">
        <ele>184</ele>
        <time>2018-11-19T17:53:09Z</time>
      </trkpt>
      <trkpt lat="50.63913" lon="5.42621">
        <ele>184</ele>
        <time>2018-11-19T17:54:09Z</time>
      </trkpt>
      <trkpt lat="50.63901" lon="5.42615">
        <ele>184</ele>
        <time>2018-11-19T17:55:09Z</time>
      </trkpt>
      <trkpt lat="50.63874" lon="5.42602">
        <ele>184</ele>
        <time>2018-11-19T17:56:09Z</time>
      </trkpt>
      <trkpt lat="50.63845" lon="5.42586">
        <ele>185</ele>
        <time>2018-11-19T17:57:09Z</time>
      </trkpt>
      <trkpt lat="50.63799" lon="5.42562">
        <ele>185</ele>
        <time>2018-11-19T17:58:09Z</time>
      </trkpt>
      <trkpt lat="50.63738" lon="5.4253">
        <ele>185</ele>
        <time>2018-11-19T17:59:09Z</time>
      </trkpt>
      <trkpt lat="50.6371" lon="5.42514">
        <ele>184</ele>
        <time>2018-11-19T18:00:09Z</time>
      </trkpt>
      <trkpt lat="50.63702" lon="5.42501">
        <ele>184</ele>
        <time>2018-11-19T18:01:09Z</time>
      </trkpt>
      <trkpt lat="50.63698" lon="5.42481">
        <ele>184</ele>
        <time>2018-11-19T18:02:09Z</time>
      </trkpt>
      <trkpt lat="50.63699" lon="5.4246">
        <ele>183</ele>
        <time>2018-11-19T18:03:09Z</time>
      </trkpt>
      <trkpt lat="50.63712" lon="5.42438">
        <ele>184</ele>
        <time>2018-11-19T18:04:09Z</time>
      </trkpt>
      <trkpt lat="50.63721" lon="5.42422">
        <ele>184</ele>
        <time>2018-11-19T18:05:09Z</time>
      </trkpt>
      <trkpt lat="50.63733" lon="5.42391">
        <ele>185</ele>
        <time>2018-11-19T18:06:09Z</time>
      </trkpt>
      <trkpt lat="50.63736" lon="5.42366">
        <ele>185</ele>
        <time>2018-11-19T18:07:09Z</time>
      </trkpt>
      <trkpt lat="50.63734" lon="5.42339">
        <ele>185</ele>
        <time>2018-11-19T18:08:09Z</time>
      </trkpt>
      <trkpt lat="50.63727" lon="5.42255">
        <ele>184</ele>
        <time>2018-11-19T18:09:09Z</time>
      </trkpt>
      <trkpt lat="50.63715" lon="5.42116">
        <ele>184</ele>
        <time>2018-11-19T18:10:09Z</time>
      </trkpt>
      <trkpt lat="50.63706" lon="5.4201">
        <ele>182</ele>
        <time>2018-11-19T18:11:09Z</time>
      </trkpt>
      <trkpt lat="50.63692" lon="5.41828">
        <ele>180</ele>
        <time>2018-11-19T18:12:09Z</time>
      </trkpt>
      <trkpt lat="50.63673" lon="5.41561">
        <ele>174</ele>
        <time>2018-11-19T18:13:09Z</time>
      </trkpt>
      <trkpt lat="50.63659" lon="5.41378">
        <ele>172</ele>
        <time>2018-11-19T18:14:09Z</time>
      </trkpt>
      <trkpt lat="50.63648" lon="5.41248">
        <ele>172</ele>
        <time>2018-11-19T18:15:09Z</time>
      </trkpt>
      <trkpt lat="50.6364" lon="5.41143">
        <ele>172</ele>
        <time>2018-11-19T18:16:09Z</time>
      </trkpt>
      <trkpt lat="50.63623" lon="5.40931">
        <ele>171</ele>
        <time>2018-11-19T18:17:09Z</time>
      </trkpt>
      <trkpt lat="50.63613" lon="5.40805">
        <ele>170</ele>
        <time>2018-11-19T18:18:09Z</time>
      </trkpt>
      <trkpt lat="50.63599" lon="5.40628">
        <ele>167</ele>
        <time>2018-11-19T18:19:09Z</time>
      </trkpt>
      <trkpt lat="50.63586" lon="5.40466">
        <ele>164</ele>
        <time>2018-11-19T18:20:09Z</time>
      </trkpt>
      <trkpt lat="50.6358" lon="5.40383">
        <ele>163</ele>
        <time>2018-11-19T18:21:09Z</time>
      </trkpt>
      <trkpt lat="50.63557" lon="5.40096">
        <ele>166</ele>
        <time>2018-11-19T18:22:09Z</time>
      </trkpt>
      <trkpt lat="50.63542" lon="5.39911">
        <ele>168</ele>
        <time>2018-11-19T18:23:09Z</time>
      </trkpt>
      <trkpt lat="50.63536" lon="5.39827">
        <ele>167</ele>
        <time>2018-11-19T18:24:09Z</time>
      </trkpt>
      <trkpt lat="50.63525" lon="5.39712">
        <ele>167</ele>
        <time>2018-11-19T18:25:09Z</time>
      </trkpt>
      <trkpt lat="50.63521" lon="5.39658">
        <ele>167</ele>
        <time>2018-11-19T18:26:09Z</time>
      </trkpt>
      <trkpt lat="50.63519" lon="5.39635">
        <ele>166</ele>
        <time>2018-11-19T18:27:09Z</time>
      </trkpt>
      <trkpt lat="50.63523" lon="5.39623">
        <ele>166</ele>
        <time>2018-11-19T18:28:09Z</time>
      </trkpt>
      <trkpt lat="50.63523" lon="5.39609">
        <ele>166</ele>
        <time>2018-11-19T18:29:09Z</time>
      </trkpt>
      <trkpt lat="50.63514" lon="5.39601">
        <ele>165</ele>
        <time>2018-11-19T18:30:09Z</time>
      </trkpt>
      <trkpt lat="50.63506" lon="5.39607">
        <ele>166</ele>
        <time>2018-11-19T18:31:09Z</time>
      </trkpt>
      <trkpt lat="50.63498" lon="5.39602">
        <ele>165</ele>
        <time>2018-11-19T18:32:09Z</time>
      </trkpt>
      <trkpt lat="50.63488" lon="5.39591">
        <ele>165</ele>
        <time>2018-11-19T18:33:09Z</time>
      </trkpt>
      <trkpt lat="50.63477" lon="5.3958">
        <ele>165</ele>
        <time>2018-11-19T18:34:09Z</time>
      </trkpt>
      <trkpt lat="50.63446" lon="5.39533">
        <ele>164</ele>
        <time>2018-11-19T18:35:09Z</time>
      </trkpt>
      <trkpt lat="50.63416" lon="5.3947">
        <ele>162</ele>
        <time>2018-11-19T18:36:09Z</time>
      </trkpt>
      <trkpt lat="50.6338" lon="5.39416">
        <ele>164</ele>
        <time>2018-11-19T18:37:09Z</time>
      </trkpt>
      <trkpt lat="50.63348" lon="5.3939">
        <ele>165</ele>
        <time>2018-11-19T18:38:09Z</time>
      </trkpt>
      <trkpt lat="50.63315" lon="5.39375">
        <ele>166</ele>
        <time>2018-11-19T18:39:09Z</time>
      </trkpt>
      <trkpt lat="50.63287" lon="5.3937">
        <ele>167</ele>
        <time>2018-11-19T18:40:09Z</time>
      </trkpt>
      <trkpt lat="50.63261" lon="5.39376">
        <ele>169</ele>
        <time>2018-11-19T18:41:09Z</time>
      </trkpt>
      <trkpt lat="50.63212" lon="5.39391">
        <ele>168</ele>
        <time>2018-11-19T18:42:09Z</time>
      </trkpt>
      <trkpt lat="50.6316" lon="5.39412">
        <ele>168</ele>
        <time>2018-11-19T18:43:09Z</time>
      </trkpt>
      <trkpt lat="50.631" lon="5.39436">
        <ele>167</ele>
        <time>2018-11-19T18:44:09Z</time>
      </trkpt>
      <trkpt lat="50.62986" lon="5.3948">
        <ele>165</ele>
        <time>2018-11-19T18:45:09Z</time>
      </trkpt>
      <trkpt lat="50.62957" lon="5.3949">
        <ele>165</ele>
        <time>2018-11-19T18:46:09Z</time>
      </trkpt>
      <trkpt lat="50.62928" lon="5.39501">
        <ele>164</ele>
        <time>2018-11-19T18:47:09Z</time>
      </trkpt>
      <trkpt lat="50.62865" lon="5.39523">
        <ele>161</ele>
        <time>2018-11-19T18:48:09Z</time>
      </trkpt>
      <trkpt lat="50.62803" lon="5.39545">
        <ele>157</ele>
        <time>2018-11-19T18:49:09Z</time>
      </trkpt>
      <trkpt lat="50.62735" lon="5.39568">
        <ele>152</ele>
        <time>2018-11-19T18:50:09Z</time>
      </trkpt>
      <trkpt lat="50.62648" lon="5.39597">
        <ele>147</ele>
        <time>2018-11-19T18:51:09Z</time>
      </trkpt>
      <trkpt lat="50.62631" lon="5.39602">
        <ele>146</ele>
        <time>2018-11-19T18:52:09Z</time>
      </trkpt>
      <trkpt lat="50.62617" lon="5.39604">
        <ele>146</ele>
        <time>2018-11-19T18:53:09Z</time>
      </trkpt>
      <trkpt lat="50.62462" lon="5.39605">
        <ele>142</ele>
        <time>2018-11-19T18:54:09Z</time>
      </trkpt>
      <trkpt lat="50.62444" lon="5.39605">
        <ele>142</ele>
        <time>2018-11-19T18:55:09Z</time>
      </trkpt>
      <trkpt lat="50.62408" lon="5.39607">
        <ele>141</ele>
        <time>2018-11-19T18:56:09Z</time>
      </trkpt>
      <trkpt lat="50.6236" lon="5.39607">
        <ele>137</ele>
        <time>2018-11-19T18:57:09Z</time>
      </trkpt>
      <trkpt lat="50.62321" lon="5.39609">
        <ele>135</ele>
        <time>2018-11-19T18:58:09Z</time>
      </trkpt>
      <trkpt lat="50.62283" lon="5.39609">
        <ele>135</ele>
        <time>2018-11-19T18:59:09Z</time>
      </trkpt>
      <trkpt lat="50.62197" lon="5.39612">
        <ele>135</ele>
        <time>2018-11-19T19:00:09Z</time>
      </trkpt>
      <trkpt lat="50.62167" lon="5.39612">
        <ele>136</ele>
        <time>2018-11-19T19:01:09Z</time>
      </trkpt>
      <trkpt lat="50.62126" lon="5.39587">
        <ele>139</ele>
        <time>2018-11-19T19:02:09Z</time>
      </trkpt>
      <trkpt lat="50.62117" lon="5.39578">
        <ele>139</ele>
        <time>2018-11-19T19:03:09Z</time>
      </trkpt>
      <trkpt lat="50.62067" lon="5.39539">
        <ele>138</ele>
        <time>2018-11-19T19:04:09Z</time>
      </trkpt>
      <trkpt lat="50.62025" lon="5.395">
        <ele>137</ele>
        <time>2018-11-19T19:05:09Z</time>
      </trkpt>
      <trkpt lat="50.6197" lon="5.39453">
        <ele>137</ele>
        <time>2018-11-19T19:06:09Z</time>
      </trkpt>
      <trkpt lat="50.61916" lon="5.39406">
        <ele>139</ele>
        <time>2018-11-19T19:07:09Z</time>
      </trkpt>
      <trkpt lat="50.61885" lon="5.39365">
        <ele>137</ele>
        <time>2018-11-19T19:08:09Z</time>
      </trkpt>
      <trkpt lat="50.61818" lon="5.39266">
        <ele>133</ele>
        <time>2018-11-19T19:09:09Z</time>
      </trkpt>
      <trkpt lat="50.61724" lon="5.39131">
        <ele>130</ele>
        <time>2018-11-19T19:10:09Z</time>
      </trkpt>
      <trkpt lat="50.61707" lon="5.39109">
        <ele>130</ele>
        <time>2018-11-19T19:11:09Z</time>
      </trkpt>
      <trkpt lat="50.61686" lon="5.3909">
        <ele>130</ele>
        <time>2018-11-19T19:12:09Z</time>
      </trkpt>
      <trkpt lat="50.61629" lon="5.39044">
        <ele>128</ele>
        <time>2018-11-19T19:13:09Z</time>
      </trkpt>
      <trkpt lat="50.61591" lon="5.39014">
        <ele>125</ele>
        <time>2018-11-19T19:14:09Z</time>
      </trkpt>
      <trkpt lat="50.61553" lon="5.38984">
        <ele>124</ele>
        <time>2018-11-19T19:15:09Z</time>
      </trkpt>
      <trkpt lat="50.61518" lon="5.38956">
        <ele>124</ele>
        <time>2018-11-19T19:16:09Z</time>
      </trkpt>
      <trkpt lat="50.61485" lon="5.38939">
        <ele>122</ele>
        <time>2018-11-19T19:17:09Z</time>
      </trkpt>
      <trkpt lat="50.61472" lon="5.38932">
        <ele>120</ele>
        <time>2018-11-19T19:18:09Z</time>
      </trkpt>
      <trkpt lat="50.61451" lon="5.38929">
        <ele>118</ele>
        <time>2018-11-19T19:19:09Z</time>
      </trkpt>
      <trkpt lat="50.61439" lon="5.38935">
        <ele>118</ele>
        <time>2018-11-19T19:20:09Z</time>
      </trkpt>
      <trkpt lat="50.61429" lon="5.38941">
        <ele>118</ele>
        <time>2018-11-19T19:21:09Z</time>
      </trkpt>
      <trkpt lat="50.61395" lon="5.38966">
        <ele>117</ele>
        <time>2018-11-19T19:22:09Z</time>
      </trkpt>
      <trkpt lat="50.61379" lon="5.38982">
        <ele>117</ele>
        <time>2018-11-19T19:23:09Z</time>
      </trkpt>
      <trkpt lat="50.61311" lon="5.39062">
        <ele>112</ele>
        <time>2018-11-19T19:24:09Z</time>
      </trkpt>
      <trkpt lat="50.61279" lon="5.39105">
        <ele>112</ele>
        <time>2018-11-19T19:25:09Z</time>
      </trkpt>
      <trkpt lat="50.61224" lon="5.39166">
        <ele>110</ele>
        <time>2018-11-19T19:26:09Z</time>
      </trkpt>
      <trkpt lat="50.61204" lon="5.39183">
        <ele>110</ele>
        <time>2018-11-19T19:27:09Z</time>
      </trkpt>
      <trkpt lat="50.61188" lon="5.3919">
        <ele>111</ele>
        <time>2018-11-19T19:28:09Z</time>
      </trkpt>
      <trkpt lat="50.6116" lon="5.39198">
        <ele>111</ele>
        <time>2018-11-19T19:29:09Z</time>
      </trkpt>
      <trkpt lat="50.6111" lon="5.39206">
        <ele>111</ele>
        <time>2018-11-19T19:30:09Z</time>
      </trkpt>
      <trkpt lat="50.61072" lon="5.39213">
        <ele>112</ele>
        <time>2018-11-19T19:31:09Z</time>
      </trkpt>
      <trkpt lat="50.61035" lon="5.39219">
        <ele>110</ele>
        <time>2018-11-19T19:32:09Z</time>
      </trkpt>
      <trkpt lat="50.61018" lon="5.39222">
        <ele>110</ele>
        <time>2018-11-19T19:33:09Z</time>
      </trkpt>
      <trkpt lat="50.61" lon="5.39228">
        <ele>109</ele>
        <time>2018-11-19T19:34:09Z</time>
      </trkpt>
      <trkpt lat="50.60977" lon="5.39246">
        <ele>110</ele>
        <time>2018-11-19T19:35:09Z</time>
      </trkpt>
      <trkpt lat="50.60951" lon="5.39269">
        <ele>110</ele>
        <time>2018-11-19T19:36:09Z</time>
      </trkpt>
      <trkpt lat="50.60929" lon="5.39296">
        <ele>109</ele>
        <time>2018-11-19T19:37:09Z</time>
      </trkpt>
      <trkpt lat="50.60909" lon="5.39324">
        <ele>109</ele>
        <time>2018-11-19T19:38:09Z</time>
      </trkpt>
      <trkpt lat="50.60895" lon="5.39342">
        <ele>112</ele>
        <time>2018-11-19T19:39:09Z</time>
      </trkpt>
      <trkpt lat="50.60875" lon="5.39372">
        <ele>115</ele>
        <time>2018-11-19T19:40:09Z</time>
      </trkpt>
      <trkpt lat="50.60858" lon="5.39404">
        <ele>116</ele>
        <time>2018-11-19T19:41:09Z</time>
      </trkpt>
      <trkpt lat="50.60847" lon="5.39432">
        <ele>115</ele>
        <time>2018-11-19T19:42:09Z</time>
      </trkpt>
      <trkpt lat="50.60833" lon="5.39479">
        <ele>112</ele>
        <time>2018-11-19T19:43:09Z</time>
      </trkpt>
      <trkpt lat="50.60802" lon="5.39587">
        <ele>108</ele>
        <time>2018-11-19T19:44:09Z</time>
      </trkpt>
      <trkpt lat="50.60781" lon="5.3965">
        <ele>110</ele>
        <time>2018-11-19T19:45:09Z</time>
      </trkpt>
      <trkpt lat="50.60765" lon="5.39702">
        <ele>110</ele>
        <time>2018-11-19T19:46:09Z</time>
      </trkpt>
      <trkpt lat="50.60744" lon="5.39773">
        <ele>107</ele>
        <time>2018-11-19T19:47:09Z</time>
      </trkpt>
      <trkpt lat="50.60717" lon="5.39857">
        <ele>104</ele>
        <time>2018-11-19T19:48:09Z</time>
      </trkpt>
      <trkpt lat="50.60695" lon="5.39924">
        <ele>102</ele>
        <time>2018-11-19T19:49:09Z</time>
      </trkpt>
      <trkpt lat="50.60674" lon="5.39981">
        <ele>101</ele>
        <time>2018-11-19T19:50:09Z</time>
      </trkpt>
      <trkpt lat="50.60656" lon="5.40025">
        <ele>100</ele>
        <time>2018-11-19T19:51:09Z</time>
      </trkpt>
      <trkpt lat="50.60644" lon="5.40056">
        <ele>100</ele>
        <time>2018-11-19T19:52:09Z</time>
      </trkpt>
      <trkpt lat="50.6063" lon="5.40084">
        <ele>99</ele>
        <time>2018-11-19T19:53:09Z</time>
      </trkpt>
      <trkpt lat="50.60615" lon="5.40111">
        <ele>99</ele>
        <time>2018-11-19T19:54:09Z</time>
      </trkpt>
      <trkpt lat="50.60588" lon="5.40142">
        <ele>98</ele>
        <time>2018-11-19T19:55:09Z</time>
      </trkpt>
      <trkpt lat="50.60508" lon="5.40235">
        <ele>96</ele>
        <time>2018-11-19T19:56:09Z</time>
      </trkpt>
      <trkpt lat="50.60476" lon="5.40272">
        <ele>95</ele>
        <time>2018-11-19T19:57:09Z</time>
      </trkpt>
      <trkpt lat="50.60424" lon="5.40305">
        <ele>96</ele>
        <time>2018-11-19T19:58:09Z</time>
      </trkpt>
      <trkpt lat="50.60407" lon="5.40319">
        <ele>96</ele>
        <time>2018-11-19T19:59:09Z</time>
      </trkpt>
      <trkpt lat="50.60371" lon="5.40337">
        <ele>97</ele>
        <time>2018-11-19T20:00:09Z</time>
      </trkpt>
      <trkpt lat="50.60343" lon="5.4035">
        <ele>98</ele>
        <time>2018-11-19T20:01:09Z</time>
      </trkpt>
      <trkpt lat="50.60286" lon="5.40379">
        <ele>97</ele>
        <time>2018-11-19T20:02:09Z</time>
      </trkpt>
      <trkpt lat="50.6024" lon="5.40401">
        <ele>95</ele>
        <time>2018-11-19T20:03:09Z</time>
      </trkpt>
      <trkpt lat="50.60214" lon="5.40417">
        <ele>94</ele>
        <time>2018-11-19T20:04:09Z</time>
      </trkpt>
      <trkpt lat="50.60187" lon="5.40433">
        <ele>94</ele>
        <time>2018-11-19T20:05:09Z</time>
      </trkpt>
      <trkpt lat="50.60155" lon="5.40454">
        <ele>93</ele>
        <time>2018-11-19T20:06:09Z</time>
      </trkpt>
      <trkpt lat="50.60123" lon="5.40474">
        <ele>92</ele>
        <time>2018-11-19T20:07:09Z</time>
      </trkpt>
      <trkpt lat="50.60076" lon="5.40501">
        <ele>90</ele>
        <time>2018-11-19T20:08:09Z</time>
      </trkpt>
      <trkpt lat="50.60033" lon="5.40525">
        <ele>90</ele>
        <time>2018-11-19T20:09:09Z</time>
      </trkpt>
      <trkpt lat="50.60017" lon="5.40536">
        <ele>89</ele>
        <time>2018-11-19T20:10:09Z</time>
      </trkpt>
      <trkpt lat="50.60006" lon="5.40553">
        <ele>89</ele>
        <time>2018-11-19T20:11:09Z</time>
      </trkpt>
      <trkpt lat="50.59994" lon="5.4058">
        <ele>88</ele>
        <time>2018-11-19T20:12:09Z</time>
      </trkpt>
      <trkpt lat="50.59981" lon="5.40625">
        <ele>89</ele>
        <time>2018-11-19T20:13:09Z</time>
      </trkpt>
      <trkpt lat="50.59961" lon="5.40689">
        <ele>89</ele>
        <time>2018-11-19T20:14:09Z</time>
      </trkpt>
      <trkpt lat="50.59939" lon="5.40763">
        <ele>89</ele>
        <time>2018-11-19T20:15:09Z</time>
      </trkpt>
      <trkpt lat="50.59923" lon="5.4082">
        <ele>88</ele>
        <time>2018-11-19T20:16:09Z</time>
      </trkpt>
      <trkpt lat="50.59905" lon="5.40879">
        <ele>89</ele>
        <time>2018-11-19T20:17:09Z</time>
      </trkpt>
      <trkpt lat="50.59889" lon="5.40935">
        <ele>90</ele>
        <time>2018-11-19T20:18:09Z</time>
      </trkpt>
      <trkpt lat="50.59873" lon="5.40996">
        <ele>88</ele>
        <time>2018-11-19T20:19:09Z</time>
      </trkpt>
      <trkpt lat="50.59865" lon="5.41017">
        <ele>88</ele>
        <time>2018-11-19T20:20:09Z</time>
      </trkpt>
      <trkpt lat="50.59848" lon="5.41045">
        <ele>88</ele>
        <time>2018-11-19T20:21:09Z</time>
      </trkpt>
      <trkpt lat="50.59822" lon="5.4108">
        <ele>87</ele>
        <time>2018-11-19T20:22:09Z</time>
      </trkpt>
      <trkpt lat="50.59803" lon="5.41097">
        <ele>87</ele>
        <time>2018-11-19T20:23:09Z</time>
      </trkpt>
      <trkpt lat="50.59789" lon="5.41106">
        <ele>87</ele>
        <time>2018-11-19T20:24:09Z</time>
      </trkpt>
      <trkpt lat="50.59775" lon="5.41109">
        <ele>87</ele>
        <time>2018-11-19T20:25:09Z</time>
      </trkpt>
      <trkpt lat="50.59734" lon="5.4111">
        <ele>87</ele>
        <time>2018-11-19T20:26:09Z</time>
      </trkpt>
      <trkpt lat="50.59674" lon="5.41113">
        <ele>85</ele>
        <time>2018-11-19T20:27:09Z</time>
      </trkpt>
      <trkpt lat="50.59657" lon="5.41112">
        <ele>85</ele>
        <time>2018-11-19T20:28:09Z</time>
      </trkpt>
      <trkpt lat="50.5962" lon="5.41105">
        <ele>84</ele>
        <time>2018-11-19T20:29:09Z</time>
      </trkpt>
      <trkpt lat="50.5956" lon="5.41091">
        <ele>83</ele>
        <time>2018-11-19T20:30:09Z</time>
      </trkpt>
      <trkpt lat="50.59526" lon="5.41084">
        <ele>82</ele>
        <time>2018-11-19T20:31:09Z</time>
      </trkpt>
      <trkpt lat="50.59509" lon="5.41081">
        <ele>81</ele>
        <time>2018-11-19T20:32:09Z</time>
      </trkpt>
      <trkpt lat="50.5949" lon="5.41084">
        <ele>81</ele>
        <time>2018-11-19T20:33:09Z</time>
      </trkpt>
      <trkpt lat="50.59451" lon="5.41089">
        <ele>82</ele>
        <time>2018-11-19T20:34:09Z</time>
      </trkpt>
      <trkpt lat="50.59403" lon="5.41097">
        <ele>83</ele>
        <time>2018-11-19T20:35:09Z</time>
      </trkpt>
      <trkpt lat="50.59358" lon="5.41107">
        <ele>84</ele>
        <time>2018-11-19T20:36:09Z</time>
      </trkpt>
      <trkpt lat="50.59317" lon="5.41116">
        <ele>86</ele>
        <time>2018-11-19T20:37:09Z</time>
      </trkpt>
      <trkpt lat="50.59284" lon="5.41122">
        <ele>88</ele>
        <time>2018-11-19T20:38:09Z</time>
      </trkpt>
      <trkpt lat="50.59257" lon="5.41134">
        <ele>90</ele>
        <time>2018-11-19T20:39:09Z</time>
      </trkpt>
      <trkpt lat="50.59227" lon="5.41147">
        <ele>88</ele>
        <time>2018-11-19T20:40:09Z</time>
      </trkpt>
      <trkpt lat="50.5921" lon="5.4115">
        <ele>87</ele>
        <time>2018-11-19T20:41:09Z</time>
      </trkpt>
      <trkpt lat="50.5919" lon="5.41144">
        <ele>85</ele>
        <time>2018-11-19T20:42:09Z</time>
      </trkpt>
      <trkpt lat="50.59132" lon="5.41124">
        <ele>85</ele>
        <time>2018-11-19T20:43:09Z</time>
      </trkpt>
      <trkpt lat="50.59094" lon="5.4111">
        <ele>83</ele>
        <time>2018-11-19T20:44:09Z</time>
      </trkpt>
      <trkpt lat="50.59058" lon="5.41093">
        <ele>80</ele>
        <time>2018-11-19T20:45:09Z</time>
      </trkpt>
      <trkpt lat="50.59039" lon="5.41086">
        <ele>79</ele>
        <time>2018-11-19T20:46:09Z</time>
      </trkpt>
      <trkpt lat="50.59019" lon="5.41082">
        <ele>77</ele>
        <time>2018-11-19T20:47:09Z</time>
      </trkpt>
      <trkpt lat="50.59001" lon="5.41086">
        <ele>76</ele>
        <time>2018-11-19T20:48:09Z</time>
      </trkpt>
      <trkpt lat="50.58987" lon="5.41096">
        <ele>76</ele>
        <time>2018-11-19T20:49:09Z</time>
      </trkpt>
      <trkpt lat="50.58977" lon="5.41107">
        <ele>77</ele>
        <time>2018-11-19T20:50:09Z</time>
      </trkpt>
      <trkpt lat="50.58963" lon="5.41128">
        <ele>77</ele>
        <time>2018-11-19T20:51:09Z</time>
      </trkpt>
      <trkpt lat="50.58949" lon="5.41164">
        <ele>77</ele>
        <time>2018-11-19T20:52:09Z</time>
      </trkpt>
      <trkpt lat="50.58919" lon="5.41244">
        <ele>73</ele>
        <time>2018-11-19T20:53:09Z</time>
      </trkpt>
      <trkpt lat="50.58896" lon="5.41304">
        <ele>72</ele>
        <time>2018-11-19T20:54:09Z</time>
      </trkpt>
      <trkpt lat="50.58882" lon="5.41336">
        <ele>71</ele>
        <time>2018-11-19T20:55:09Z</time>
      </trkpt>
      <trkpt lat="50.58863" lon="5.41357">
        <ele>70</ele>
        <time>2018-11-19T20:56:09Z</time>
      </trkpt>
      <trkpt lat="50.58848" lon="5.41371">
        <ele>69</ele>
        <time>2018-11-19T20:57:09Z</time>
      </trkpt>
      <trkpt lat="50.58826" lon="5.4139">
        <ele>68</ele>
        <time>2018-11-19T20:58:09Z</time>
      </trkpt>
      <trkpt lat="50.58783" lon="5.41443">
        <ele>69</ele>
        <time>2018-11-19T20:59:09Z</time>
      </trkpt>
      <trkpt lat="50.58757" lon="5.4148">
        <ele>70</ele>
        <time>2018-11-19T21:00:09Z</time>
      </trkpt>
      <trkpt lat="50.58729" lon="5.41517">
        <ele>70</ele>
        <time>2018-11-19T21:01:09Z</time>
      </trkpt>
      <trkpt lat="50.58714" lon="5.41534">
        <ele>71</ele>
        <time>2018-11-19T21:02:09Z</time>
      </trkpt>
      <trkpt lat="50.58701" lon="5.41541">
        <ele>70</ele>
        <time>2018-11-19T21:03:09Z</time>
      </trkpt>
      <trkpt lat="50.58685" lon="5.41546">
        <ele>69</ele>
        <time>2018-11-19T21:04:09Z</time>
      </trkpt>
      <trkpt lat="50.58632" lon="5.41568">
        <ele>67</ele>
        <time>2018-11-19T21:05:09Z</time>
      </trkpt>
      <trkpt lat="50.58624" lon="5.41572">
        <ele>68</ele>
        <time>2018-11-19T21:06:09Z</time>
      </trkpt>
      <trkpt lat="50.58611" lon="5.41577">
        <ele>68</ele>
        <time>2018-11-19T21:07:09Z</time>
      </trkpt>
      <trkpt lat="50.5861" lon="5.41599">
        <ele>67</ele>
        <time>2018-11-19T21:08:09Z</time>
      </trkpt>
      <trkpt lat="50.58609" lon="5.41652">
        <ele>66</ele>
        <time>2018-11-19T21:09:09Z</time>
      </trkpt>
      <trkpt lat="50.58608" lon="5.41702">
        <ele>66</ele>
        <time>2018-11-19T21:10:09Z</time>
      </trkpt>
      <trkpt lat="50.58607" lon="5.4174">
        <ele>65</ele>
        <time>2018-11-19T21:11:09Z</time>
      </trkpt>
      <trkpt lat="50.58611" lon="5.41781">
        <ele>66</ele>
        <time>2018-11-19T21:12:09Z</time>
      </trkpt>
      <trkpt lat="50.58619" lon="5.41863">
        <ele>66</ele>
        <time>2018-11-19T21:13:09Z</time>
      </trkpt>
      <trkpt lat="50.58625" lon="5.41929">
        <ele>66</ele>
        <time>2018-11-19T21:14:09Z</time>
      </trkpt>
      <trkpt lat="50.58633" lon="5.42001">
        <ele>66</ele>
        <time>2018-11-19T21:15:09Z</time>
      </trkpt>
      <trkpt lat="50.58661" lon="5.42261">
        <ele>64</ele>
        <time>2018-11-19T21:16:09Z</time>
      </trkpt>
      <trkpt lat="50.58688" lon="5.42529">
        <ele>64</ele>
        <time>2018-11-19T21:17:09Z</time>
      </trkpt>
      <trkpt lat="50.58702" lon="5.42616">
        <ele>63</ele>
        <time>2018-11-19T21:18:09Z</time>
      </trkpt>
      <trkpt lat="50.58716" lon="5.42677">
        <ele>64</ele>
        <time>2018-11-19T21:19:09Z</time>
      </trkpt>
      <trkpt lat="50.58736" lon="5.42756">
        <ele>64</ele>
        <time>2018-11-19T21:20:09Z</time>
      </trkpt>
      <trkpt lat="50.58758" lon="5.42845">
        <ele>64</ele>
        <time>2018-11-19T21:21:09Z</time>
      </trkpt>
      <trkpt lat="50.58802" lon="5.43025">
        <ele>66</ele>
        <time>2018-11-19T21:22:09Z</time>
      </trkpt>
      <trkpt lat="50.58844" lon="5.43186">
        <ele>69</ele>
        <time>2018-11-19T21:23:09Z</time>
      </trkpt>
      <trkpt lat="50.58865" lon="5.43274">
        <ele>72</ele>
        <time>2018-11-19T21:24:09Z</time>
      </trkpt>
      <trkpt lat="50.58878" lon="5.43358">
        <ele>72</ele>
        <time>2018-11-19T21:25:09Z</time>
      </trkpt>
      <trkpt lat="50.58887" lon="5.43461">
        <ele>70</ele>
        <time>2018-11-19T21:26:09Z</time>
      </trkpt>
      <trkpt lat="50.58892" lon="5.4355">
        <ele>70</ele>
        <time>2018-11-19T21:27:09Z</time>
      </trkpt>
      <trkpt lat="50.58893" lon="5.43572">
        <ele>70</ele>
        <time>2018-11-19T21:28:09Z</time>
      </trkpt>
      <trkpt lat="50.58901" lon="5.43656">
        <ele>69</ele>
        <time>2018-11-19T21:29:09Z</time>
      </trkpt>
      <trkpt lat="50.58911" lon="5.43747">
        <ele>69</ele>
        <time>2018-11-19T21:30:09Z</time>
      </trkpt>
      <trkpt lat="50.58936" lon="5.43924">
        <ele>65</ele>
        <time>2018-11-19T21:31:09Z</time>
      </trkpt>
      <trkpt lat="50.5895" lon="5.44019">
        <ele>67</ele>
        <time>2018-11-19T21:32:09Z</time>
      </trkpt>
      <trkpt lat="50.58961" lon="5.4411">
        <ele>70</ele>
        <time>2018-11-19T21:33:09Z</time>
      </trkpt>
      <trkpt lat="50.58976" lon="5.44213">
        <ele>71</ele>
        <time>2018-11-19T21:34:09Z</time>
      </trkpt>
      <trkpt lat="50.58989" lon="5.44294">
        <ele>71</ele>
        <time>2018-11-19T21:35:09Z</time>
      </trkpt>
      <trkpt lat="50.59009" lon="5.44398">
        <ele>68</ele>
        <time>2018-11-19T21:36:09Z</time>
      </trkpt>
      <trkpt lat="50.59026" lon="5.44482">
        <ele>67</ele>
        <time>2018-11-19T21:37:09Z</time>
      </trkpt>
      <trkpt lat="50.59042" lon="5.4456">
        <ele>66</ele>
        <time>2018-11-19T21:38:09Z</time>
      </trkpt>
      <trkpt lat="50.59072" lon="5.4464">
        <ele>66</ele>
        <time>2018-11-19T21:39:09Z</time>
      </trkpt>
      <trkpt lat="50.59139" lon="5.44781">
        <ele>64</ele>
        <time>2018-11-19T21:40:09Z</time>
      </trkpt>
      <trkpt lat="50.59174" lon="5.44864">
        <ele>64</ele>
        <time>2018-11-19T21:41:09Z</time>
      </trkpt>
      <trkpt lat="50.59186" lon="5.44906">
        <ele>65</ele>
        <time>2018-11-19T21:42:09Z</time>
      </trkpt>
      <trkpt lat="50.59194" lon="5.44945">
        <ele>65</ele>
        <time>2018-11-19T21:43:09Z</time>
      </trkpt>
      <trkpt lat="50.5921" lon="5.45031">
        <ele>66</ele>
        <time>2018-11-19T21:44:09Z</time>
      </trkpt>
      <trkpt lat="50.59225" lon="5.45115">
        <ele>66</ele>
        <time>2018-11-19T21:45:09Z</time>
      </trkpt>
      <trkpt lat="50.59237" lon="5.45199">
        <ele>66</ele>
        <time>2018-11-19T21:46:09Z</time>
      </trkpt>
      <trkpt lat="50.59241" lon="5.45241">
        <ele>64</ele>
        <time>2018-11-19T21:47:09Z</time>
      </trkpt>
      <trkpt lat="50.59241" lon="5.45288">
        <ele>64</ele>
        <time>2018-11-19T21:48:09Z</time>
      </trkpt>
      <trkpt lat="50.59238" lon="5.4533">
        <ele>64</ele>
        <time>2018-11-19T21:49:09Z</time>
      </trkpt>
      <trkpt lat="50.59237" lon="5.45363">
        <ele>65</ele>
        <time>2018-11-19T21:50:09Z</time>
      </trkpt>
      <trkpt lat="50.59262" lon="5.45394">
        <ele>66</ele>
        <time>2018-11-19T21:51:09Z</time>
      </trkpt>
      <trkpt lat="50.59271" lon="5.45406">
        <ele>67</ele>
        <time>2018-11-19T21:52:09Z</time>
      </trkpt>
      <trkpt lat="50.59278" lon="5.45419">
        <ele>67</ele>
        <time>2018-11-19T21:53:09Z</time>
      </trkpt>
      <trkpt lat="50.5929" lon="5.45448">
        <ele>67</ele>
        <time>2018-11-19T21:54:09Z</time>
      </trkpt>
      <trkpt lat="50.59308" lon="5.45486">
        <ele>66</ele>
        <time>2018-11-19T21:55:09Z</time>
      </trkpt>
      <trkpt lat="50.59325" lon="5.45516">
        <ele>67</ele>
        <time>2018-11-19T21:56:09Z</time>
      </trkpt>
      <trkpt lat="50.59347" lon="5.45551">
        <ele>67</ele>
        <time>2018-11-19T21:57:09Z</time>
      </trkpt>
      <trkpt lat="50.59377" lon="5.45607">
        <ele>68</ele>
        <time>2018-11-19T21:58:09Z</time>
      </trkpt>
      <trkpt lat="50.59389" lon="5.45638">
        <ele>68</ele>
        <time>2018-11-19T21:59:09Z</time>
      </trkpt>
      <trkpt lat="50.59442" lon="5.4578">
        <ele>66</ele>
        <time>2018-11-19T22:00:09Z</time>
      </trkpt>
      <trkpt lat="50.59473" lon="5.45861">
        <ele>67</ele>
        <time>2018-11-19T22:01:09Z</time>
      </trkpt>
      <trkpt lat="50.59502" lon="5.45933">
        <ele>69</ele>
        <time>2018-11-19T22:02:09Z</time>
      </trkpt>
      <trkpt lat="50.59544" lon="5.46039">
        <ele>68</ele>
        <time>2018-11-19T22:03:09Z</time>
      </trkpt>
      <trkpt lat="50.59584" lon="5.46138">
        <ele>68</ele>
        <time>2018-11-19T22:04:09Z</time>
      </trkpt>
      <trkpt lat="50.59614" lon="5.46223">
        <ele>67</ele>
        <time>2018-11-19T22:05:09Z</time>
      </trkpt>
      <trkpt lat="50.59649" lon="5.46316">
        <ele>66</ele>
        <time>2018-11-19T22:06:09Z</time>
      </trkpt>
      <trkpt lat="50.59668" lon="5.46362">
        <ele>65</ele>
        <time>2018-11-19T22:07:09Z</time>
      </trkpt>
      <trkpt lat="50.59684" lon="5.46405">
        <ele>66</ele>
        <time>2018-11-19T22:08:09Z</time>
      </trkpt>
      <trkpt lat="50.59701" lon="5.4645">
        <ele>66</ele>
        <time>2018-11-19T22:09:09Z</time>
      </trkpt>
      <trkpt lat="50.59729" lon="5.46522">
        <ele>67</ele>
        <time>2018-11-19T22:10:09Z</time>
      </trkpt>
      <trkpt lat="50.5976" lon="5.46596">
        <ele>68</ele>
        <time>2018-11-19T22:11:09Z</time>
      </trkpt>
      <trkpt lat="50.59796" lon="5.46665">
        <ele>67</ele>
        <time>2018-11-19T22:12:09Z</time>
      </trkpt>
      <trkpt lat="50.59811" lon="5.46696">
        <ele>67</ele>
        <time>2018-11-19T22:13:09Z</time>
      </trkpt>
      <trkpt lat="50.59842" lon="5.4677">
        <ele>68</ele>
        <time>2018-11-19T22:14:09Z</time>
      </trkpt>
      <trkpt lat="50.5985" lon="5.46795">
        <ele>68</ele>
        <time>2018-11-19T22:15:09Z</time>
      </trkpt>
      <trkpt lat="50.5987" lon="5.46875">
        <ele>68</ele>
        <time>2018-11-19T22:16:09Z</time>
      </trkpt>
      <trkpt lat="50.5989" lon="5.46986">
        <ele>65</ele>
        <time>2018-11-19T22:17:09Z</time>
      </trkpt>
      <trkpt lat="50.599" lon="5.47053">
        <ele>64</ele>
        <time>2018-11-19T22:18:09Z</time>
      </trkpt>
      <trkpt lat="50.59914" lon="5.47135">
        <ele>64</ele>
        <time>2018-11-19T22:19:09Z</time>
      </trkpt>
      <trkpt lat="50.59926" lon="5.47197">
        <ele>64</ele>
        <time>2018-11-19T22:20:09Z</time>
      </trkpt>
      <trkpt lat="50.59934" lon="5.47225">
        <ele>64</ele>
        <time>2018-11-19T22:21:09Z</time>
      </trkpt>
      <trkpt lat="50.59947" lon="5.47265">
        <ele>65</ele>
        <time>2018-11-19T22:22:09Z</time>
      </trkpt>
      <trkpt lat="50.59963" lon="5.47295">
        <ele>66</ele>
        <time>2018-11-19T22:23:09Z</time>
      </trkpt>
      <trkpt lat="50.60075" lon="5.47494">
        <ele>67</ele>
        <time>2018-11-19T22:24:09Z</time>
      </trkpt>
      <trkpt lat="50.60114" lon="5.47562">
        <ele>67</ele>
        <time>2018-11-19T22:25:09Z</time>
      </trkpt>
      <trkpt lat="50.60206" lon="5.47725">
        <ele>65</ele>
        <time>2018-11-19T22:26:09Z</time>
      </trkpt>
      <trkpt lat="50.60231" lon="5.47769">
        <ele>64</ele>
        <time>2018-11-19T22:27:09Z</time>
      </trkpt>
      <trkpt lat="50.60262" lon="5.47825">
        <ele>65</ele>
        <time>2018-11-19T22:28:09Z</time>
      </trkpt>
      <trkpt lat="50.603" lon="5.47892">
        <ele>67</ele>
        <time>2018-11-19T22:29:09Z</time>
      </trkpt>
      <trkpt lat="50.60336" lon="5.47954">
        <ele>67</ele>
        <time>2018-11-19T22:30:09Z</time>
      </trkpt>
      <trkpt lat="50.60357" lon="5.47991">
        <ele>67</ele>
        <time>2018-11-19T22:31:09Z</time>
      </trkpt>
      <trkpt lat="50.60372" lon="5.48023">
        <ele>67</ele>
        <time>2018-11-19T22:32:09Z</time>
      </trkpt>
      <trkpt lat="50.60423" lon="5.48146">
        <ele>68</ele>
        <time>2018-11-19T22:33:09Z</time>
      </trkpt>
      <trkpt lat="50.60441" lon="5.48188">
        <ele>68</ele>
        <time>2018-11-19T22:34:09Z</time>
      </trkpt>
      <trkpt lat="50.60452" lon="5.48221">
        <ele>68</ele>
        <time>2018-11-19T22:35:09Z</time>
      </trkpt>
      <trkpt lat="50.60475" lon="5.48302">
        <ele>68</ele>
        <time>2018-11-19T22:36:09Z</time>
      </trkpt>
      <trkpt lat="50.60488" lon="5.48349">
        <ele>68</ele>
        <time>2018-11-19T22:37:09Z</time>
      </trkpt>
      <trkpt lat="50.60492" lon="5.48365">
        <ele>67</ele>
        <time>2018-11-19T22:38:09Z</time>
      </trkpt>
      <trkpt lat="50.60504" lon="5.48376">
        <ele>67</ele>
        <time>2018-11-19T22:39:09Z</time>
      </trkpt>
      <trkpt lat="50.60501" lon="5.48391">
        <ele>67</ele>
        <time>2018-11-19T22:40:09Z</time>
      </trkpt>
      <trkpt lat="50.60486" lon="5.48392">
        <ele>67</ele>
        <time>2018-11-19T22:41:09Z</time>
      </trkpt>
      <trkpt lat="50.60459" lon="5.48425">
        <ele>66</ele>
        <time>2018-11-19T22:42:09Z</time>
      </trkpt>
      <trkpt lat="50.60422" lon="5.4847">
        <ele>64</ele>
        <time>2018-11-19T22:43:09Z</time>
      </trkpt>
      <trkpt lat="50.60405" lon="5.48445">
        <ele>65</ele>
        <time>2018-11-19T22:44:09Z</time>
      </trkpt>
      <trkpt lat="50.6042" lon="5.48427">
        <ele>65</ele>
        <time>2018-11-19T22:45:09Z</time>
      </trkpt>
    </trkseg>
  </trk>
</gpx>